<?xml version="1.0" encoding="UTF-8" standalone="no" ?>
<gpx xmlns="http://www.topografix.com/GPX/1/1" xmlns:xsi="http://www.w3.org/2001/XMLSchema-instance" xsi:schemaLocation="http://www.topografix.com/GPX/1/1 http://www.topografix.com/GPX/1/1/gpx.xsd" version="1.1" creator="VisuGPX - https://www.visugpx.com">
  <metadata>
    <name> Hiis Montgaillard</name>
    <desc><![CDATA[Hiis]]></desc>
  </metadata>
  <trk>
    <name><![CDATA[Hiis]]></name>
    <cmt><![CDATA[Hiis]]></cmt>
    <desc><![CDATA[Hiis]]></desc>
    <trkseg>
      <trkpt lat="43.1362" lon="0.10234">
        <ele>415.077</ele>
        <time>2025-04-06T08:34:45Z</time>
      </trkpt>
      <trkpt lat="43.13624" lon="0.10235">
        <ele>415.061</ele>
        <time>2025-04-06T08:36:04Z</time>
      </trkpt>
      <trkpt lat="43.13625" lon="0.10241">
        <ele>415.027</ele>
        <time>2025-04-06T08:36:10Z</time>
      </trkpt>
      <trkpt lat="43.13626" lon="0.10248">
        <ele>415.009</ele>
        <time>2025-04-06T08:36:17Z</time>
      </trkpt>
      <trkpt lat="43.13625" lon="0.10255">
        <ele>415.269</ele>
        <time>2025-04-06T08:36:24Z</time>
      </trkpt>
      <trkpt lat="43.13625" lon="0.10262">
        <ele>415.457</ele>
        <time>2025-04-06T08:36:30Z</time>
      </trkpt>
      <trkpt lat="43.13626" lon="0.10269">
        <ele>415.714</ele>
        <time>2025-04-06T08:36:36Z</time>
      </trkpt>
      <trkpt lat="43.13625" lon="0.10275">
        <ele>415.955</ele>
        <time>2025-04-06T08:36:41Z</time>
      </trkpt>
      <trkpt lat="43.13623" lon="0.1028">
        <ele>416.047</ele>
        <time>2025-04-06T08:36:49Z</time>
      </trkpt>
      <trkpt lat="43.1362" lon="0.10287">
        <ele>416.099</ele>
        <time>2025-04-06T08:37:00Z</time>
      </trkpt>
      <trkpt lat="43.1362" lon="0.10294">
        <ele>416.076</ele>
        <time>2025-04-06T08:37:06Z</time>
      </trkpt>
      <trkpt lat="43.13621" lon="0.103">
        <ele>416.043</ele>
        <time>2025-04-06T08:37:16Z</time>
      </trkpt>
      <trkpt lat="43.13615" lon="0.10299">
        <ele>416.036</ele>
        <time>2025-04-06T08:37:17Z</time>
      </trkpt>
      <trkpt lat="43.13614" lon="0.10306">
        <ele>416.074</ele>
        <time>2025-04-06T08:37:23Z</time>
      </trkpt>
      <trkpt lat="43.13614" lon="0.10313">
        <ele>416.256</ele>
        <time>2025-04-06T08:37:28Z</time>
      </trkpt>
      <trkpt lat="43.13614" lon="0.10319">
        <ele>416.421</ele>
        <time>2025-04-06T08:37:33Z</time>
      </trkpt>
      <trkpt lat="43.13616" lon="0.10325">
        <ele>416.609</ele>
        <time>2025-04-06T08:37:38Z</time>
      </trkpt>
      <trkpt lat="43.13619" lon="0.10331">
        <ele>416.729</ele>
        <time>2025-04-06T08:37:43Z</time>
      </trkpt>
      <trkpt lat="43.13621" lon="0.10337">
        <ele>416.757</ele>
        <time>2025-04-06T08:37:48Z</time>
      </trkpt>
      <trkpt lat="43.13627" lon="0.10338">
        <ele>416.524</ele>
        <time>2025-04-06T08:37:56Z</time>
      </trkpt>
      <trkpt lat="43.1362" lon="0.10345">
        <ele>416.865</ele>
        <time>2025-04-06T08:37:59Z</time>
      </trkpt>
      <trkpt lat="43.13623" lon="0.10351">
        <ele>416.877</ele>
        <time>2025-04-06T08:38:05Z</time>
      </trkpt>
      <trkpt lat="43.13624" lon="0.10357">
        <ele>416.959</ele>
        <time>2025-04-06T08:38:10Z</time>
      </trkpt>
      <trkpt lat="43.13625" lon="0.10364">
        <ele>417.036</ele>
        <time>2025-04-06T08:38:15Z</time>
      </trkpt>
      <trkpt lat="43.13627" lon="0.10371">
        <ele>417.033</ele>
        <time>2025-04-06T08:38:21Z</time>
      </trkpt>
      <trkpt lat="43.13629" lon="0.10376">
        <ele>417.046</ele>
        <time>2025-04-06T08:38:26Z</time>
      </trkpt>
      <trkpt lat="43.13632" lon="0.10381">
        <ele>417.039</ele>
        <time>2025-04-06T08:38:37Z</time>
      </trkpt>
      <trkpt lat="43.13631" lon="0.10389">
        <ele>417.001</ele>
        <time>2025-04-06T08:38:44Z</time>
      </trkpt>
      <trkpt lat="43.13628" lon="0.10395">
        <ele>417.121</ele>
        <time>2025-04-06T08:38:49Z</time>
      </trkpt>
      <trkpt lat="43.13629" lon="0.10401">
        <ele>417.209</ele>
        <time>2025-04-06T08:38:54Z</time>
      </trkpt>
      <trkpt lat="43.13631" lon="0.10408">
        <ele>417.215</ele>
        <time>2025-04-06T08:39:00Z</time>
      </trkpt>
      <trkpt lat="43.13633" lon="0.10414">
        <ele>417.283</ele>
        <time>2025-04-06T08:39:05Z</time>
      </trkpt>
      <trkpt lat="43.13634" lon="0.1042">
        <ele>417.36</ele>
        <time>2025-04-06T08:39:10Z</time>
      </trkpt>
      <trkpt lat="43.13636" lon="0.10427">
        <ele>417.411</ele>
        <time>2025-04-06T08:39:16Z</time>
      </trkpt>
      <trkpt lat="43.13637" lon="0.10433">
        <ele>417.613</ele>
        <time>2025-04-06T08:39:21Z</time>
      </trkpt>
      <trkpt lat="43.1364" lon="0.10438">
        <ele>417.725</ele>
        <time>2025-04-06T08:39:26Z</time>
      </trkpt>
      <trkpt lat="43.13642" lon="0.10444">
        <ele>417.992</ele>
        <time>2025-04-06T08:39:32Z</time>
      </trkpt>
      <trkpt lat="43.13645" lon="0.1045">
        <ele>417.879</ele>
        <time>2025-04-06T08:39:38Z</time>
      </trkpt>
      <trkpt lat="43.13647" lon="0.10456">
        <ele>417.782</ele>
        <time>2025-04-06T08:39:44Z</time>
      </trkpt>
      <trkpt lat="43.1365" lon="0.1046">
        <ele>417.689</ele>
        <time>2025-04-06T08:40:16Z</time>
      </trkpt>
      <trkpt lat="43.13653" lon="0.10466">
        <ele>417.506</ele>
        <time>2025-04-06T08:40:24Z</time>
      </trkpt>
      <trkpt lat="43.13651" lon="0.10472">
        <ele>417.626</ele>
        <time>2025-04-06T08:40:31Z</time>
      </trkpt>
      <trkpt lat="43.13646" lon="0.10474">
        <ele>417.809</ele>
        <time>2025-04-06T08:40:34Z</time>
      </trkpt>
      <trkpt lat="43.13641" lon="0.10476">
        <ele>417.96</ele>
        <time>2025-04-06T08:40:39Z</time>
      </trkpt>
      <trkpt lat="43.13636" lon="0.10477">
        <ele>418.048</ele>
        <time>2025-04-06T08:40:44Z</time>
      </trkpt>
      <trkpt lat="43.13632" lon="0.10481">
        <ele>418.155</ele>
        <time>2025-04-06T08:40:50Z</time>
      </trkpt>
      <trkpt lat="43.1363" lon="0.10488">
        <ele>418.246</ele>
        <time>2025-04-06T08:40:54Z</time>
      </trkpt>
      <trkpt lat="43.13627" lon="0.10493">
        <ele>418.328</ele>
        <time>2025-04-06T08:40:59Z</time>
      </trkpt>
      <trkpt lat="43.13624" lon="0.105">
        <ele>418.58</ele>
        <time>2025-04-06T08:41:05Z</time>
      </trkpt>
      <trkpt lat="43.13622" lon="0.10506">
        <ele>418.767</ele>
        <time>2025-04-06T08:41:11Z</time>
      </trkpt>
      <trkpt lat="43.13618" lon="0.10511">
        <ele>418.824</ele>
        <time>2025-04-06T08:41:17Z</time>
      </trkpt>
      <trkpt lat="43.13614" lon="0.10515">
        <ele>418.977</ele>
        <time>2025-04-06T08:41:23Z</time>
      </trkpt>
      <trkpt lat="43.13612" lon="0.10522">
        <ele>419.094</ele>
        <time>2025-04-06T08:41:28Z</time>
      </trkpt>
      <trkpt lat="43.13608" lon="0.10526">
        <ele>419.157</ele>
        <time>2025-04-06T08:41:35Z</time>
      </trkpt>
      <trkpt lat="43.13603" lon="0.10527">
        <ele>419.322</ele>
        <time>2025-04-06T08:41:43Z</time>
      </trkpt>
      <trkpt lat="43.13599" lon="0.10528">
        <ele>419.509</ele>
        <time>2025-04-06T08:41:49Z</time>
      </trkpt>
      <trkpt lat="43.13594" lon="0.10526">
        <ele>419.631</ele>
        <time>2025-04-06T08:41:55Z</time>
      </trkpt>
      <trkpt lat="43.1359" lon="0.10525">
        <ele>419.899</ele>
        <time>2025-04-06T08:42:01Z</time>
      </trkpt>
      <trkpt lat="43.13584" lon="0.10524">
        <ele>420.066</ele>
        <time>2025-04-06T08:42:06Z</time>
      </trkpt>
      <trkpt lat="43.1358" lon="0.10523">
        <ele>420.077</ele>
        <time>2025-04-06T08:42:11Z</time>
      </trkpt>
      <trkpt lat="43.13575" lon="0.10523">
        <ele>420.059</ele>
        <time>2025-04-06T08:42:16Z</time>
      </trkpt>
      <trkpt lat="43.1357" lon="0.10524">
        <ele>420.011</ele>
        <time>2025-04-06T08:42:21Z</time>
      </trkpt>
      <trkpt lat="43.13565" lon="0.10524">
        <ele>420.098</ele>
        <time>2025-04-06T08:42:27Z</time>
      </trkpt>
      <trkpt lat="43.1356" lon="0.10525">
        <ele>420.055</ele>
        <time>2025-04-06T08:42:33Z</time>
      </trkpt>
      <trkpt lat="43.13556" lon="0.10528">
        <ele>420.058</ele>
        <time>2025-04-06T08:43:02Z</time>
      </trkpt>
      <trkpt lat="43.13551" lon="0.10531">
        <ele>420.083</ele>
        <time>2025-04-06T08:43:08Z</time>
      </trkpt>
      <trkpt lat="43.13546" lon="0.1053">
        <ele>420.025</ele>
        <time>2025-04-06T08:43:14Z</time>
      </trkpt>
      <trkpt lat="43.13542" lon="0.10533">
        <ele>420.017</ele>
        <time>2025-04-06T08:43:21Z</time>
      </trkpt>
      <trkpt lat="43.13537" lon="0.10532">
        <ele>420.009</ele>
        <time>2025-04-06T08:43:27Z</time>
      </trkpt>
      <trkpt lat="43.13532" lon="0.10534">
        <ele>420.08</ele>
        <time>2025-04-06T08:43:33Z</time>
      </trkpt>
      <trkpt lat="43.13528" lon="0.10536">
        <ele>420.028</ele>
        <time>2025-04-06T08:43:39Z</time>
      </trkpt>
      <trkpt lat="43.13523" lon="0.10541">
        <ele>420.035</ele>
        <time>2025-04-06T08:43:45Z</time>
      </trkpt>
      <trkpt lat="43.13519" lon="0.10542">
        <ele>420.016</ele>
        <time>2025-04-06T08:43:51Z</time>
      </trkpt>
      <trkpt lat="43.13514" lon="0.10546">
        <ele>420.088</ele>
        <time>2025-04-06T08:43:57Z</time>
      </trkpt>
      <trkpt lat="43.13509" lon="0.10549">
        <ele>420.03</ele>
        <time>2025-04-06T08:44:02Z</time>
      </trkpt>
      <trkpt lat="43.13504" lon="0.10551">
        <ele>420.037</ele>
        <time>2025-04-06T08:44:07Z</time>
      </trkpt>
      <trkpt lat="43.13499" lon="0.10553">
        <ele>420.034</ele>
        <time>2025-04-06T08:44:13Z</time>
      </trkpt>
      <trkpt lat="43.13494" lon="0.10555">
        <ele>420.287</ele>
        <time>2025-04-06T08:44:20Z</time>
      </trkpt>
      <trkpt lat="43.1349" lon="0.10556">
        <ele>420.486</ele>
        <time>2025-04-06T08:44:26Z</time>
      </trkpt>
      <trkpt lat="43.13485" lon="0.10558">
        <ele>420.66</ele>
        <time>2025-04-06T08:44:32Z</time>
      </trkpt>
      <trkpt lat="43.1348" lon="0.1056">
        <ele>420.826</ele>
        <time>2025-04-06T08:44:38Z</time>
      </trkpt>
      <trkpt lat="43.13476" lon="0.10565">
        <ele>420.909</ele>
        <time>2025-04-06T08:44:43Z</time>
      </trkpt>
      <trkpt lat="43.13472" lon="0.10569">
        <ele>421.04</ele>
        <time>2025-04-06T08:44:48Z</time>
      </trkpt>
      <trkpt lat="43.13468" lon="0.10573">
        <ele>421.088</ele>
        <time>2025-04-06T08:44:53Z</time>
      </trkpt>
      <trkpt lat="43.13468" lon="0.10566">
        <ele>421.015</ele>
        <time>2025-04-06T08:45:02Z</time>
      </trkpt>
      <trkpt lat="43.13463" lon="0.10569">
        <ele>421.076</ele>
        <time>2025-04-06T08:45:08Z</time>
      </trkpt>
      <trkpt lat="43.13459" lon="0.10573">
        <ele>421.098</ele>
        <time>2025-04-06T08:45:13Z</time>
      </trkpt>
      <trkpt lat="43.13454" lon="0.10576">
        <ele>421.07</ele>
        <time>2025-04-06T08:45:18Z</time>
      </trkpt>
      <trkpt lat="43.1345" lon="0.1058">
        <ele>421.097</ele>
        <time>2025-04-06T08:45:23Z</time>
      </trkpt>
      <trkpt lat="43.13445" lon="0.10583">
        <ele>421.074</ele>
        <time>2025-04-06T08:45:29Z</time>
      </trkpt>
      <trkpt lat="43.13444" lon="0.1059">
        <ele>421.077</ele>
        <time>2025-04-06T08:45:41Z</time>
      </trkpt>
      <trkpt lat="43.1344" lon="0.10594">
        <ele>421.124</ele>
        <time>2025-04-06T08:45:48Z</time>
      </trkpt>
      <trkpt lat="43.13436" lon="0.10595">
        <ele>421.104</ele>
        <time>2025-04-06T08:45:55Z</time>
      </trkpt>
      <trkpt lat="43.13431" lon="0.10597">
        <ele>421.214</ele>
        <time>2025-04-06T08:46:02Z</time>
      </trkpt>
      <trkpt lat="43.13426" lon="0.106">
        <ele>421.409</ele>
        <time>2025-04-06T08:46:08Z</time>
      </trkpt>
      <trkpt lat="43.13421" lon="0.10602">
        <ele>421.624</ele>
        <time>2025-04-06T08:46:13Z</time>
      </trkpt>
      <trkpt lat="43.13417" lon="0.10605">
        <ele>421.842</ele>
        <time>2025-04-06T08:46:18Z</time>
      </trkpt>
      <trkpt lat="43.13413" lon="0.10608">
        <ele>421.949</ele>
        <time>2025-04-06T08:46:23Z</time>
      </trkpt>
      <trkpt lat="43.13408" lon="0.10611">
        <ele>422.09</ele>
        <time>2025-04-06T08:46:29Z</time>
      </trkpt>
      <trkpt lat="43.13404" lon="0.10614">
        <ele>422.022</ele>
        <time>2025-04-06T08:46:35Z</time>
      </trkpt>
      <trkpt lat="43.13399" lon="0.10616">
        <ele>422.014</ele>
        <time>2025-04-06T08:46:42Z</time>
      </trkpt>
      <trkpt lat="43.13395" lon="0.10618">
        <ele>422.011</ele>
        <time>2025-04-06T08:46:48Z</time>
      </trkpt>
      <trkpt lat="43.13393" lon="0.10624">
        <ele>422.018</ele>
        <time>2025-04-06T08:49:33Z</time>
      </trkpt>
      <trkpt lat="43.13388" lon="0.10626">
        <ele>422.011</ele>
        <time>2025-04-06T08:49:40Z</time>
      </trkpt>
      <trkpt lat="43.13384" lon="0.10629">
        <ele>422.056</ele>
        <time>2025-04-06T08:49:45Z</time>
      </trkpt>
      <trkpt lat="43.1338" lon="0.10633">
        <ele>422.059</ele>
        <time>2025-04-06T08:49:50Z</time>
      </trkpt>
      <trkpt lat="43.13375" lon="0.10636">
        <ele>422.014</ele>
        <time>2025-04-06T08:50:02Z</time>
      </trkpt>
      <trkpt lat="43.13371" lon="0.1064">
        <ele>422.009</ele>
        <time>2025-04-06T08:50:07Z</time>
      </trkpt>
      <trkpt lat="43.13366" lon="0.10641">
        <ele>422.157</ele>
        <time>2025-04-06T08:50:12Z</time>
      </trkpt>
      <trkpt lat="43.13362" lon="0.10646">
        <ele>422.215</ele>
        <time>2025-04-06T08:50:19Z</time>
      </trkpt>
      <trkpt lat="43.13358" lon="0.1065">
        <ele>422.432</ele>
        <time>2025-04-06T08:50:26Z</time>
      </trkpt>
      <trkpt lat="43.13354" lon="0.10654">
        <ele>422.533</ele>
        <time>2025-04-06T08:50:37Z</time>
      </trkpt>
      <trkpt lat="43.1335" lon="0.10658">
        <ele>422.725</ele>
        <time>2025-04-06T08:50:44Z</time>
      </trkpt>
      <trkpt lat="43.13346" lon="0.10662">
        <ele>422.877</ele>
        <time>2025-04-06T08:50:50Z</time>
      </trkpt>
      <trkpt lat="43.13343" lon="0.10666">
        <ele>423.094</ele>
        <time>2025-04-06T08:50:56Z</time>
      </trkpt>
      <trkpt lat="43.13338" lon="0.1067">
        <ele>423.051</ele>
        <time>2025-04-06T08:51:03Z</time>
      </trkpt>
      <trkpt lat="43.13334" lon="0.10673">
        <ele>423.034</ele>
        <time>2025-04-06T08:51:09Z</time>
      </trkpt>
      <trkpt lat="43.13329" lon="0.10675">
        <ele>423.136</ele>
        <time>2025-04-06T08:51:15Z</time>
      </trkpt>
      <trkpt lat="43.13324" lon="0.10679">
        <ele>423.117</ele>
        <time>2025-04-06T08:51:21Z</time>
      </trkpt>
      <trkpt lat="43.1332" lon="0.10682">
        <ele>423.318</ele>
        <time>2025-04-06T08:51:26Z</time>
      </trkpt>
      <trkpt lat="43.13315" lon="0.10685">
        <ele>423.409</ele>
        <time>2025-04-06T08:51:32Z</time>
      </trkpt>
      <trkpt lat="43.13311" lon="0.10688">
        <ele>423.665</ele>
        <time>2025-04-06T08:51:38Z</time>
      </trkpt>
      <trkpt lat="43.13307" lon="0.10692">
        <ele>423.983</ele>
        <time>2025-04-06T08:52:01Z</time>
      </trkpt>
      <trkpt lat="43.13303" lon="0.10696">
        <ele>424.04</ele>
        <time>2025-04-06T08:52:06Z</time>
      </trkpt>
      <trkpt lat="43.13299" lon="0.10701">
        <ele>424.071</ele>
        <time>2025-04-06T08:52:12Z</time>
      </trkpt>
      <trkpt lat="43.13295" lon="0.10704">
        <ele>424.073</ele>
        <time>2025-04-06T08:52:18Z</time>
      </trkpt>
      <trkpt lat="43.13291" lon="0.10708">
        <ele>424.095</ele>
        <time>2025-04-06T08:52:24Z</time>
      </trkpt>
      <trkpt lat="43.13286" lon="0.10711">
        <ele>424.052</ele>
        <time>2025-04-06T08:52:29Z</time>
      </trkpt>
      <trkpt lat="43.13282" lon="0.10714">
        <ele>424.069</ele>
        <time>2025-04-06T08:52:35Z</time>
      </trkpt>
      <trkpt lat="43.13278" lon="0.10718">
        <ele>424.092</ele>
        <time>2025-04-06T08:52:41Z</time>
      </trkpt>
      <trkpt lat="43.13273" lon="0.10722">
        <ele>424.039</ele>
        <time>2025-04-06T08:52:47Z</time>
      </trkpt>
      <trkpt lat="43.13269" lon="0.10725">
        <ele>424.101</ele>
        <time>2025-04-06T08:52:52Z</time>
      </trkpt>
      <trkpt lat="43.13264" lon="0.10726">
        <ele>424.121</ele>
        <time>2025-04-06T08:52:57Z</time>
      </trkpt>
      <trkpt lat="43.13259" lon="0.10729">
        <ele>424.209</ele>
        <time>2025-04-06T08:53:03Z</time>
      </trkpt>
      <trkpt lat="43.13255" lon="0.10732">
        <ele>424.465</ele>
        <time>2025-04-06T08:53:09Z</time>
      </trkpt>
      <trkpt lat="43.1325" lon="0.10735">
        <ele>424.543</ele>
        <time>2025-04-06T08:53:15Z</time>
      </trkpt>
      <trkpt lat="43.13246" lon="0.10739">
        <ele>424.78</ele>
        <time>2025-04-06T08:53:21Z</time>
      </trkpt>
      <trkpt lat="43.13243" lon="0.10744">
        <ele>424.871</ele>
        <time>2025-04-06T08:53:26Z</time>
      </trkpt>
      <trkpt lat="43.1324" lon="0.10749">
        <ele>425.043</ele>
        <time>2025-04-06T08:53:31Z</time>
      </trkpt>
      <trkpt lat="43.13237" lon="0.10755">
        <ele>425.095</ele>
        <time>2025-04-06T08:53:37Z</time>
      </trkpt>
      <trkpt lat="43.13234" lon="0.10761">
        <ele>425.032</ele>
        <time>2025-04-06T08:53:42Z</time>
      </trkpt>
      <trkpt lat="43.13231" lon="0.10766">
        <ele>425.049</ele>
        <time>2025-04-06T08:53:47Z</time>
      </trkpt>
      <trkpt lat="43.13228" lon="0.10771">
        <ele>425.092</ele>
        <time>2025-04-06T08:53:52Z</time>
      </trkpt>
      <trkpt lat="43.13225" lon="0.10776">
        <ele>425.032</ele>
        <time>2025-04-06T08:53:58Z</time>
      </trkpt>
      <trkpt lat="43.13221" lon="0.10781">
        <ele>425.092</ele>
        <time>2025-04-06T08:54:04Z</time>
      </trkpt>
      <trkpt lat="43.13218" lon="0.10786">
        <ele>425.011</ele>
        <time>2025-04-06T08:54:10Z</time>
      </trkpt>
      <trkpt lat="43.13214" lon="0.1079">
        <ele>425.009</ele>
        <time>2025-04-06T08:54:15Z</time>
      </trkpt>
      <trkpt lat="43.1321" lon="0.10794">
        <ele>425.035</ele>
        <time>2025-04-06T08:54:20Z</time>
      </trkpt>
      <trkpt lat="43.13206" lon="0.10798">
        <ele>425.073</ele>
        <time>2025-04-06T08:54:26Z</time>
      </trkpt>
      <trkpt lat="43.13201" lon="0.10801">
        <ele>425.02</ele>
        <time>2025-04-06T08:54:32Z</time>
      </trkpt>
      <trkpt lat="43.13197" lon="0.10804">
        <ele>425.031</ele>
        <time>2025-04-06T08:54:38Z</time>
      </trkpt>
      <trkpt lat="43.13192" lon="0.10807">
        <ele>425.053</ele>
        <time>2025-04-06T08:54:44Z</time>
      </trkpt>
      <trkpt lat="43.13188" lon="0.10811">
        <ele>425.095</ele>
        <time>2025-04-06T08:54:50Z</time>
      </trkpt>
      <trkpt lat="43.13185" lon="0.10815">
        <ele>425.012</ele>
        <time>2025-04-06T08:54:56Z</time>
      </trkpt>
      <trkpt lat="43.13183" lon="0.10821">
        <ele>425.059</ele>
        <time>2025-04-06T08:55:08Z</time>
      </trkpt>
      <trkpt lat="43.13179" lon="0.10825">
        <ele>425.062</ele>
        <time>2025-04-06T08:55:13Z</time>
      </trkpt>
      <trkpt lat="43.13175" lon="0.10829">
        <ele>425.024</ele>
        <time>2025-04-06T08:55:19Z</time>
      </trkpt>
      <trkpt lat="43.13171" lon="0.10833">
        <ele>425.004</ele>
        <time>2025-04-06T08:55:25Z</time>
      </trkpt>
      <trkpt lat="43.13166" lon="0.10836">
        <ele>425.014</ele>
        <time>2025-04-06T08:55:30Z</time>
      </trkpt>
      <trkpt lat="43.13162" lon="0.10838">
        <ele>425.009</ele>
        <time>2025-04-06T08:55:36Z</time>
      </trkpt>
      <trkpt lat="43.13157" lon="0.10841">
        <ele>425.064</ele>
        <time>2025-04-06T08:55:41Z</time>
      </trkpt>
      <trkpt lat="43.13153" lon="0.10845">
        <ele>425.082</ele>
        <time>2025-04-06T08:55:48Z</time>
      </trkpt>
      <trkpt lat="43.13148" lon="0.10847">
        <ele>425.079</ele>
        <time>2025-04-06T08:55:54Z</time>
      </trkpt>
      <trkpt lat="43.13143" lon="0.10848">
        <ele>425.04</ele>
        <time>2025-04-06T08:56:00Z</time>
      </trkpt>
      <trkpt lat="43.13139" lon="0.10851">
        <ele>425.012</ele>
        <time>2025-04-06T08:56:06Z</time>
      </trkpt>
      <trkpt lat="43.13134" lon="0.10852">
        <ele>425.074</ele>
        <time>2025-04-06T08:56:12Z</time>
      </trkpt>
      <trkpt lat="43.1313" lon="0.10856">
        <ele>425.031</ele>
        <time>2025-04-06T08:56:18Z</time>
      </trkpt>
      <trkpt lat="43.13125" lon="0.10856">
        <ele>425.018</ele>
        <time>2025-04-06T08:56:41Z</time>
      </trkpt>
      <trkpt lat="43.13121" lon="0.10858">
        <ele>425.071</ele>
        <time>2025-04-06T08:56:47Z</time>
      </trkpt>
      <trkpt lat="43.13116" lon="0.10858">
        <ele>425.065</ele>
        <time>2025-04-06T08:57:11Z</time>
      </trkpt>
      <trkpt lat="43.13112" lon="0.1086">
        <ele>425.068</ele>
        <time>2025-04-06T08:57:17Z</time>
      </trkpt>
      <trkpt lat="43.13107" lon="0.10863">
        <ele>425.214</ele>
        <time>2025-04-06T08:57:34Z</time>
      </trkpt>
      <trkpt lat="43.13102" lon="0.10864">
        <ele>425.409</ele>
        <time>2025-04-06T08:57:40Z</time>
      </trkpt>
      <trkpt lat="43.13097" lon="0.10865">
        <ele>425.678</ele>
        <time>2025-04-06T08:57:46Z</time>
      </trkpt>
      <trkpt lat="43.13092" lon="0.10867">
        <ele>425.866</ele>
        <time>2025-04-06T08:57:52Z</time>
      </trkpt>
      <trkpt lat="43.13087" lon="0.10869">
        <ele>425.993</ele>
        <time>2025-04-06T08:57:57Z</time>
      </trkpt>
      <trkpt lat="43.13083" lon="0.10871">
        <ele>426.094</ele>
        <time>2025-04-06T08:58:02Z</time>
      </trkpt>
      <trkpt lat="43.13078" lon="0.10872">
        <ele>426.146</ele>
        <time>2025-04-06T08:58:07Z</time>
      </trkpt>
      <trkpt lat="43.13074" lon="0.10874">
        <ele>426.218</ele>
        <time>2025-04-06T08:58:12Z</time>
      </trkpt>
      <trkpt lat="43.13069" lon="0.10875">
        <ele>426.385</ele>
        <time>2025-04-06T08:58:17Z</time>
      </trkpt>
      <trkpt lat="43.13064" lon="0.10875">
        <ele>426.372</ele>
        <time>2025-04-06T08:58:22Z</time>
      </trkpt>
      <trkpt lat="43.13059" lon="0.10874">
        <ele>426.435</ele>
        <time>2025-04-06T08:58:27Z</time>
      </trkpt>
      <trkpt lat="43.13054" lon="0.10874">
        <ele>426.568</ele>
        <time>2025-04-06T08:58:32Z</time>
      </trkpt>
      <trkpt lat="43.13049" lon="0.10874">
        <ele>426.642</ele>
        <time>2025-04-06T08:58:37Z</time>
      </trkpt>
      <trkpt lat="43.13043" lon="0.10872">
        <ele>426.726</ele>
        <time>2025-04-06T08:58:42Z</time>
      </trkpt>
      <trkpt lat="43.13039" lon="0.1087">
        <ele>426.709</ele>
        <time>2025-04-06T08:58:47Z</time>
      </trkpt>
      <trkpt lat="43.13034" lon="0.10867">
        <ele>426.868</ele>
        <time>2025-04-06T08:58:52Z</time>
      </trkpt>
      <trkpt lat="43.1303" lon="0.10864">
        <ele>426.936</ele>
        <time>2025-04-06T08:58:57Z</time>
      </trkpt>
      <trkpt lat="43.13026" lon="0.10862">
        <ele>427.013</ele>
        <time>2025-04-06T08:59:02Z</time>
      </trkpt>
      <trkpt lat="43.13021" lon="0.1086">
        <ele>426.924</ele>
        <time>2025-04-06T08:59:07Z</time>
      </trkpt>
      <trkpt lat="43.13016" lon="0.10858">
        <ele>426.996</ele>
        <time>2025-04-06T08:59:23Z</time>
      </trkpt>
      <trkpt lat="43.13011" lon="0.10855">
        <ele>426.898</ele>
        <time>2025-04-06T08:59:28Z</time>
      </trkpt>
      <trkpt lat="43.13006" lon="0.10855">
        <ele>426.885</ele>
        <time>2025-04-06T08:59:33Z</time>
      </trkpt>
      <trkpt lat="43.13001" lon="0.10857">
        <ele>426.912</ele>
        <time>2025-04-06T08:59:39Z</time>
      </trkpt>
      <trkpt lat="43.12996" lon="0.10859">
        <ele>426.975</ele>
        <time>2025-04-06T08:59:44Z</time>
      </trkpt>
      <trkpt lat="43.12991" lon="0.10861">
        <ele>427.086</ele>
        <time>2025-04-06T08:59:49Z</time>
      </trkpt>
      <trkpt lat="43.12987" lon="0.10864">
        <ele>427.16</ele>
        <time>2025-04-06T08:59:54Z</time>
      </trkpt>
      <trkpt lat="43.12982" lon="0.10867">
        <ele>427.226</ele>
        <time>2025-04-06T08:59:59Z</time>
      </trkpt>
      <trkpt lat="43.12978" lon="0.10871">
        <ele>427.409</ele>
        <time>2025-04-06T09:00:04Z</time>
      </trkpt>
      <trkpt lat="43.12974" lon="0.10875">
        <ele>427.51</ele>
        <time>2025-04-06T09:00:09Z</time>
      </trkpt>
      <trkpt lat="43.12969" lon="0.10877">
        <ele>427.858</ele>
        <time>2025-04-06T09:00:14Z</time>
      </trkpt>
      <trkpt lat="43.12965" lon="0.1088">
        <ele>428.295</ele>
        <time>2025-04-06T09:00:19Z</time>
      </trkpt>
      <trkpt lat="43.1296" lon="0.10884">
        <ele>428.726</ele>
        <time>2025-04-06T09:00:24Z</time>
      </trkpt>
      <trkpt lat="43.12955" lon="0.10886">
        <ele>429.138</ele>
        <time>2025-04-06T09:00:29Z</time>
      </trkpt>
      <trkpt lat="43.12951" lon="0.1089">
        <ele>429.58</ele>
        <time>2025-04-06T09:00:34Z</time>
      </trkpt>
      <trkpt lat="43.12947" lon="0.10892">
        <ele>429.957</ele>
        <time>2025-04-06T09:00:39Z</time>
      </trkpt>
      <trkpt lat="43.12943" lon="0.10896">
        <ele>430.264</ele>
        <time>2025-04-06T09:00:44Z</time>
      </trkpt>
      <trkpt lat="43.12938" lon="0.109">
        <ele>430.447</ele>
        <time>2025-04-06T09:00:49Z</time>
      </trkpt>
      <trkpt lat="43.12933" lon="0.10903">
        <ele>430.525</ele>
        <time>2025-04-06T09:00:54Z</time>
      </trkpt>
      <trkpt lat="43.1293" lon="0.10907">
        <ele>430.726</ele>
        <time>2025-04-06T09:00:59Z</time>
      </trkpt>
      <trkpt lat="43.12926" lon="0.10911">
        <ele>430.808</ele>
        <time>2025-04-06T09:01:04Z</time>
      </trkpt>
      <trkpt lat="43.12922" lon="0.10916">
        <ele>431.009</ele>
        <time>2025-04-06T09:01:09Z</time>
      </trkpt>
      <trkpt lat="43.12919" lon="0.10921">
        <ele>431.074</ele>
        <time>2025-04-06T09:01:14Z</time>
      </trkpt>
      <trkpt lat="43.12915" lon="0.10924">
        <ele>431.092</ele>
        <time>2025-04-06T09:01:19Z</time>
      </trkpt>
      <trkpt lat="43.1291" lon="0.10927">
        <ele>431.059</ele>
        <time>2025-04-06T09:01:24Z</time>
      </trkpt>
      <trkpt lat="43.12906" lon="0.10931">
        <ele>431.01</ele>
        <time>2025-04-06T09:01:29Z</time>
      </trkpt>
      <trkpt lat="43.12902" lon="0.10936">
        <ele>431.072</ele>
        <time>2025-04-06T09:01:34Z</time>
      </trkpt>
      <trkpt lat="43.12898" lon="0.10939">
        <ele>431.024</ele>
        <time>2025-04-06T09:01:39Z</time>
      </trkpt>
      <trkpt lat="43.12893" lon="0.10943">
        <ele>431.041</ele>
        <time>2025-04-06T09:01:44Z</time>
      </trkpt>
      <trkpt lat="43.12889" lon="0.10947">
        <ele>431.128</ele>
        <time>2025-04-06T09:01:49Z</time>
      </trkpt>
      <trkpt lat="43.12885" lon="0.10951">
        <ele>431.341</ele>
        <time>2025-04-06T09:01:54Z</time>
      </trkpt>
      <trkpt lat="43.12881" lon="0.10954">
        <ele>431.542</ele>
        <time>2025-04-06T09:01:59Z</time>
      </trkpt>
      <trkpt lat="43.12877" lon="0.10958">
        <ele>431.722</ele>
        <time>2025-04-06T09:02:04Z</time>
      </trkpt>
      <trkpt lat="43.12873" lon="0.10961">
        <ele>431.814</ele>
        <time>2025-04-06T09:02:09Z</time>
      </trkpt>
      <trkpt lat="43.12869" lon="0.10964">
        <ele>431.909</ele>
        <time>2025-04-06T09:02:14Z</time>
      </trkpt>
      <trkpt lat="43.12865" lon="0.10969">
        <ele>432.076</ele>
        <time>2025-04-06T09:02:19Z</time>
      </trkpt>
      <trkpt lat="43.1286" lon="0.10972">
        <ele>432.094</ele>
        <time>2025-04-06T09:02:24Z</time>
      </trkpt>
      <trkpt lat="43.12856" lon="0.10974">
        <ele>432.111</ele>
        <time>2025-04-06T09:02:29Z</time>
      </trkpt>
      <trkpt lat="43.12852" lon="0.10977">
        <ele>432.292</ele>
        <time>2025-04-06T09:02:33Z</time>
      </trkpt>
      <trkpt lat="43.12847" lon="0.10979">
        <ele>432.384</ele>
        <time>2025-04-06T09:02:38Z</time>
      </trkpt>
      <trkpt lat="43.12843" lon="0.10982">
        <ele>432.376</ele>
        <time>2025-04-06T09:02:43Z</time>
      </trkpt>
      <trkpt lat="43.12839" lon="0.10986">
        <ele>432.533</ele>
        <time>2025-04-06T09:02:48Z</time>
      </trkpt>
      <trkpt lat="43.12835" lon="0.10989">
        <ele>432.61</ele>
        <time>2025-04-06T09:02:53Z</time>
      </trkpt>
      <trkpt lat="43.12831" lon="0.10993">
        <ele>432.723</ele>
        <time>2025-04-06T09:02:58Z</time>
      </trkpt>
      <trkpt lat="43.12828" lon="0.10996">
        <ele>432.855</ele>
        <time>2025-04-06T09:03:34Z</time>
      </trkpt>
      <trkpt lat="43.12823" lon="0.10997">
        <ele>432.907</ele>
        <time>2025-04-06T09:03:41Z</time>
      </trkpt>
      <trkpt lat="43.12819" lon="0.10999">
        <ele>433.017</ele>
        <time>2025-04-06T09:03:48Z</time>
      </trkpt>
      <trkpt lat="43.12816" lon="0.11004">
        <ele>433.009</ele>
        <time>2025-04-06T09:03:54Z</time>
      </trkpt>
      <trkpt lat="43.12814" lon="0.1101">
        <ele>433.047</ele>
        <time>2025-04-06T09:04:00Z</time>
      </trkpt>
      <trkpt lat="43.1281" lon="0.11014">
        <ele>433.095</ele>
        <time>2025-04-06T09:04:06Z</time>
      </trkpt>
      <trkpt lat="43.12806" lon="0.11019">
        <ele>433.042</ele>
        <time>2025-04-06T09:04:13Z</time>
      </trkpt>
      <trkpt lat="43.12803" lon="0.11023">
        <ele>433.093</ele>
        <time>2025-04-06T09:04:19Z</time>
      </trkpt>
      <trkpt lat="43.12799" lon="0.11028">
        <ele>433.095</ele>
        <time>2025-04-06T09:04:25Z</time>
      </trkpt>
      <trkpt lat="43.12795" lon="0.11032">
        <ele>433.227</ele>
        <time>2025-04-06T09:04:31Z</time>
      </trkpt>
      <trkpt lat="43.12791" lon="0.11036">
        <ele>433.354</ele>
        <time>2025-04-06T09:04:37Z</time>
      </trkpt>
      <trkpt lat="43.12787" lon="0.1104">
        <ele>433.531</ele>
        <time>2025-04-06T09:05:09Z</time>
      </trkpt>
      <trkpt lat="43.12783" lon="0.11045">
        <ele>433.694</ele>
        <time>2025-04-06T09:05:15Z</time>
      </trkpt>
      <trkpt lat="43.12779" lon="0.11047">
        <ele>433.764</ele>
        <time>2025-04-06T09:05:22Z</time>
      </trkpt>
      <trkpt lat="43.12775" lon="0.11052">
        <ele>433.906</ele>
        <time>2025-04-06T09:05:28Z</time>
      </trkpt>
      <trkpt lat="43.12771" lon="0.11056">
        <ele>434.016</ele>
        <time>2025-04-06T09:05:35Z</time>
      </trkpt>
      <trkpt lat="43.12766" lon="0.11056">
        <ele>434.009</ele>
        <time>2025-04-06T09:05:41Z</time>
      </trkpt>
      <trkpt lat="43.12761" lon="0.11056">
        <ele>434.038</ele>
        <time>2025-04-06T09:05:49Z</time>
      </trkpt>
      <trkpt lat="43.12757" lon="0.11059">
        <ele>434.186</ele>
        <time>2025-04-06T09:05:54Z</time>
      </trkpt>
      <trkpt lat="43.12753" lon="0.11062">
        <ele>434.283</ele>
        <time>2025-04-06T09:06:00Z</time>
      </trkpt>
      <trkpt lat="43.12748" lon="0.11061">
        <ele>434.334</ele>
        <time>2025-04-06T09:06:15Z</time>
      </trkpt>
      <trkpt lat="43.12743" lon="0.1106">
        <ele>434.466</ele>
        <time>2025-04-06T09:06:26Z</time>
      </trkpt>
      <trkpt lat="43.12738" lon="0.11062">
        <ele>434.618</ele>
        <time>2025-04-06T09:06:31Z</time>
      </trkpt>
      <trkpt lat="43.12733" lon="0.11063">
        <ele>434.755</ele>
        <time>2025-04-06T09:06:38Z</time>
      </trkpt>
      <trkpt lat="43.12728" lon="0.11065">
        <ele>434.922</ele>
        <time>2025-04-06T09:06:44Z</time>
      </trkpt>
      <trkpt lat="43.12724" lon="0.11065">
        <ele>435.065</ele>
        <time>2025-04-06T09:06:50Z</time>
      </trkpt>
      <trkpt lat="43.12719" lon="0.11067">
        <ele>435.075</ele>
        <time>2025-04-06T09:06:56Z</time>
      </trkpt>
      <trkpt lat="43.12714" lon="0.11068">
        <ele>435.028</ele>
        <time>2025-04-06T09:07:03Z</time>
      </trkpt>
      <trkpt lat="43.12709" lon="0.11069">
        <ele>435.02</ele>
        <time>2025-04-06T09:07:09Z</time>
      </trkpt>
      <trkpt lat="43.12704" lon="0.11071">
        <ele>435.009</ele>
        <time>2025-04-06T09:07:15Z</time>
      </trkpt>
      <trkpt lat="43.127" lon="0.11072">
        <ele>435.089</ele>
        <time>2025-04-06T09:07:20Z</time>
      </trkpt>
      <trkpt lat="43.12694" lon="0.11072">
        <ele>435.037</ele>
        <time>2025-04-06T09:07:26Z</time>
      </trkpt>
      <trkpt lat="43.12689" lon="0.11073">
        <ele>435.154</ele>
        <time>2025-04-06T09:07:32Z</time>
      </trkpt>
      <trkpt lat="43.12685" lon="0.11074">
        <ele>435.255</ele>
        <time>2025-04-06T09:07:37Z</time>
      </trkpt>
      <trkpt lat="43.1268" lon="0.11074">
        <ele>435.427</ele>
        <time>2025-04-06T09:07:43Z</time>
      </trkpt>
      <trkpt lat="43.12675" lon="0.11076">
        <ele>435.539</ele>
        <time>2025-04-06T09:07:49Z</time>
      </trkpt>
      <trkpt lat="43.1267" lon="0.11077">
        <ele>435.736</ele>
        <time>2025-04-06T09:07:54Z</time>
      </trkpt>
      <trkpt lat="43.12665" lon="0.11077">
        <ele>435.853</ele>
        <time>2025-04-06T09:08:00Z</time>
      </trkpt>
      <trkpt lat="43.1266" lon="0.11078">
        <ele>435.966</ele>
        <time>2025-04-06T09:08:06Z</time>
      </trkpt>
      <trkpt lat="43.12655" lon="0.11078">
        <ele>435.933</ele>
        <time>2025-04-06T09:08:11Z</time>
      </trkpt>
      <trkpt lat="43.12651" lon="0.1108">
        <ele>436.023</ele>
        <time>2025-04-06T09:08:16Z</time>
      </trkpt>
      <trkpt lat="43.12646" lon="0.11081">
        <ele>436.015</ele>
        <time>2025-04-06T09:08:22Z</time>
      </trkpt>
      <trkpt lat="43.12641" lon="0.11083">
        <ele>436.009</ele>
        <time>2025-04-06T09:08:28Z</time>
      </trkpt>
      <trkpt lat="43.12636" lon="0.11086">
        <ele>436.125</ele>
        <time>2025-04-06T09:08:34Z</time>
      </trkpt>
      <trkpt lat="43.12631" lon="0.11084">
        <ele>436.063</ele>
        <time>2025-04-06T09:08:55Z</time>
      </trkpt>
      <trkpt lat="43.12627" lon="0.11082">
        <ele>436.07</ele>
        <time>2025-04-06T09:08:59Z</time>
      </trkpt>
      <trkpt lat="43.12623" lon="0.11086">
        <ele>436.191</ele>
        <time>2025-04-06T09:09:03Z</time>
      </trkpt>
      <trkpt lat="43.1262" lon="0.11091">
        <ele>436.313</ele>
        <time>2025-04-06T09:09:09Z</time>
      </trkpt>
      <trkpt lat="43.12615" lon="0.11092">
        <ele>436.395</ele>
        <time>2025-04-06T09:09:15Z</time>
      </trkpt>
      <trkpt lat="43.1261" lon="0.1109">
        <ele>436.282</ele>
        <time>2025-04-06T09:09:22Z</time>
      </trkpt>
      <trkpt lat="43.12605" lon="0.11091">
        <ele>436.399</ele>
        <time>2025-04-06T09:09:27Z</time>
      </trkpt>
      <trkpt lat="43.126" lon="0.11091">
        <ele>436.352</ele>
        <time>2025-04-06T09:09:32Z</time>
      </trkpt>
      <trkpt lat="43.12596" lon="0.11092">
        <ele>436.395</ele>
        <time>2025-04-06T09:09:37Z</time>
      </trkpt>
      <trkpt lat="43.12591" lon="0.11093">
        <ele>436.449</ele>
        <time>2025-04-06T09:09:50Z</time>
      </trkpt>
      <trkpt lat="43.12587" lon="0.1109">
        <ele>436.223</ele>
        <time>2025-04-06T09:10:28Z</time>
      </trkpt>
      <trkpt lat="43.12582" lon="0.1109">
        <ele>436.209</ele>
        <time>2025-04-06T09:10:52Z</time>
      </trkpt>
      <trkpt lat="43.12577" lon="0.11087">
        <ele>435.931</ele>
        <time>2025-04-06T09:10:58Z</time>
      </trkpt>
      <trkpt lat="43.12576" lon="0.11081">
        <ele>435.759</ele>
        <time>2025-04-06T09:11:03Z</time>
      </trkpt>
      <trkpt lat="43.12574" lon="0.11074">
        <ele>435.716</ele>
        <time>2025-04-06T09:11:08Z</time>
      </trkpt>
      <trkpt lat="43.1257" lon="0.11069">
        <ele>435.597</ele>
        <time>2025-04-06T09:11:14Z</time>
      </trkpt>
      <trkpt lat="43.12567" lon="0.11063">
        <ele>435.459</ele>
        <time>2025-04-06T09:11:25Z</time>
      </trkpt>
      <trkpt lat="43.12563" lon="0.11061">
        <ele>435.381</ele>
        <time>2025-04-06T09:11:39Z</time>
      </trkpt>
      <trkpt lat="43.12565" lon="0.11055">
        <ele>435.378</ele>
        <time>2025-04-06T09:11:42Z</time>
      </trkpt>
      <trkpt lat="43.12565" lon="0.11048">
        <ele>435.165</ele>
        <time>2025-04-06T09:11:46Z</time>
      </trkpt>
      <trkpt lat="43.12563" lon="0.11042">
        <ele>434.848</ele>
        <time>2025-04-06T09:11:51Z</time>
      </trkpt>
      <trkpt lat="43.12559" lon="0.11039">
        <ele>434.595</ele>
        <time>2025-04-06T09:11:55Z</time>
      </trkpt>
      <trkpt lat="43.12557" lon="0.11033">
        <ele>434.249</ele>
        <time>2025-04-06T09:12:01Z</time>
      </trkpt>
      <trkpt lat="43.12551" lon="0.11033">
        <ele>433.823</ele>
        <time>2025-04-06T09:12:14Z</time>
      </trkpt>
      <trkpt lat="43.12546" lon="0.11031">
        <ele>433.409</ele>
        <time>2025-04-06T09:12:18Z</time>
      </trkpt>
      <trkpt lat="43.12541" lon="0.11032">
        <ele>433.021</ele>
        <time>2025-04-06T09:12:22Z</time>
      </trkpt>
      <trkpt lat="43.12536" lon="0.1103">
        <ele>432.619</ele>
        <time>2025-04-06T09:12:27Z</time>
      </trkpt>
      <trkpt lat="43.12532" lon="0.11027">
        <ele>432.226</ele>
        <time>2025-04-06T09:12:33Z</time>
      </trkpt>
      <trkpt lat="43.12528" lon="0.11022">
        <ele>431.867</ele>
        <time>2025-04-06T09:12:39Z</time>
      </trkpt>
      <trkpt lat="43.12524" lon="0.11017">
        <ele>431.499</ele>
        <time>2025-04-06T09:12:45Z</time>
      </trkpt>
      <trkpt lat="43.1252" lon="0.11013">
        <ele>431.111</ele>
        <time>2025-04-06T09:12:51Z</time>
      </trkpt>
      <trkpt lat="43.12517" lon="0.11009">
        <ele>430.818</ele>
        <time>2025-04-06T09:12:56Z</time>
      </trkpt>
      <trkpt lat="43.12513" lon="0.11004">
        <ele>430.525</ele>
        <time>2025-04-06T09:13:03Z</time>
      </trkpt>
      <trkpt lat="43.12516" lon="0.11">
        <ele>430.658</ele>
        <time>2025-04-06T09:13:11Z</time>
      </trkpt>
      <trkpt lat="43.12519" lon="0.10994">
        <ele>430.551</ele>
        <time>2025-04-06T09:13:17Z</time>
      </trkpt>
      <trkpt lat="43.12523" lon="0.10989">
        <ele>430.501</ele>
        <time>2025-04-06T09:13:23Z</time>
      </trkpt>
      <trkpt lat="43.12519" lon="0.10993">
        <ele>430.511</ele>
        <time>2025-04-06T09:15:51Z</time>
      </trkpt>
      <trkpt lat="43.12524" lon="0.10993">
        <ele>430.609</ele>
        <time>2025-04-06T09:16:10Z</time>
      </trkpt>
      <trkpt lat="43.12522" lon="0.10986">
        <ele>430.467</ele>
        <time>2025-04-06T09:18:16Z</time>
      </trkpt>
      <trkpt lat="43.12524" lon="0.10993">
        <ele>430.675</ele>
        <time>2025-04-06T09:20:16Z</time>
      </trkpt>
      <trkpt lat="43.12531" lon="0.10991">
        <ele>430.852</ele>
        <time>2025-04-06T09:20:18Z</time>
      </trkpt>
      <trkpt lat="43.12528" lon="0.11">
        <ele>431.093</ele>
        <time>2025-04-06T09:20:20Z</time>
      </trkpt>
      <trkpt lat="43.12528" lon="0.11007">
        <ele>431.285</ele>
        <time>2025-04-06T09:20:26Z</time>
      </trkpt>
      <trkpt lat="43.12525" lon="0.11013">
        <ele>431.317</ele>
        <time>2025-04-06T09:20:36Z</time>
      </trkpt>
      <trkpt lat="43.12521" lon="0.11009">
        <ele>431.044</ele>
        <time>2025-04-06T09:20:44Z</time>
      </trkpt>
      <trkpt lat="43.12518" lon="0.11004">
        <ele>430.741</ele>
        <time>2025-04-06T09:20:52Z</time>
      </trkpt>
      <trkpt lat="43.12521" lon="0.10999">
        <ele>430.744</ele>
        <time>2025-04-06T09:20:57Z</time>
      </trkpt>
      <trkpt lat="43.12525" lon="0.10996">
        <ele>430.777</ele>
        <time>2025-04-06T09:21:02Z</time>
      </trkpt>
      <trkpt lat="43.12527" lon="0.10989">
        <ele>430.661</ele>
        <time>2025-04-06T09:21:10Z</time>
      </trkpt>
      <trkpt lat="43.12529" lon="0.10983">
        <ele>430.427</ele>
        <time>2025-04-06T09:21:15Z</time>
      </trkpt>
      <trkpt lat="43.1253" lon="0.10976">
        <ele>430.209</ele>
        <time>2025-04-06T09:22:06Z</time>
      </trkpt>
      <trkpt lat="43.1253" lon="0.10969">
        <ele>430.119</ele>
        <time>2025-04-06T09:22:13Z</time>
      </trkpt>
      <trkpt lat="43.12527" lon="0.10962">
        <ele>430.077</ele>
        <time>2025-04-06T09:22:19Z</time>
      </trkpt>
      <trkpt lat="43.12526" lon="0.10954">
        <ele>430.014</ele>
        <time>2025-04-06T09:22:38Z</time>
      </trkpt>
      <trkpt lat="43.12523" lon="0.10949">
        <ele>430.075</ele>
        <time>2025-04-06T09:22:52Z</time>
      </trkpt>
      <trkpt lat="43.1252" lon="0.10943">
        <ele>430.087</ele>
        <time>2025-04-06T09:22:59Z</time>
      </trkpt>
      <trkpt lat="43.1252" lon="0.10937">
        <ele>430.029</ele>
        <time>2025-04-06T09:23:04Z</time>
      </trkpt>
      <trkpt lat="43.12515" lon="0.10937">
        <ele>430.046</ele>
        <time>2025-04-06T09:23:22Z</time>
      </trkpt>
      <trkpt lat="43.12511" lon="0.10935">
        <ele>430.013</ele>
        <time>2025-04-06T09:24:20Z</time>
      </trkpt>
      <trkpt lat="43.12507" lon="0.1093">
        <ele>430.016</ele>
        <time>2025-04-06T09:24:27Z</time>
      </trkpt>
      <trkpt lat="43.12504" lon="0.10925">
        <ele>430.023</ele>
        <time>2025-04-06T09:24:33Z</time>
      </trkpt>
      <trkpt lat="43.12501" lon="0.10919">
        <ele>430.083</ele>
        <time>2025-04-06T09:24:39Z</time>
      </trkpt>
      <trkpt lat="43.12498" lon="0.10914">
        <ele>430.411</ele>
        <time>2025-04-06T09:24:45Z</time>
      </trkpt>
      <trkpt lat="43.12495" lon="0.10907">
        <ele>431.109</ele>
        <time>2025-04-06T09:24:51Z</time>
      </trkpt>
      <trkpt lat="43.12493" lon="0.10901">
        <ele>431.824</ele>
        <time>2025-04-06T09:24:56Z</time>
      </trkpt>
      <trkpt lat="43.1249" lon="0.10895">
        <ele>432.452</ele>
        <time>2025-04-06T09:25:01Z</time>
      </trkpt>
      <trkpt lat="43.12488" lon="0.10889">
        <ele>432.839</ele>
        <time>2025-04-06T09:25:06Z</time>
      </trkpt>
      <trkpt lat="43.12487" lon="0.10883">
        <ele>433.42</ele>
        <time>2025-04-06T09:25:11Z</time>
      </trkpt>
      <trkpt lat="43.12486" lon="0.10877">
        <ele>433.992</ele>
        <time>2025-04-06T09:25:16Z</time>
      </trkpt>
      <trkpt lat="43.12483" lon="0.10871">
        <ele>434.574</ele>
        <time>2025-04-06T09:25:40Z</time>
      </trkpt>
      <trkpt lat="43.12482" lon="0.10865">
        <ele>435.061</ele>
        <time>2025-04-06T09:25:46Z</time>
      </trkpt>
      <trkpt lat="43.12478" lon="0.10861">
        <ele>435.638</ele>
        <time>2025-04-06T09:25:49Z</time>
      </trkpt>
      <trkpt lat="43.12475" lon="0.10856">
        <ele>436.191</ele>
        <time>2025-04-06T09:25:53Z</time>
      </trkpt>
      <trkpt lat="43.12471" lon="0.10854">
        <ele>436.773</ele>
        <time>2025-04-06T09:26:00Z</time>
      </trkpt>
      <trkpt lat="43.12465" lon="0.10856">
        <ele>437.185</ele>
        <time>2025-04-06T09:26:05Z</time>
      </trkpt>
      <trkpt lat="43.12461" lon="0.10857">
        <ele>437.513</ele>
        <time>2025-04-06T09:26:28Z</time>
      </trkpt>
      <trkpt lat="43.12456" lon="0.10858">
        <ele>438.009</ele>
        <time>2025-04-06T09:26:35Z</time>
      </trkpt>
      <trkpt lat="43.12451" lon="0.10855">
        <ele>438.799</ele>
        <time>2025-04-06T09:27:04Z</time>
      </trkpt>
      <trkpt lat="43.12448" lon="0.1086">
        <ele>438.757</ele>
        <time>2025-04-06T09:27:09Z</time>
      </trkpt>
      <trkpt lat="43.12444" lon="0.10864">
        <ele>438.914</ele>
        <time>2025-04-06T09:27:15Z</time>
      </trkpt>
      <trkpt lat="43.1244" lon="0.10859">
        <ele>439.355</ele>
        <time>2025-04-06T09:27:24Z</time>
      </trkpt>
      <trkpt lat="43.12438" lon="0.10853">
        <ele>439.947</ele>
        <time>2025-04-06T09:27:32Z</time>
      </trkpt>
      <trkpt lat="43.12435" lon="0.10848">
        <ele>440.599</ele>
        <time>2025-04-06T09:27:41Z</time>
      </trkpt>
      <trkpt lat="43.12431" lon="0.10845">
        <ele>440.926</ele>
        <time>2025-04-06T09:27:48Z</time>
      </trkpt>
      <trkpt lat="43.12425" lon="0.10841">
        <ele>441.683</ele>
        <time>2025-04-06T09:28:00Z</time>
      </trkpt>
      <trkpt lat="43.12421" lon="0.10839">
        <ele>442.186</ele>
        <time>2025-04-06T09:28:04Z</time>
      </trkpt>
      <trkpt lat="43.12416" lon="0.10839">
        <ele>442.442</ele>
        <time>2025-04-06T09:28:09Z</time>
      </trkpt>
      <trkpt lat="43.12411" lon="0.10839">
        <ele>442.522</ele>
        <time>2025-04-06T09:28:15Z</time>
      </trkpt>
      <trkpt lat="43.12406" lon="0.10838">
        <ele>442.514</ele>
        <time>2025-04-06T09:28:31Z</time>
      </trkpt>
      <trkpt lat="43.12401" lon="0.10839">
        <ele>442.509</ele>
        <time>2025-04-06T09:28:40Z</time>
      </trkpt>
      <trkpt lat="43.12403" lon="0.10833">
        <ele>443.126</ele>
        <time>2025-04-06T09:28:55Z</time>
      </trkpt>
      <trkpt lat="43.12403" lon="0.10826">
        <ele>443.754</ele>
        <time>2025-04-06T09:29:05Z</time>
      </trkpt>
      <trkpt lat="43.124" lon="0.10822">
        <ele>444.371</ele>
        <time>2025-04-06T09:29:11Z</time>
      </trkpt>
      <trkpt lat="43.12398" lon="0.10817">
        <ele>444.832</ele>
        <time>2025-04-06T09:29:17Z</time>
      </trkpt>
      <trkpt lat="43.12395" lon="0.10811">
        <ele>445.474</ele>
        <time>2025-04-06T09:29:24Z</time>
      </trkpt>
      <trkpt lat="43.12394" lon="0.10804">
        <ele>446.116</ele>
        <time>2025-04-06T09:29:37Z</time>
      </trkpt>
      <trkpt lat="43.12389" lon="0.10802">
        <ele>446.493</ele>
        <time>2025-04-06T09:29:43Z</time>
      </trkpt>
      <trkpt lat="43.12386" lon="0.10796">
        <ele>446.96</ele>
        <time>2025-04-06T09:29:49Z</time>
      </trkpt>
      <trkpt lat="43.12382" lon="0.10791">
        <ele>447.313</ele>
        <time>2025-04-06T09:29:55Z</time>
      </trkpt>
      <trkpt lat="43.12379" lon="0.10787">
        <ele>447.646</ele>
        <time>2025-04-06T09:30:01Z</time>
      </trkpt>
      <trkpt lat="43.12375" lon="0.10782">
        <ele>448.188</ele>
        <time>2025-04-06T09:30:09Z</time>
      </trkpt>
      <trkpt lat="43.12372" lon="0.10776">
        <ele>448.616</ele>
        <time>2025-04-06T09:30:17Z</time>
      </trkpt>
      <trkpt lat="43.1237" lon="0.1077">
        <ele>449.009</ele>
        <time>2025-04-06T09:30:24Z</time>
      </trkpt>
      <trkpt lat="43.12367" lon="0.10765">
        <ele>449.576</ele>
        <time>2025-04-06T09:30:31Z</time>
      </trkpt>
      <trkpt lat="43.12364" lon="0.10759">
        <ele>450.064</ele>
        <time>2025-04-06T09:30:38Z</time>
      </trkpt>
      <trkpt lat="43.12362" lon="0.10753">
        <ele>450.741</ele>
        <time>2025-04-06T09:30:44Z</time>
      </trkpt>
      <trkpt lat="43.12362" lon="0.10747">
        <ele>451.362</ele>
        <time>2025-04-06T09:30:51Z</time>
      </trkpt>
      <trkpt lat="43.12366" lon="0.10743">
        <ele>451.834</ele>
        <time>2025-04-06T09:30:57Z</time>
      </trkpt>
      <trkpt lat="43.1237" lon="0.10744">
        <ele>451.716</ele>
        <time>2025-04-06T09:31:11Z</time>
      </trkpt>
      <trkpt lat="43.12373" lon="0.10738">
        <ele>452.363</ele>
        <time>2025-04-06T09:31:16Z</time>
      </trkpt>
      <trkpt lat="43.12378" lon="0.10736">
        <ele>452.55</ele>
        <time>2025-04-06T09:31:50Z</time>
      </trkpt>
      <trkpt lat="43.12381" lon="0.10732">
        <ele>453.013</ele>
        <time>2025-04-06T09:31:56Z</time>
      </trkpt>
      <trkpt lat="43.12386" lon="0.10728">
        <ele>453.368</ele>
        <time>2025-04-06T09:32:09Z</time>
      </trkpt>
      <trkpt lat="43.1239" lon="0.10725">
        <ele>453.742</ele>
        <time>2025-04-06T09:32:14Z</time>
      </trkpt>
      <trkpt lat="43.12393" lon="0.1072">
        <ele>454.026</ele>
        <time>2025-04-06T09:32:20Z</time>
      </trkpt>
      <trkpt lat="43.12396" lon="0.10715">
        <ele>454.309</ele>
        <time>2025-04-06T09:32:26Z</time>
      </trkpt>
      <trkpt lat="43.12399" lon="0.1071">
        <ele>454.628</ele>
        <time>2025-04-06T09:32:37Z</time>
      </trkpt>
      <trkpt lat="43.12401" lon="0.10704">
        <ele>454.946</ele>
        <time>2025-04-06T09:32:51Z</time>
      </trkpt>
      <trkpt lat="43.12405" lon="0.107">
        <ele>455.033</ele>
        <time>2025-04-06T09:32:58Z</time>
      </trkpt>
      <trkpt lat="43.12409" lon="0.10696">
        <ele>455.214</ele>
        <time>2025-04-06T09:33:02Z</time>
      </trkpt>
      <trkpt lat="43.12412" lon="0.10691">
        <ele>455.576</ele>
        <time>2025-04-06T09:33:10Z</time>
      </trkpt>
      <trkpt lat="43.12415" lon="0.10685">
        <ele>455.878</ele>
        <time>2025-04-06T09:33:16Z</time>
      </trkpt>
      <trkpt lat="43.12418" lon="0.10679">
        <ele>456.085</ele>
        <time>2025-04-06T09:33:21Z</time>
      </trkpt>
      <trkpt lat="43.1242" lon="0.10674">
        <ele>456.032</ele>
        <time>2025-04-06T09:33:27Z</time>
      </trkpt>
      <trkpt lat="43.12423" lon="0.10669">
        <ele>456.055</ele>
        <time>2025-04-06T09:33:33Z</time>
      </trkpt>
      <trkpt lat="43.12425" lon="0.10663">
        <ele>455.992</ele>
        <time>2025-04-06T09:33:39Z</time>
      </trkpt>
      <trkpt lat="43.12427" lon="0.10657">
        <ele>455.873</ele>
        <time>2025-04-06T09:33:47Z</time>
      </trkpt>
      <trkpt lat="43.1243" lon="0.10652">
        <ele>455.62</ele>
        <time>2025-04-06T09:33:53Z</time>
      </trkpt>
      <trkpt lat="43.12433" lon="0.10646">
        <ele>455.509</ele>
        <time>2025-04-06T09:33:59Z</time>
      </trkpt>
      <trkpt lat="43.12433" lon="0.1064">
        <ele>455.751</ele>
        <time>2025-04-06T09:34:06Z</time>
      </trkpt>
      <trkpt lat="43.12435" lon="0.10635">
        <ele>455.689</ele>
        <time>2025-04-06T09:34:36Z</time>
      </trkpt>
      <trkpt lat="43.12438" lon="0.10629">
        <ele>455.486</ele>
        <time>2025-04-06T09:34:42Z</time>
      </trkpt>
      <trkpt lat="43.12441" lon="0.10623">
        <ele>455.267</ele>
        <time>2025-04-06T09:34:49Z</time>
      </trkpt>
      <trkpt lat="43.12442" lon="0.10617">
        <ele>455.319</ele>
        <time>2025-04-06T09:35:34Z</time>
      </trkpt>
      <trkpt lat="43.12442" lon="0.10611">
        <ele>455.531</ele>
        <time>2025-04-06T09:35:43Z</time>
      </trkpt>
      <trkpt lat="43.12444" lon="0.10605">
        <ele>455.148</ele>
        <time>2025-04-06T09:35:55Z</time>
      </trkpt>
      <trkpt lat="43.12445" lon="0.10598">
        <ele>455.015</ele>
        <time>2025-04-06T09:36:02Z</time>
      </trkpt>
      <trkpt lat="43.12446" lon="0.10592">
        <ele>454.998</ele>
        <time>2025-04-06T09:36:09Z</time>
      </trkpt>
      <trkpt lat="43.12446" lon="0.10585">
        <ele>454.952</ele>
        <time>2025-04-06T09:36:15Z</time>
      </trkpt>
      <trkpt lat="43.12446" lon="0.10578">
        <ele>454.953</ele>
        <time>2025-04-06T09:36:21Z</time>
      </trkpt>
      <trkpt lat="43.12444" lon="0.10572">
        <ele>455.108</ele>
        <time>2025-04-06T09:36:27Z</time>
      </trkpt>
      <trkpt lat="43.12443" lon="0.10565">
        <ele>455.309</ele>
        <time>2025-04-06T09:36:33Z</time>
      </trkpt>
      <trkpt lat="43.12441" lon="0.1056">
        <ele>455.597</ele>
        <time>2025-04-06T09:36:38Z</time>
      </trkpt>
      <trkpt lat="43.12438" lon="0.10554">
        <ele>455.735</ele>
        <time>2025-04-06T09:37:55Z</time>
      </trkpt>
      <trkpt lat="43.12436" lon="0.10548">
        <ele>455.822</ele>
        <time>2025-04-06T09:38:02Z</time>
      </trkpt>
      <trkpt lat="43.12434" lon="0.10542">
        <ele>455.883</ele>
        <time>2025-04-06T09:38:08Z</time>
      </trkpt>
      <trkpt lat="43.12431" lon="0.10536">
        <ele>455.715</ele>
        <time>2025-04-06T09:38:34Z</time>
      </trkpt>
      <trkpt lat="43.12427" lon="0.10532">
        <ele>455.877</ele>
        <time>2025-04-06T09:38:40Z</time>
      </trkpt>
      <trkpt lat="43.12423" lon="0.10528">
        <ele>455.854</ele>
        <time>2025-04-06T09:38:47Z</time>
      </trkpt>
      <trkpt lat="43.12419" lon="0.10524">
        <ele>455.851</ele>
        <time>2025-04-06T09:38:53Z</time>
      </trkpt>
      <trkpt lat="43.12416" lon="0.10519">
        <ele>455.894</ele>
        <time>2025-04-06T09:38:59Z</time>
      </trkpt>
      <trkpt lat="43.12412" lon="0.10515">
        <ele>456.086</ele>
        <time>2025-04-06T09:39:05Z</time>
      </trkpt>
      <trkpt lat="43.12408" lon="0.10513">
        <ele>456.36</ele>
        <time>2025-04-06T09:39:17Z</time>
      </trkpt>
      <trkpt lat="43.12404" lon="0.10508">
        <ele>456.426</ele>
        <time>2025-04-06T09:39:25Z</time>
      </trkpt>
      <trkpt lat="43.124" lon="0.10505">
        <ele>456.509</ele>
        <time>2025-04-06T09:39:30Z</time>
      </trkpt>
      <trkpt lat="43.12396" lon="0.10501">
        <ele>456.67</ele>
        <time>2025-04-06T09:39:36Z</time>
      </trkpt>
      <trkpt lat="43.12391" lon="0.10499">
        <ele>456.878</ele>
        <time>2025-04-06T09:39:43Z</time>
      </trkpt>
      <trkpt lat="43.12387" lon="0.10496">
        <ele>457.215</ele>
        <time>2025-04-06T09:39:49Z</time>
      </trkpt>
      <trkpt lat="43.12382" lon="0.10493">
        <ele>457.766</ele>
        <time>2025-04-06T09:39:55Z</time>
      </trkpt>
      <trkpt lat="43.12378" lon="0.10491">
        <ele>458.218</ele>
        <time>2025-04-06T09:40:01Z</time>
      </trkpt>
      <trkpt lat="43.12375" lon="0.10485">
        <ele>458.58</ele>
        <time>2025-04-06T09:40:09Z</time>
      </trkpt>
      <trkpt lat="43.12377" lon="0.10479">
        <ele>458.367</ele>
        <time>2025-04-06T09:40:18Z</time>
      </trkpt>
      <trkpt lat="43.12379" lon="0.10472">
        <ele>458.134</ele>
        <time>2025-04-06T09:40:25Z</time>
      </trkpt>
      <trkpt lat="43.12379" lon="0.10466">
        <ele>458.257</ele>
        <time>2025-04-06T09:40:31Z</time>
      </trkpt>
      <trkpt lat="43.1238" lon="0.1046">
        <ele>458.344</ele>
        <time>2025-04-06T09:40:38Z</time>
      </trkpt>
      <trkpt lat="43.1238" lon="0.10453">
        <ele>458.405</ele>
        <time>2025-04-06T09:40:44Z</time>
      </trkpt>
      <trkpt lat="43.12376" lon="0.10449">
        <ele>458.915</ele>
        <time>2025-04-06T09:40:52Z</time>
      </trkpt>
      <trkpt lat="43.12376" lon="0.10438">
        <ele>459.109</ele>
        <time>2025-04-06T09:40:59Z</time>
      </trkpt>
      <trkpt lat="43.12375" lon="0.10432">
        <ele>459.356</ele>
        <time>2025-04-06T09:41:06Z</time>
      </trkpt>
      <trkpt lat="43.12373" lon="0.10425">
        <ele>459.434</ele>
        <time>2025-04-06T09:41:11Z</time>
      </trkpt>
      <trkpt lat="43.12372" lon="0.10419">
        <ele>459.621</ele>
        <time>2025-04-06T09:41:17Z</time>
      </trkpt>
      <trkpt lat="43.1237" lon="0.10413">
        <ele>459.842</ele>
        <time>2025-04-06T09:41:24Z</time>
      </trkpt>
      <trkpt lat="43.12367" lon="0.10407">
        <ele>460.114</ele>
        <time>2025-04-06T09:41:30Z</time>
      </trkpt>
      <trkpt lat="43.12365" lon="0.10401">
        <ele>460.466</ele>
        <time>2025-04-06T09:41:36Z</time>
      </trkpt>
      <trkpt lat="43.12363" lon="0.10395">
        <ele>460.753</ele>
        <time>2025-04-06T09:41:43Z</time>
      </trkpt>
      <trkpt lat="43.12359" lon="0.1039">
        <ele>461.13</ele>
        <time>2025-04-06T09:41:50Z</time>
      </trkpt>
      <trkpt lat="43.12356" lon="0.10385">
        <ele>461.843</ele>
        <time>2025-04-06T09:41:57Z</time>
      </trkpt>
      <trkpt lat="43.12353" lon="0.10379">
        <ele>462.614</ele>
        <time>2025-04-06T09:42:04Z</time>
      </trkpt>
      <trkpt lat="43.12351" lon="0.10373">
        <ele>463.254</ele>
        <time>2025-04-06T09:42:10Z</time>
      </trkpt>
      <trkpt lat="43.12353" lon="0.10367">
        <ele>463.509</ele>
        <time>2025-04-06T09:42:29Z</time>
      </trkpt>
      <trkpt lat="43.12351" lon="0.1036">
        <ele>464.209</ele>
        <time>2025-04-06T09:42:36Z</time>
      </trkpt>
      <trkpt lat="43.1235" lon="0.10354">
        <ele>464.893</ele>
        <time>2025-04-06T09:42:44Z</time>
      </trkpt>
      <trkpt lat="43.1235" lon="0.10347">
        <ele>465.421</ele>
        <time>2025-04-06T09:42:52Z</time>
      </trkpt>
      <trkpt lat="43.12349" lon="0.10339">
        <ele>466.098</ele>
        <time>2025-04-06T09:42:59Z</time>
      </trkpt>
      <trkpt lat="43.12348" lon="0.10333">
        <ele>466.589</ele>
        <time>2025-04-06T09:43:05Z</time>
      </trkpt>
      <trkpt lat="43.12347" lon="0.10328">
        <ele>467.051</ele>
        <time>2025-04-06T09:43:11Z</time>
      </trkpt>
      <trkpt lat="43.12346" lon="0.10321">
        <ele>467.743</ele>
        <time>2025-04-06T09:43:18Z</time>
      </trkpt>
      <trkpt lat="43.12344" lon="0.10315">
        <ele>468.29</ele>
        <time>2025-04-06T09:43:25Z</time>
      </trkpt>
      <trkpt lat="43.12344" lon="0.10308">
        <ele>468.847</ele>
        <time>2025-04-06T09:43:32Z</time>
      </trkpt>
      <trkpt lat="43.12343" lon="0.10302">
        <ele>469.53</ele>
        <time>2025-04-06T09:43:40Z</time>
      </trkpt>
      <trkpt lat="43.12344" lon="0.10296">
        <ele>470.354</ele>
        <time>2025-04-06T09:43:50Z</time>
      </trkpt>
      <trkpt lat="43.12346" lon="0.1029">
        <ele>471.256</ele>
        <time>2025-04-06T09:43:58Z</time>
      </trkpt>
      <trkpt lat="43.12347" lon="0.10283">
        <ele>472.211</ele>
        <time>2025-04-06T09:44:06Z</time>
      </trkpt>
      <trkpt lat="43.12345" lon="0.1029">
        <ele>471.209</ele>
        <time>2025-04-06T09:48:34Z</time>
      </trkpt>
      <trkpt lat="43.12349" lon="0.10292">
        <ele>471.067</ele>
        <time>2025-04-06T09:48:41Z</time>
      </trkpt>
      <trkpt lat="43.12353" lon="0.10295">
        <ele>470.785</ele>
        <time>2025-04-06T09:48:47Z</time>
      </trkpt>
      <trkpt lat="43.12358" lon="0.10294">
        <ele>471.012</ele>
        <time>2025-04-06T09:48:57Z</time>
      </trkpt>
      <trkpt lat="43.12359" lon="0.10288">
        <ele>472.243</ele>
        <time>2025-04-06T09:49:27Z</time>
      </trkpt>
      <trkpt lat="43.12364" lon="0.10289">
        <ele>472.055</ele>
        <time>2025-04-06T09:49:36Z</time>
      </trkpt>
      <trkpt lat="43.12368" lon="0.10284">
        <ele>472.847</ele>
        <time>2025-04-06T09:49:55Z</time>
      </trkpt>
      <trkpt lat="43.12373" lon="0.10286">
        <ele>472.514</ele>
        <time>2025-04-06T09:50:03Z</time>
      </trkpt>
      <trkpt lat="43.12378" lon="0.10285">
        <ele>472.541</ele>
        <time>2025-04-06T09:50:14Z</time>
      </trkpt>
      <trkpt lat="43.12375" lon="0.10279">
        <ele>473.734</ele>
        <time>2025-04-06T09:50:24Z</time>
      </trkpt>
      <trkpt lat="43.12371" lon="0.10277">
        <ele>474.499</ele>
        <time>2025-04-06T09:50:29Z</time>
      </trkpt>
      <trkpt lat="43.12366" lon="0.10275">
        <ele>474.907</ele>
        <time>2025-04-06T09:50:34Z</time>
      </trkpt>
      <trkpt lat="43.12363" lon="0.1027">
        <ele>476.227</ele>
        <time>2025-04-06T09:50:41Z</time>
      </trkpt>
      <trkpt lat="43.12358" lon="0.1027">
        <ele>475.809</ele>
        <time>2025-04-06T09:50:47Z</time>
      </trkpt>
      <trkpt lat="43.12353" lon="0.10271">
        <ele>475.121</ele>
        <time>2025-04-06T09:50:53Z</time>
      </trkpt>
      <trkpt lat="43.12349" lon="0.10274">
        <ele>473.959</ele>
        <time>2025-04-06T09:50:58Z</time>
      </trkpt>
      <trkpt lat="43.12344" lon="0.10274">
        <ele>473.526</ele>
        <time>2025-04-06T09:51:05Z</time>
      </trkpt>
      <trkpt lat="43.12349" lon="0.10275">
        <ele>473.837</ele>
        <time>2025-04-06T09:51:11Z</time>
      </trkpt>
      <trkpt lat="43.12353" lon="0.10278">
        <ele>473.479</ele>
        <time>2025-04-06T09:51:17Z</time>
      </trkpt>
      <trkpt lat="43.12358" lon="0.1028">
        <ele>473.461</ele>
        <time>2025-04-06T09:51:23Z</time>
      </trkpt>
      <trkpt lat="43.12363" lon="0.10281">
        <ele>473.498</ele>
        <time>2025-04-06T09:51:29Z</time>
      </trkpt>
      <trkpt lat="43.12368" lon="0.10281">
        <ele>473.395</ele>
        <time>2025-04-06T09:51:35Z</time>
      </trkpt>
      <trkpt lat="43.12373" lon="0.10281">
        <ele>473.528</ele>
        <time>2025-04-06T09:51:42Z</time>
      </trkpt>
      <trkpt lat="43.12377" lon="0.10281">
        <ele>473.454</ele>
        <time>2025-04-06T09:51:48Z</time>
      </trkpt>
      <trkpt lat="43.12382" lon="0.1028">
        <ele>473.556</ele>
        <time>2025-04-06T09:51:54Z</time>
      </trkpt>
      <trkpt lat="43.12387" lon="0.10279">
        <ele>473.711</ele>
        <time>2025-04-06T09:52:01Z</time>
      </trkpt>
      <trkpt lat="43.12392" lon="0.10278">
        <ele>473.909</ele>
        <time>2025-04-06T09:52:07Z</time>
      </trkpt>
      <trkpt lat="43.12397" lon="0.10277">
        <ele>474.057</ele>
        <time>2025-04-06T09:52:12Z</time>
      </trkpt>
      <trkpt lat="43.12401" lon="0.10275">
        <ele>474.655</ele>
        <time>2025-04-06T09:52:17Z</time>
      </trkpt>
      <trkpt lat="43.12406" lon="0.10273">
        <ele>475.112</ele>
        <time>2025-04-06T09:52:23Z</time>
      </trkpt>
      <trkpt lat="43.12411" lon="0.10271">
        <ele>475.483</ele>
        <time>2025-04-06T09:52:29Z</time>
      </trkpt>
      <trkpt lat="43.12415" lon="0.10269">
        <ele>475.885</ele>
        <time>2025-04-06T09:52:34Z</time>
      </trkpt>
      <trkpt lat="43.1242" lon="0.10267">
        <ele>476.247</ele>
        <time>2025-04-06T09:52:39Z</time>
      </trkpt>
      <trkpt lat="43.12425" lon="0.10265">
        <ele>476.614</ele>
        <time>2025-04-06T09:52:45Z</time>
      </trkpt>
      <trkpt lat="43.12429" lon="0.10262">
        <ele>477.241</ele>
        <time>2025-04-06T09:52:51Z</time>
      </trkpt>
      <trkpt lat="43.12434" lon="0.1026">
        <ele>477.234</ele>
        <time>2025-04-06T09:52:57Z</time>
      </trkpt>
      <trkpt lat="43.12438" lon="0.10258">
        <ele>477.677</ele>
        <time>2025-04-06T09:53:02Z</time>
      </trkpt>
      <trkpt lat="43.12444" lon="0.10257">
        <ele>477.261</ele>
        <time>2025-04-06T09:53:08Z</time>
      </trkpt>
      <trkpt lat="43.12449" lon="0.10257">
        <ele>477.827</ele>
        <time>2025-04-06T09:53:14Z</time>
      </trkpt>
      <trkpt lat="43.12454" lon="0.10258">
        <ele>478.209</ele>
        <time>2025-04-06T09:53:23Z</time>
      </trkpt>
      <trkpt lat="43.12458" lon="0.10259">
        <ele>478.569</ele>
        <time>2025-04-06T09:53:29Z</time>
      </trkpt>
      <trkpt lat="43.12463" lon="0.1026">
        <ele>478.837</ele>
        <time>2025-04-06T09:53:36Z</time>
      </trkpt>
      <trkpt lat="43.12468" lon="0.10261">
        <ele>479.284</ele>
        <time>2025-04-06T09:54:19Z</time>
      </trkpt>
      <trkpt lat="43.12472" lon="0.10262">
        <ele>479.665</ele>
        <time>2025-04-06T09:54:24Z</time>
      </trkpt>
      <trkpt lat="43.12477" lon="0.10263">
        <ele>479.767</ele>
        <time>2025-04-06T09:54:30Z</time>
      </trkpt>
      <trkpt lat="43.12482" lon="0.10265">
        <ele>479.689</ele>
        <time>2025-04-06T09:54:36Z</time>
      </trkpt>
      <trkpt lat="43.12486" lon="0.10266">
        <ele>479.896</ele>
        <time>2025-04-06T09:54:41Z</time>
      </trkpt>
      <trkpt lat="43.12491" lon="0.10267">
        <ele>480.083</ele>
        <time>2025-04-06T09:54:47Z</time>
      </trkpt>
      <trkpt lat="43.12497" lon="0.10267">
        <ele>480.746</ele>
        <time>2025-04-06T09:54:54Z</time>
      </trkpt>
      <trkpt lat="43.12502" lon="0.10266">
        <ele>481.395</ele>
        <time>2025-04-06T09:55:00Z</time>
      </trkpt>
      <trkpt lat="43.12507" lon="0.10265">
        <ele>482.149</ele>
        <time>2025-04-06T09:55:07Z</time>
      </trkpt>
      <trkpt lat="43.12512" lon="0.10264">
        <ele>482.723</ele>
        <time>2025-04-06T09:55:13Z</time>
      </trkpt>
      <trkpt lat="43.12516" lon="0.10262">
        <ele>483.409</ele>
        <time>2025-04-06T09:55:19Z</time>
      </trkpt>
      <trkpt lat="43.12521" lon="0.10262">
        <ele>484.051</ele>
        <time>2025-04-06T09:55:25Z</time>
      </trkpt>
      <trkpt lat="43.12526" lon="0.10261">
        <ele>484.599</ele>
        <time>2025-04-06T09:55:34Z</time>
      </trkpt>
      <trkpt lat="43.12531" lon="0.1026">
        <ele>485.336</ele>
        <time>2025-04-06T09:55:41Z</time>
      </trkpt>
      <trkpt lat="43.12535" lon="0.10259">
        <ele>485.667</ele>
        <time>2025-04-06T09:55:48Z</time>
      </trkpt>
      <trkpt lat="43.12541" lon="0.10257">
        <ele>486.689</ele>
        <time>2025-04-06T09:55:55Z</time>
      </trkpt>
      <trkpt lat="43.12546" lon="0.10256">
        <ele>487.321</ele>
        <time>2025-04-06T09:56:01Z</time>
      </trkpt>
      <trkpt lat="43.12551" lon="0.10256">
        <ele>487.578</ele>
        <time>2025-04-06T09:56:08Z</time>
      </trkpt>
      <trkpt lat="43.12555" lon="0.10254">
        <ele>488.425</ele>
        <time>2025-04-06T09:56:16Z</time>
      </trkpt>
      <trkpt lat="43.12559" lon="0.1025">
        <ele>489.568</ele>
        <time>2025-04-06T09:56:22Z</time>
      </trkpt>
      <trkpt lat="43.12564" lon="0.10246">
        <ele>489.869</ele>
        <time>2025-04-06T09:56:29Z</time>
      </trkpt>
      <trkpt lat="43.12567" lon="0.10241">
        <ele>490.804</ele>
        <time>2025-04-06T09:56:35Z</time>
      </trkpt>
      <trkpt lat="43.1257" lon="0.10236">
        <ele>491.524</ele>
        <time>2025-04-06T09:56:41Z</time>
      </trkpt>
      <trkpt lat="43.12575" lon="0.10234">
        <ele>490.909</ele>
        <time>2025-04-06T09:56:49Z</time>
      </trkpt>
      <trkpt lat="43.12578" lon="0.10229">
        <ele>491.538</ele>
        <time>2025-04-06T09:57:15Z</time>
      </trkpt>
      <trkpt lat="43.12582" lon="0.10224">
        <ele>492.086</ele>
        <time>2025-04-06T09:57:22Z</time>
      </trkpt>
      <trkpt lat="43.12584" lon="0.10218">
        <ele>493.443</ele>
        <time>2025-04-06T09:57:28Z</time>
      </trkpt>
      <trkpt lat="43.12586" lon="0.10211">
        <ele>495.074</ele>
        <time>2025-04-06T09:57:36Z</time>
      </trkpt>
      <trkpt lat="43.12588" lon="0.10205">
        <ele>496.256</ele>
        <time>2025-04-06T09:57:44Z</time>
      </trkpt>
      <trkpt lat="43.1259" lon="0.102">
        <ele>497.188</ele>
        <time>2025-04-06T09:57:52Z</time>
      </trkpt>
      <trkpt lat="43.12592" lon="0.10194">
        <ele>498.175</ele>
        <time>2025-04-06T09:57:59Z</time>
      </trkpt>
      <trkpt lat="43.12594" lon="0.10188">
        <ele>498.922</ele>
        <time>2025-04-06T09:58:08Z</time>
      </trkpt>
      <trkpt lat="43.12596" lon="0.10182">
        <ele>499.995</ele>
        <time>2025-04-06T09:58:17Z</time>
      </trkpt>
      <trkpt lat="43.12599" lon="0.10177">
        <ele>499.899</ele>
        <time>2025-04-06T09:58:26Z</time>
      </trkpt>
      <trkpt lat="43.12603" lon="0.10173">
        <ele>500.007</ele>
        <time>2025-04-06T09:58:34Z</time>
      </trkpt>
      <trkpt lat="43.12607" lon="0.10171">
        <ele>498.627</ele>
        <time>2025-04-06T09:58:44Z</time>
      </trkpt>
      <trkpt lat="43.12612" lon="0.10172">
        <ele>496.809</ele>
        <time>2025-04-06T09:58:53Z</time>
      </trkpt>
      <trkpt lat="43.12616" lon="0.10169">
        <ele>497.261</ele>
        <time>2025-04-06T09:59:01Z</time>
      </trkpt>
      <trkpt lat="43.1262" lon="0.10165">
        <ele>497.549</ele>
        <time>2025-04-06T09:59:09Z</time>
      </trkpt>
      <trkpt lat="43.12625" lon="0.10164">
        <ele>497.116</ele>
        <time>2025-04-06T09:59:16Z</time>
      </trkpt>
      <trkpt lat="43.12629" lon="0.1016">
        <ele>497.337</ele>
        <time>2025-04-06T09:59:36Z</time>
      </trkpt>
      <trkpt lat="43.12632" lon="0.10155">
        <ele>498.749</ele>
        <time>2025-04-06T09:59:45Z</time>
      </trkpt>
      <trkpt lat="43.12637" lon="0.10153">
        <ele>498.551</ele>
        <time>2025-04-06T09:59:55Z</time>
      </trkpt>
      <trkpt lat="43.12641" lon="0.10152">
        <ele>498.038</ele>
        <time>2025-04-06T10:00:03Z</time>
      </trkpt>
      <trkpt lat="43.12646" lon="0.10155">
        <ele>497.295</ele>
        <time>2025-04-06T10:00:11Z</time>
      </trkpt>
      <trkpt lat="43.12651" lon="0.10156">
        <ele>496.538</ele>
        <time>2025-04-06T10:00:26Z</time>
      </trkpt>
      <trkpt lat="43.12655" lon="0.10157">
        <ele>496.137</ele>
        <time>2025-04-06T10:00:31Z</time>
      </trkpt>
      <trkpt lat="43.1266" lon="0.10158">
        <ele>495.649</ele>
        <time>2025-04-06T10:00:38Z</time>
      </trkpt>
      <trkpt lat="43.12665" lon="0.10158">
        <ele>495.613</ele>
        <time>2025-04-06T10:00:46Z</time>
      </trkpt>
      <trkpt lat="43.1267" lon="0.10156">
        <ele>495.909</ele>
        <time>2025-04-06T10:00:55Z</time>
      </trkpt>
      <trkpt lat="43.12673" lon="0.10151">
        <ele>496.845</ele>
        <time>2025-04-06T10:01:02Z</time>
      </trkpt>
      <trkpt lat="43.12677" lon="0.10146">
        <ele>498.153</ele>
        <time>2025-04-06T10:01:09Z</time>
      </trkpt>
      <trkpt lat="43.1268" lon="0.1014">
        <ele>499.36</ele>
        <time>2025-04-06T10:01:15Z</time>
      </trkpt>
      <trkpt lat="43.12679" lon="0.10133">
        <ele>501.641</ele>
        <time>2025-04-06T10:01:39Z</time>
      </trkpt>
      <trkpt lat="43.12677" lon="0.10128">
        <ele>503.523</ele>
        <time>2025-04-06T10:01:45Z</time>
      </trkpt>
      <trkpt lat="43.12674" lon="0.10123">
        <ele>505.165</ele>
        <time>2025-04-06T10:02:04Z</time>
      </trkpt>
      <trkpt lat="43.12669" lon="0.10122">
        <ele>505.872</ele>
        <time>2025-04-06T10:02:16Z</time>
      </trkpt>
      <trkpt lat="43.12664" lon="0.10122">
        <ele>506.179</ele>
        <time>2025-04-06T10:02:26Z</time>
      </trkpt>
      <trkpt lat="43.12659" lon="0.10121">
        <ele>506.422</ele>
        <time>2025-04-06T10:02:35Z</time>
      </trkpt>
      <trkpt lat="43.12655" lon="0.1012">
        <ele>507.143</ele>
        <time>2025-04-06T10:02:43Z</time>
      </trkpt>
      <trkpt lat="43.12651" lon="0.10116">
        <ele>508.464</ele>
        <time>2025-04-06T10:02:58Z</time>
      </trkpt>
      <trkpt lat="43.12646" lon="0.10113">
        <ele>509.11</ele>
        <time>2025-04-06T10:03:06Z</time>
      </trkpt>
      <trkpt lat="43.12642" lon="0.1011">
        <ele>510.309</ele>
        <time>2025-04-06T10:03:14Z</time>
      </trkpt>
      <trkpt lat="43.12638" lon="0.10109">
        <ele>511.046</ele>
        <time>2025-04-06T10:03:37Z</time>
      </trkpt>
      <trkpt lat="43.12633" lon="0.10107">
        <ele>512.554</ele>
        <time>2025-04-06T10:03:43Z</time>
      </trkpt>
      <trkpt lat="43.12629" lon="0.10105">
        <ele>513.851</ele>
        <time>2025-04-06T10:03:50Z</time>
      </trkpt>
      <trkpt lat="43.12624" lon="0.10105">
        <ele>515.092</ele>
        <time>2025-04-06T10:04:05Z</time>
      </trkpt>
      <trkpt lat="43.12619" lon="0.10103">
        <ele>516.374</ele>
        <time>2025-04-06T10:04:10Z</time>
      </trkpt>
      <trkpt lat="43.12615" lon="0.10104">
        <ele>517.246</ele>
        <time>2025-04-06T10:04:16Z</time>
      </trkpt>
      <trkpt lat="43.1261" lon="0.10105">
        <ele>517.813</ele>
        <time>2025-04-06T10:04:23Z</time>
      </trkpt>
      <trkpt lat="43.12606" lon="0.10108">
        <ele>517.98</ele>
        <time>2025-04-06T10:04:29Z</time>
      </trkpt>
      <trkpt lat="43.12601" lon="0.10109">
        <ele>518.743</ele>
        <time>2025-04-06T10:04:37Z</time>
      </trkpt>
      <trkpt lat="43.12597" lon="0.10113">
        <ele>518.453</ele>
        <time>2025-04-06T10:04:47Z</time>
      </trkpt>
      <trkpt lat="43.12593" lon="0.10116">
        <ele>518.704</ele>
        <time>2025-04-06T10:04:54Z</time>
      </trkpt>
      <trkpt lat="43.12589" lon="0.10119">
        <ele>519.014</ele>
        <time>2025-04-06T10:05:01Z</time>
      </trkpt>
      <trkpt lat="43.12584" lon="0.10123">
        <ele>519.209</ele>
        <time>2025-04-06T10:05:09Z</time>
      </trkpt>
      <trkpt lat="43.12581" lon="0.10128">
        <ele>519.197</ele>
        <time>2025-04-06T10:05:22Z</time>
      </trkpt>
      <trkpt lat="43.12577" lon="0.1013">
        <ele>520.395</ele>
        <time>2025-04-06T10:05:29Z</time>
      </trkpt>
      <trkpt lat="43.12572" lon="0.10132">
        <ele>521.442</ele>
        <time>2025-04-06T10:05:37Z</time>
      </trkpt>
      <trkpt lat="43.12568" lon="0.10135">
        <ele>522.363</ele>
        <time>2025-04-06T10:05:44Z</time>
      </trkpt>
      <trkpt lat="43.12564" lon="0.10138">
        <ele>523.335</ele>
        <time>2025-04-06T10:05:50Z</time>
      </trkpt>
      <trkpt lat="43.1256" lon="0.10141">
        <ele>524.157</ele>
        <time>2025-04-06T10:05:56Z</time>
      </trkpt>
      <trkpt lat="43.12555" lon="0.10144">
        <ele>524.894</ele>
        <time>2025-04-06T10:06:03Z</time>
      </trkpt>
      <trkpt lat="43.12551" lon="0.10147">
        <ele>524.651</ele>
        <time>2025-04-06T10:06:10Z</time>
      </trkpt>
      <trkpt lat="43.12546" lon="0.1015">
        <ele>524.534</ele>
        <time>2025-04-06T10:06:17Z</time>
      </trkpt>
      <trkpt lat="43.12542" lon="0.10152">
        <ele>524.454</ele>
        <time>2025-04-06T10:06:24Z</time>
      </trkpt>
      <trkpt lat="43.12537" lon="0.10154">
        <ele>524.656</ele>
        <time>2025-04-06T10:06:31Z</time>
      </trkpt>
      <trkpt lat="43.12532" lon="0.10153">
        <ele>525.311</ele>
        <time>2025-04-06T10:06:42Z</time>
      </trkpt>
      <trkpt lat="43.12528" lon="0.10152">
        <ele>526.309</ele>
        <time>2025-04-06T10:06:50Z</time>
      </trkpt>
      <trkpt lat="43.12523" lon="0.10152">
        <ele>526.267</ele>
        <time>2025-04-06T10:06:59Z</time>
      </trkpt>
      <trkpt lat="43.12519" lon="0.10155">
        <ele>525.255</ele>
        <time>2025-04-06T10:07:09Z</time>
      </trkpt>
      <trkpt lat="43.12514" lon="0.10153">
        <ele>525.792</ele>
        <time>2025-04-06T10:07:18Z</time>
      </trkpt>
      <trkpt lat="43.1251" lon="0.10151">
        <ele>526.543</ele>
        <time>2025-04-06T10:07:30Z</time>
      </trkpt>
      <trkpt lat="43.12506" lon="0.10147">
        <ele>527.795</ele>
        <time>2025-04-06T10:07:43Z</time>
      </trkpt>
      <trkpt lat="43.12502" lon="0.10143">
        <ele>529.217</ele>
        <time>2025-04-06T10:07:55Z</time>
      </trkpt>
      <trkpt lat="43.12497" lon="0.10143">
        <ele>528.974</ele>
        <time>2025-04-06T10:08:05Z</time>
      </trkpt>
      <trkpt lat="43.12492" lon="0.1014">
        <ele>529.591</ele>
        <time>2025-04-06T10:08:19Z</time>
      </trkpt>
      <trkpt lat="43.12495" lon="0.10134">
        <ele>532.164</ele>
        <time>2025-04-06T10:10:02Z</time>
      </trkpt>
      <trkpt lat="43.12499" lon="0.10132">
        <ele>533.486</ele>
        <time>2025-04-06T10:10:11Z</time>
      </trkpt>
      <trkpt lat="43.12504" lon="0.10131">
        <ele>533.76</ele>
        <time>2025-04-06T10:10:19Z</time>
      </trkpt>
      <trkpt lat="43.12508" lon="0.10126">
        <ele>534.926</ele>
        <time>2025-04-06T10:12:47Z</time>
      </trkpt>
      <trkpt lat="43.12511" lon="0.10122">
        <ele>535.709</ele>
        <time>2025-04-06T10:12:56Z</time>
      </trkpt>
      <trkpt lat="43.12514" lon="0.10117">
        <ele>536.96</ele>
        <time>2025-04-06T10:13:06Z</time>
      </trkpt>
      <trkpt lat="43.12516" lon="0.10111">
        <ele>538.278</ele>
        <time>2025-04-06T10:13:13Z</time>
      </trkpt>
      <trkpt lat="43.12518" lon="0.10106">
        <ele>538.585</ele>
        <time>2025-04-06T10:13:20Z</time>
      </trkpt>
      <trkpt lat="43.12521" lon="0.101">
        <ele>538.976</ele>
        <time>2025-04-06T10:14:09Z</time>
      </trkpt>
      <trkpt lat="43.12522" lon="0.10094">
        <ele>539.678</ele>
        <time>2025-04-06T10:14:15Z</time>
      </trkpt>
      <trkpt lat="43.12522" lon="0.10087">
        <ele>540.68</ele>
        <time>2025-04-06T10:14:21Z</time>
      </trkpt>
      <trkpt lat="43.12522" lon="0.10079">
        <ele>541.337</ele>
        <time>2025-04-06T10:14:37Z</time>
      </trkpt>
      <trkpt lat="43.12521" lon="0.10073">
        <ele>541.994</ele>
        <time>2025-04-06T10:14:46Z</time>
      </trkpt>
      <trkpt lat="43.12523" lon="0.10067">
        <ele>541.747</ele>
        <time>2025-04-06T10:15:47Z</time>
      </trkpt>
      <trkpt lat="43.1252" lon="0.10061">
        <ele>542.852</ele>
        <time>2025-04-06T10:15:54Z</time>
      </trkpt>
      <trkpt lat="43.1252" lon="0.10055">
        <ele>543.253</ele>
        <time>2025-04-06T10:16:01Z</time>
      </trkpt>
      <trkpt lat="43.1252" lon="0.10049">
        <ele>543.808</ele>
        <time>2025-04-06T10:16:08Z</time>
      </trkpt>
      <trkpt lat="43.1252" lon="0.10042">
        <ele>544.409</ele>
        <time>2025-04-06T10:16:16Z</time>
      </trkpt>
      <trkpt lat="43.12518" lon="0.10036">
        <ele>545.217</ele>
        <time>2025-04-06T10:16:24Z</time>
      </trkpt>
      <trkpt lat="43.12517" lon="0.1003">
        <ele>546.185</ele>
        <time>2025-04-06T10:16:32Z</time>
      </trkpt>
      <trkpt lat="43.12516" lon="0.10023">
        <ele>546.652</ele>
        <time>2025-04-06T10:16:39Z</time>
      </trkpt>
      <trkpt lat="43.12515" lon="0.10016">
        <ele>547.273</ele>
        <time>2025-04-06T10:16:45Z</time>
      </trkpt>
      <trkpt lat="43.12515" lon="0.1001">
        <ele>547.655</ele>
        <time>2025-04-06T10:16:52Z</time>
      </trkpt>
      <trkpt lat="43.12516" lon="0.10003">
        <ele>547.887</ele>
        <time>2025-04-06T10:16:59Z</time>
      </trkpt>
      <trkpt lat="43.12516" lon="0.09996">
        <ele>548.254</ele>
        <time>2025-04-06T10:17:07Z</time>
      </trkpt>
      <trkpt lat="43.12515" lon="0.0999">
        <ele>548.721</ele>
        <time>2025-04-06T10:17:13Z</time>
      </trkpt>
      <trkpt lat="43.12515" lon="0.09984">
        <ele>548.864</ele>
        <time>2025-04-06T10:17:20Z</time>
      </trkpt>
      <trkpt lat="43.12515" lon="0.09977">
        <ele>549.294</ele>
        <time>2025-04-06T10:17:27Z</time>
      </trkpt>
      <trkpt lat="43.12513" lon="0.09971">
        <ele>549.957</ele>
        <time>2025-04-06T10:17:34Z</time>
      </trkpt>
      <trkpt lat="43.12508" lon="0.09969">
        <ele>551.222</ele>
        <time>2025-04-06T10:17:41Z</time>
      </trkpt>
      <trkpt lat="43.12503" lon="0.0997">
        <ele>552.409</ele>
        <time>2025-04-06T10:17:50Z</time>
      </trkpt>
      <trkpt lat="43.12499" lon="0.09974">
        <ele>553.181</ele>
        <time>2025-04-06T10:17:57Z</time>
      </trkpt>
      <trkpt lat="43.12498" lon="0.09981">
        <ele>553.189</ele>
        <time>2025-04-06T10:18:13Z</time>
      </trkpt>
      <trkpt lat="43.12494" lon="0.09986">
        <ele>553.596</ele>
        <time>2025-04-06T10:18:21Z</time>
      </trkpt>
      <trkpt lat="43.12489" lon="0.09986">
        <ele>554.397</ele>
        <time>2025-04-06T10:18:50Z</time>
      </trkpt>
      <trkpt lat="43.12487" lon="0.09992">
        <ele>554.319</ele>
        <time>2025-04-06T10:18:56Z</time>
      </trkpt>
      <trkpt lat="43.12484" lon="0.09997">
        <ele>554.621</ele>
        <time>2025-04-06T10:19:04Z</time>
      </trkpt>
      <trkpt lat="43.1248" lon="0.10001">
        <ele>554.818</ele>
        <time>2025-04-06T10:19:12Z</time>
      </trkpt>
      <trkpt lat="43.12475" lon="0.10006">
        <ele>555.255</ele>
        <time>2025-04-06T10:19:22Z</time>
      </trkpt>
      <trkpt lat="43.12471" lon="0.10008">
        <ele>555.568</ele>
        <time>2025-04-06T10:19:32Z</time>
      </trkpt>
      <trkpt lat="43.12466" lon="0.10007">
        <ele>555.931</ele>
        <time>2025-04-06T10:19:41Z</time>
      </trkpt>
      <trkpt lat="43.12462" lon="0.10005">
        <ele>556.361</ele>
        <time>2025-04-06T10:20:10Z</time>
      </trkpt>
      <trkpt lat="43.12459" lon="0.1">
        <ele>557.007</ele>
        <time>2025-04-06T10:20:19Z</time>
      </trkpt>
      <trkpt lat="43.12456" lon="0.09995">
        <ele>557.709</ele>
        <time>2025-04-06T10:20:28Z</time>
      </trkpt>
      <trkpt lat="43.12453" lon="0.0999">
        <ele>558.365</ele>
        <time>2025-04-06T10:20:36Z</time>
      </trkpt>
      <trkpt lat="43.1245" lon="0.09984">
        <ele>559.173</ele>
        <time>2025-04-06T10:20:46Z</time>
      </trkpt>
      <trkpt lat="43.12446" lon="0.0998">
        <ele>559.97</ele>
        <time>2025-04-06T10:20:54Z</time>
      </trkpt>
      <trkpt lat="43.12442" lon="0.09976">
        <ele>560.591</ele>
        <time>2025-04-06T10:21:01Z</time>
      </trkpt>
      <trkpt lat="43.12438" lon="0.09972">
        <ele>561.033</ele>
        <time>2025-04-06T10:21:08Z</time>
      </trkpt>
      <trkpt lat="43.12434" lon="0.09968">
        <ele>561.565</ele>
        <time>2025-04-06T10:21:24Z</time>
      </trkpt>
      <trkpt lat="43.1243" lon="0.09964">
        <ele>562.042</ele>
        <time>2025-04-06T10:21:32Z</time>
      </trkpt>
      <trkpt lat="43.12426" lon="0.09961">
        <ele>562.549</ele>
        <time>2025-04-06T10:21:40Z</time>
      </trkpt>
      <trkpt lat="43.12423" lon="0.09956">
        <ele>563.242</ele>
        <time>2025-04-06T10:21:48Z</time>
      </trkpt>
      <trkpt lat="43.12419" lon="0.09952">
        <ele>563.918</ele>
        <time>2025-04-06T10:21:55Z</time>
      </trkpt>
      <trkpt lat="43.12416" lon="0.09947">
        <ele>564.698</ele>
        <time>2025-04-06T10:22:02Z</time>
      </trkpt>
      <trkpt lat="43.12412" lon="0.09944">
        <ele>564.617</ele>
        <time>2025-04-06T10:22:15Z</time>
      </trkpt>
      <trkpt lat="43.12409" lon="0.0994">
        <ele>565.109</ele>
        <time>2025-04-06T10:22:22Z</time>
      </trkpt>
      <trkpt lat="43.12405" lon="0.09936">
        <ele>565.493</ele>
        <time>2025-04-06T10:22:36Z</time>
      </trkpt>
      <trkpt lat="43.12402" lon="0.09931">
        <ele>565.951</ele>
        <time>2025-04-06T10:22:44Z</time>
      </trkpt>
      <trkpt lat="43.12398" lon="0.09926">
        <ele>566.398</ele>
        <time>2025-04-06T10:22:52Z</time>
      </trkpt>
      <trkpt lat="43.12394" lon="0.09923">
        <ele>566.519</ele>
        <time>2025-04-06T10:22:59Z</time>
      </trkpt>
      <trkpt lat="43.1239" lon="0.09919">
        <ele>566.861</ele>
        <time>2025-04-06T10:23:06Z</time>
      </trkpt>
      <trkpt lat="43.12386" lon="0.09915">
        <ele>567.223</ele>
        <time>2025-04-06T10:23:13Z</time>
      </trkpt>
      <trkpt lat="43.12383" lon="0.0991">
        <ele>567.89</ele>
        <time>2025-04-06T10:23:21Z</time>
      </trkpt>
      <trkpt lat="43.12379" lon="0.09906">
        <ele>568.467</ele>
        <time>2025-04-06T10:23:30Z</time>
      </trkpt>
      <trkpt lat="43.12376" lon="0.09901">
        <ele>569.01</ele>
        <time>2025-04-06T10:23:38Z</time>
      </trkpt>
      <trkpt lat="43.12373" lon="0.09896">
        <ele>569.957</ele>
        <time>2025-04-06T10:23:46Z</time>
      </trkpt>
      <trkpt lat="43.1237" lon="0.0989">
        <ele>570.8</ele>
        <time>2025-04-06T10:23:54Z</time>
      </trkpt>
      <trkpt lat="43.12369" lon="0.09884">
        <ele>571.62</ele>
        <time>2025-04-06T10:24:03Z</time>
      </trkpt>
      <trkpt lat="43.12367" lon="0.09878">
        <ele>572.509</ele>
        <time>2025-04-06T10:24:12Z</time>
      </trkpt>
      <trkpt lat="43.12365" lon="0.09872">
        <ele>573.387</ele>
        <time>2025-04-06T10:24:20Z</time>
      </trkpt>
      <trkpt lat="43.12363" lon="0.09866">
        <ele>574.245</ele>
        <time>2025-04-06T10:24:29Z</time>
      </trkpt>
      <trkpt lat="43.12361" lon="0.09861">
        <ele>575.142</ele>
        <time>2025-04-06T10:24:37Z</time>
      </trkpt>
      <trkpt lat="43.12358" lon="0.09856">
        <ele>576.143</ele>
        <time>2025-04-06T10:24:45Z</time>
      </trkpt>
      <trkpt lat="43.12355" lon="0.09851">
        <ele>577.155</ele>
        <time>2025-04-06T10:24:53Z</time>
      </trkpt>
      <trkpt lat="43.12353" lon="0.09845">
        <ele>578.087</ele>
        <time>2025-04-06T10:25:02Z</time>
      </trkpt>
      <trkpt lat="43.1235" lon="0.0984">
        <ele>578.964</ele>
        <time>2025-04-06T10:25:10Z</time>
      </trkpt>
      <trkpt lat="43.12347" lon="0.09834">
        <ele>579.941</ele>
        <time>2025-04-06T10:25:21Z</time>
      </trkpt>
      <trkpt lat="43.12344" lon="0.0983">
        <ele>580.564</ele>
        <time>2025-04-06T10:25:30Z</time>
      </trkpt>
      <trkpt lat="43.1234" lon="0.09825">
        <ele>581.054</ele>
        <time>2025-04-06T10:25:38Z</time>
      </trkpt>
      <trkpt lat="43.12337" lon="0.0982">
        <ele>581.756</ele>
        <time>2025-04-06T10:25:47Z</time>
      </trkpt>
      <trkpt lat="43.12333" lon="0.09816">
        <ele>582.311</ele>
        <time>2025-04-06T10:25:55Z</time>
      </trkpt>
      <trkpt lat="43.12329" lon="0.09812">
        <ele>582.809</ele>
        <time>2025-04-06T10:26:04Z</time>
      </trkpt>
      <trkpt lat="43.12326" lon="0.09807">
        <ele>583.437</ele>
        <time>2025-04-06T10:26:11Z</time>
      </trkpt>
      <trkpt lat="43.12324" lon="0.09801">
        <ele>584.045</ele>
        <time>2025-04-06T10:26:25Z</time>
      </trkpt>
      <trkpt lat="43.1232" lon="0.09798">
        <ele>584.572</ele>
        <time>2025-04-06T10:26:33Z</time>
      </trkpt>
      <trkpt lat="43.12316" lon="0.09794">
        <ele>585.123</ele>
        <time>2025-04-06T10:26:41Z</time>
      </trkpt>
      <trkpt lat="43.12313" lon="0.0979">
        <ele>585.675</ele>
        <time>2025-04-06T10:26:50Z</time>
      </trkpt>
      <trkpt lat="43.12308" lon="0.09786">
        <ele>586.267</ele>
        <time>2025-04-06T10:26:59Z</time>
      </trkpt>
      <trkpt lat="43.12306" lon="0.09781">
        <ele>586.824</ele>
        <time>2025-04-06T10:27:37Z</time>
      </trkpt>
      <trkpt lat="43.12303" lon="0.09775">
        <ele>587.221</ele>
        <time>2025-04-06T10:27:44Z</time>
      </trkpt>
      <trkpt lat="43.12298" lon="0.09773">
        <ele>587.444</ele>
        <time>2025-04-06T10:27:52Z</time>
      </trkpt>
      <trkpt lat="43.12295" lon="0.09769">
        <ele>587.899</ele>
        <time>2025-04-06T10:27:59Z</time>
      </trkpt>
      <trkpt lat="43.12291" lon="0.09765">
        <ele>588.207</ele>
        <time>2025-04-06T10:28:06Z</time>
      </trkpt>
      <trkpt lat="43.12287" lon="0.09759">
        <ele>588.627</ele>
        <time>2025-04-06T10:28:13Z</time>
      </trkpt>
      <trkpt lat="43.12284" lon="0.09755">
        <ele>588.909</ele>
        <time>2025-04-06T10:28:21Z</time>
      </trkpt>
      <trkpt lat="43.12281" lon="0.0975">
        <ele>589.171</ele>
        <time>2025-04-06T10:28:27Z</time>
      </trkpt>
      <trkpt lat="43.12277" lon="0.09746">
        <ele>589.179</ele>
        <time>2025-04-06T10:28:34Z</time>
      </trkpt>
      <trkpt lat="43.12273" lon="0.09743">
        <ele>588.666</ele>
        <time>2025-04-06T10:28:40Z</time>
      </trkpt>
      <trkpt lat="43.1227" lon="0.09739">
        <ele>588.257</ele>
        <time>2025-04-06T10:28:46Z</time>
      </trkpt>
      <trkpt lat="43.12265" lon="0.09733">
        <ele>587.919</ele>
        <time>2025-04-06T10:28:54Z</time>
      </trkpt>
      <trkpt lat="43.12263" lon="0.09739">
        <ele>587.151</ele>
        <time>2025-04-06T10:29:18Z</time>
      </trkpt>
      <trkpt lat="43.12262" lon="0.09745">
        <ele>586.588</ele>
        <time>2025-04-06T10:29:26Z</time>
      </trkpt>
      <trkpt lat="43.12257" lon="0.09747">
        <ele>585.685</ele>
        <time>2025-04-06T10:30:37Z</time>
      </trkpt>
      <trkpt lat="43.12255" lon="0.09742">
        <ele>585.778</ele>
        <time>2025-04-06T10:31:09Z</time>
      </trkpt>
      <trkpt lat="43.12257" lon="0.09737">
        <ele>586.572</ele>
        <time>2025-04-06T10:31:18Z</time>
      </trkpt>
      <trkpt lat="43.12262" lon="0.09734">
        <ele>587.313</ele>
        <time>2025-04-06T10:31:27Z</time>
      </trkpt>
      <trkpt lat="43.12265" lon="0.09728">
        <ele>588.214</ele>
        <time>2025-04-06T10:31:35Z</time>
      </trkpt>
      <trkpt lat="43.12266" lon="0.09721">
        <ele>588.709</ele>
        <time>2025-04-06T10:31:43Z</time>
      </trkpt>
      <trkpt lat="43.12267" lon="0.09715">
        <ele>589.159</ele>
        <time>2025-04-06T10:31:52Z</time>
      </trkpt>
      <trkpt lat="43.12269" lon="0.09709">
        <ele>589.327</ele>
        <time>2025-04-06T10:32:00Z</time>
      </trkpt>
      <trkpt lat="43.12271" lon="0.09703">
        <ele>589.694</ele>
        <time>2025-04-06T10:32:08Z</time>
      </trkpt>
      <trkpt lat="43.12273" lon="0.09698">
        <ele>589.885</ele>
        <time>2025-04-06T10:32:15Z</time>
      </trkpt>
      <trkpt lat="43.12275" lon="0.09692">
        <ele>589.937</ele>
        <time>2025-04-06T10:32:24Z</time>
      </trkpt>
      <trkpt lat="43.12277" lon="0.09686">
        <ele>590.069</ele>
        <time>2025-04-06T10:32:35Z</time>
      </trkpt>
      <trkpt lat="43.12279" lon="0.0968">
        <ele>590.076</ele>
        <time>2025-04-06T10:32:45Z</time>
      </trkpt>
      <trkpt lat="43.12278" lon="0.09671">
        <ele>590.023</ele>
        <time>2025-04-06T10:34:05Z</time>
      </trkpt>
      <trkpt lat="43.12279" lon="0.09677">
        <ele>590.056</ele>
        <time>2025-04-06T10:37:13Z</time>
      </trkpt>
      <trkpt lat="43.12278" lon="0.09683">
        <ele>590.095</ele>
        <time>2025-04-06T10:38:15Z</time>
      </trkpt>
      <trkpt lat="43.12276" lon="0.09689">
        <ele>590.049</ele>
        <time>2025-04-06T10:38:29Z</time>
      </trkpt>
      <trkpt lat="43.12274" lon="0.09695">
        <ele>589.923</ele>
        <time>2025-04-06T10:38:38Z</time>
      </trkpt>
      <trkpt lat="43.12272" lon="0.09701">
        <ele>589.709</ele>
        <time>2025-04-06T10:38:47Z</time>
      </trkpt>
      <trkpt lat="43.1227" lon="0.09706">
        <ele>589.551</ele>
        <time>2025-04-06T10:38:55Z</time>
      </trkpt>
      <trkpt lat="43.12268" lon="0.09712">
        <ele>589.279</ele>
        <time>2025-04-06T10:39:05Z</time>
      </trkpt>
      <trkpt lat="43.12267" lon="0.09718">
        <ele>588.926</ele>
        <time>2025-04-06T10:39:14Z</time>
      </trkpt>
      <trkpt lat="43.12263" lon="0.09723">
        <ele>588.427</ele>
        <time>2025-04-06T10:39:28Z</time>
      </trkpt>
      <trkpt lat="43.1226" lon="0.09718">
        <ele>588.369</ele>
        <time>2025-04-06T10:40:50Z</time>
      </trkpt>
      <trkpt lat="43.12258" lon="0.09711">
        <ele>588.541</ele>
        <time>2025-04-06T10:44:33Z</time>
      </trkpt>
      <trkpt lat="43.12258" lon="0.09703">
        <ele>588.838</ele>
        <time>2025-04-06T10:44:39Z</time>
      </trkpt>
      <trkpt lat="43.12255" lon="0.09699">
        <ele>588.995</ele>
        <time>2025-04-06T10:44:44Z</time>
      </trkpt>
      <trkpt lat="43.12251" lon="0.09694">
        <ele>589.198</ele>
        <time>2025-04-06T10:44:49Z</time>
      </trkpt>
      <trkpt lat="43.12247" lon="0.09692">
        <ele>588.684</ele>
        <time>2025-04-06T10:44:58Z</time>
      </trkpt>
      <trkpt lat="43.12243" lon="0.09687">
        <ele>588.307</ele>
        <time>2025-04-06T10:45:04Z</time>
      </trkpt>
      <trkpt lat="43.12238" lon="0.09685">
        <ele>587.717</ele>
        <time>2025-04-06T10:45:11Z</time>
      </trkpt>
      <trkpt lat="43.12234" lon="0.09681">
        <ele>587.309</ele>
        <time>2025-04-06T10:45:17Z</time>
      </trkpt>
      <trkpt lat="43.1223" lon="0.09676">
        <ele>587.25</ele>
        <time>2025-04-06T10:45:22Z</time>
      </trkpt>
      <trkpt lat="43.12226" lon="0.09672">
        <ele>587.188</ele>
        <time>2025-04-06T10:45:27Z</time>
      </trkpt>
      <trkpt lat="43.12222" lon="0.09668">
        <ele>586.835</ele>
        <time>2025-04-06T10:45:32Z</time>
      </trkpt>
      <trkpt lat="43.12218" lon="0.09664">
        <ele>586.346</ele>
        <time>2025-04-06T10:45:37Z</time>
      </trkpt>
      <trkpt lat="43.12215" lon="0.09659">
        <ele>586.048</ele>
        <time>2025-04-06T10:45:43Z</time>
      </trkpt>
      <trkpt lat="43.12212" lon="0.09655">
        <ele>585.82</ele>
        <time>2025-04-06T10:45:48Z</time>
      </trkpt>
      <trkpt lat="43.12209" lon="0.0965">
        <ele>585.597</ele>
        <time>2025-04-06T10:45:53Z</time>
      </trkpt>
      <trkpt lat="43.12207" lon="0.09643">
        <ele>585.654</ele>
        <time>2025-04-06T10:45:58Z</time>
      </trkpt>
      <trkpt lat="43.12205" lon="0.09637">
        <ele>585.947</ele>
        <time>2025-04-06T10:46:03Z</time>
      </trkpt>
      <trkpt lat="43.12204" lon="0.09631">
        <ele>586.483</ele>
        <time>2025-04-06T10:46:08Z</time>
      </trkpt>
      <trkpt lat="43.12204" lon="0.09624">
        <ele>587.125</ele>
        <time>2025-04-06T10:46:14Z</time>
      </trkpt>
      <trkpt lat="43.12203" lon="0.09617">
        <ele>587.917</ele>
        <time>2025-04-06T10:46:19Z</time>
      </trkpt>
      <trkpt lat="43.12202" lon="0.09611">
        <ele>588.409</ele>
        <time>2025-04-06T10:46:24Z</time>
      </trkpt>
      <trkpt lat="43.12202" lon="0.09604">
        <ele>588.99</ele>
        <time>2025-04-06T10:46:28Z</time>
      </trkpt>
      <trkpt lat="43.12201" lon="0.09598">
        <ele>589.418</ele>
        <time>2025-04-06T10:46:33Z</time>
      </trkpt>
      <trkpt lat="43.122" lon="0.09591">
        <ele>589.995</ele>
        <time>2025-04-06T10:46:38Z</time>
      </trkpt>
      <trkpt lat="43.12199" lon="0.09585">
        <ele>590.326</ele>
        <time>2025-04-06T10:46:44Z</time>
      </trkpt>
      <trkpt lat="43.12197" lon="0.09579">
        <ele>590.698</ele>
        <time>2025-04-06T10:46:49Z</time>
      </trkpt>
      <trkpt lat="43.12196" lon="0.09572">
        <ele>591.06</ele>
        <time>2025-04-06T10:46:55Z</time>
      </trkpt>
      <trkpt lat="43.12194" lon="0.09566">
        <ele>591.257</ele>
        <time>2025-04-06T10:47:01Z</time>
      </trkpt>
      <trkpt lat="43.12193" lon="0.09559">
        <ele>591.394</ele>
        <time>2025-04-06T10:47:08Z</time>
      </trkpt>
      <trkpt lat="43.12192" lon="0.09552">
        <ele>591.497</ele>
        <time>2025-04-06T10:47:15Z</time>
      </trkpt>
      <trkpt lat="43.12191" lon="0.09545">
        <ele>591.566</ele>
        <time>2025-04-06T10:47:22Z</time>
      </trkpt>
      <trkpt lat="43.1219" lon="0.09539">
        <ele>591.529</ele>
        <time>2025-04-06T10:48:45Z</time>
      </trkpt>
      <trkpt lat="43.12189" lon="0.09532">
        <ele>591.421</ele>
        <time>2025-04-06T10:48:52Z</time>
      </trkpt>
      <trkpt lat="43.12189" lon="0.09526">
        <ele>591.709</ele>
        <time>2025-04-06T10:49:25Z</time>
      </trkpt>
      <trkpt lat="43.12189" lon="0.09519">
        <ele>592.118</ele>
        <time>2025-04-06T10:49:36Z</time>
      </trkpt>
      <trkpt lat="43.12188" lon="0.09513">
        <ele>592.426</ele>
        <time>2025-04-06T10:49:42Z</time>
      </trkpt>
      <trkpt lat="43.12188" lon="0.09506">
        <ele>592.963</ele>
        <time>2025-04-06T10:49:49Z</time>
      </trkpt>
      <trkpt lat="43.12187" lon="0.095">
        <ele>593.134</ele>
        <time>2025-04-06T10:49:56Z</time>
      </trkpt>
      <trkpt lat="43.12188" lon="0.09493">
        <ele>593.596</ele>
        <time>2025-04-06T10:50:06Z</time>
      </trkpt>
      <trkpt lat="43.12188" lon="0.09485">
        <ele>593.828</ele>
        <time>2025-04-06T10:50:13Z</time>
      </trkpt>
      <trkpt lat="43.12188" lon="0.09479">
        <ele>594.185</ele>
        <time>2025-04-06T10:50:20Z</time>
      </trkpt>
      <trkpt lat="43.12188" lon="0.09472">
        <ele>594.322</ele>
        <time>2025-04-06T10:50:27Z</time>
      </trkpt>
      <trkpt lat="43.12189" lon="0.09465">
        <ele>595.085</ele>
        <time>2025-04-06T10:50:34Z</time>
      </trkpt>
      <trkpt lat="43.12188" lon="0.09458">
        <ele>595.469</ele>
        <time>2025-04-06T10:50:40Z</time>
      </trkpt>
      <trkpt lat="43.12189" lon="0.09452">
        <ele>596.104</ele>
        <time>2025-04-06T10:50:46Z</time>
      </trkpt>
      <trkpt lat="43.1219" lon="0.09445">
        <ele>596.624</ele>
        <time>2025-04-06T10:50:52Z</time>
      </trkpt>
      <trkpt lat="43.12189" lon="0.09438">
        <ele>596.509</ele>
        <time>2025-04-06T10:50:58Z</time>
      </trkpt>
      <trkpt lat="43.12189" lon="0.09432">
        <ele>596.688</ele>
        <time>2025-04-06T10:51:04Z</time>
      </trkpt>
      <trkpt lat="43.12188" lon="0.09425">
        <ele>596.496</ele>
        <time>2025-04-06T10:51:10Z</time>
      </trkpt>
      <trkpt lat="43.12189" lon="0.09419">
        <ele>596.553</ele>
        <time>2025-04-06T10:51:16Z</time>
      </trkpt>
      <trkpt lat="43.12189" lon="0.09412">
        <ele>596.444</ele>
        <time>2025-04-06T10:51:23Z</time>
      </trkpt>
      <trkpt lat="43.1219" lon="0.09406">
        <ele>596.476</ele>
        <time>2025-04-06T10:51:30Z</time>
      </trkpt>
      <trkpt lat="43.12191" lon="0.09399">
        <ele>596.718</ele>
        <time>2025-04-06T10:51:55Z</time>
      </trkpt>
      <trkpt lat="43.12191" lon="0.09392">
        <ele>596.415</ele>
        <time>2025-04-06T10:52:03Z</time>
      </trkpt>
      <trkpt lat="43.1219" lon="0.09385">
        <ele>596.052</ele>
        <time>2025-04-06T10:52:11Z</time>
      </trkpt>
      <trkpt lat="43.12188" lon="0.0938">
        <ele>595.675</ele>
        <time>2025-04-06T10:52:18Z</time>
      </trkpt>
      <trkpt lat="43.12186" lon="0.09374">
        <ele>595.042</ele>
        <time>2025-04-06T10:52:32Z</time>
      </trkpt>
      <trkpt lat="43.12187" lon="0.09366">
        <ele>595.222</ele>
        <time>2025-04-06T10:52:54Z</time>
      </trkpt>
      <trkpt lat="43.12187" lon="0.0936">
        <ele>595.114</ele>
        <time>2025-04-06T10:53:01Z</time>
      </trkpt>
      <trkpt lat="43.12188" lon="0.09352">
        <ele>595.009</ele>
        <time>2025-04-06T10:53:30Z</time>
      </trkpt>
      <trkpt lat="43.1219" lon="0.09346">
        <ele>595.386</ele>
        <time>2025-04-06T10:53:38Z</time>
      </trkpt>
      <trkpt lat="43.12193" lon="0.09341">
        <ele>595.884</ele>
        <time>2025-04-06T10:53:45Z</time>
      </trkpt>
      <trkpt lat="43.12197" lon="0.09338">
        <ele>596.321</ele>
        <time>2025-04-06T10:53:52Z</time>
      </trkpt>
      <trkpt lat="43.12201" lon="0.09336">
        <ele>596.332</ele>
        <time>2025-04-06T10:53:59Z</time>
      </trkpt>
      <trkpt lat="43.12207" lon="0.09335">
        <ele>596.534</ele>
        <time>2025-04-06T10:54:06Z</time>
      </trkpt>
      <trkpt lat="43.12212" lon="0.09334">
        <ele>596.616</ele>
        <time>2025-04-06T10:54:12Z</time>
      </trkpt>
      <trkpt lat="43.12215" lon="0.0933">
        <ele>596.693</ele>
        <time>2025-04-06T10:54:29Z</time>
      </trkpt>
      <trkpt lat="43.1222" lon="0.09329">
        <ele>596.81</ele>
        <time>2025-04-06T10:54:34Z</time>
      </trkpt>
      <trkpt lat="43.12225" lon="0.09328">
        <ele>596.413</ele>
        <time>2025-04-06T10:54:40Z</time>
      </trkpt>
      <trkpt lat="43.12229" lon="0.09327">
        <ele>595.648</ele>
        <time>2025-04-06T10:54:47Z</time>
      </trkpt>
      <trkpt lat="43.12234" lon="0.09326">
        <ele>594.761</ele>
        <time>2025-04-06T10:54:55Z</time>
      </trkpt>
      <trkpt lat="43.12239" lon="0.09324">
        <ele>593.917</ele>
        <time>2025-04-06T10:55:02Z</time>
      </trkpt>
      <trkpt lat="43.12243" lon="0.09323">
        <ele>593.109</ele>
        <time>2025-04-06T10:55:09Z</time>
      </trkpt>
      <trkpt lat="43.12248" lon="0.09321">
        <ele>592.476</ele>
        <time>2025-04-06T10:55:16Z</time>
      </trkpt>
      <trkpt lat="43.12252" lon="0.09319">
        <ele>591.734</ele>
        <time>2025-04-06T10:55:23Z</time>
      </trkpt>
      <trkpt lat="43.12258" lon="0.09318">
        <ele>590.951</ele>
        <time>2025-04-06T10:55:31Z</time>
      </trkpt>
      <trkpt lat="43.12263" lon="0.09319">
        <ele>590.242</ele>
        <time>2025-04-06T10:55:46Z</time>
      </trkpt>
      <trkpt lat="43.12267" lon="0.09316">
        <ele>589.564</ele>
        <time>2025-04-06T10:55:54Z</time>
      </trkpt>
      <trkpt lat="43.12272" lon="0.09315">
        <ele>588.816</ele>
        <time>2025-04-06T10:56:02Z</time>
      </trkpt>
      <trkpt lat="43.12277" lon="0.09314">
        <ele>588.133</ele>
        <time>2025-04-06T10:56:08Z</time>
      </trkpt>
      <trkpt lat="43.12282" lon="0.09313">
        <ele>587.03</ele>
        <time>2025-04-06T10:56:15Z</time>
      </trkpt>
      <trkpt lat="43.12286" lon="0.09309">
        <ele>586.033</ele>
        <time>2025-04-06T10:56:23Z</time>
      </trkpt>
      <trkpt lat="43.12289" lon="0.09304">
        <ele>585.168</ele>
        <time>2025-04-06T10:56:30Z</time>
      </trkpt>
      <trkpt lat="43.12291" lon="0.09299">
        <ele>584.642</ele>
        <time>2025-04-06T10:56:36Z</time>
      </trkpt>
      <trkpt lat="43.12291" lon="0.09292">
        <ele>584.526</ele>
        <time>2025-04-06T10:56:48Z</time>
      </trkpt>
      <trkpt lat="43.12292" lon="0.09285">
        <ele>584.109</ele>
        <time>2025-04-06T10:56:54Z</time>
      </trkpt>
      <trkpt lat="43.12291" lon="0.09278">
        <ele>584.188</ele>
        <time>2025-04-06T10:57:01Z</time>
      </trkpt>
      <trkpt lat="43.1229" lon="0.09272">
        <ele>584.286</ele>
        <time>2025-04-06T10:57:07Z</time>
      </trkpt>
      <trkpt lat="43.12289" lon="0.09265">
        <ele>584.153</ele>
        <time>2025-04-06T10:57:14Z</time>
      </trkpt>
      <trkpt lat="43.12287" lon="0.09258">
        <ele>584.414</ele>
        <time>2025-04-06T10:57:17Z</time>
      </trkpt>
      <trkpt lat="43.12286" lon="0.09251">
        <ele>584.346</ele>
        <time>2025-04-06T10:57:27Z</time>
      </trkpt>
      <trkpt lat="43.12286" lon="0.09244">
        <ele>584.158</ele>
        <time>2025-04-06T10:57:35Z</time>
      </trkpt>
      <trkpt lat="43.12285" lon="0.09237">
        <ele>584.055</ele>
        <time>2025-04-06T10:57:43Z</time>
      </trkpt>
      <trkpt lat="43.12285" lon="0.0923">
        <ele>583.972</ele>
        <time>2025-04-06T10:57:50Z</time>
      </trkpt>
      <trkpt lat="43.12284" lon="0.09224">
        <ele>583.955</ele>
        <time>2025-04-06T10:57:57Z</time>
      </trkpt>
      <trkpt lat="43.12284" lon="0.09217">
        <ele>583.872</ele>
        <time>2025-04-06T10:58:04Z</time>
      </trkpt>
      <trkpt lat="43.12283" lon="0.09211">
        <ele>583.713</ele>
        <time>2025-04-06T10:58:10Z</time>
      </trkpt>
      <trkpt lat="43.12283" lon="0.09205">
        <ele>583.614</ele>
        <time>2025-04-06T10:58:17Z</time>
      </trkpt>
      <trkpt lat="43.12281" lon="0.09199">
        <ele>583.709</ele>
        <time>2025-04-06T10:58:39Z</time>
      </trkpt>
      <trkpt lat="43.12279" lon="0.09193">
        <ele>583.899</ele>
        <time>2025-04-06T11:51:02Z</time>
      </trkpt>
      <trkpt lat="43.12279" lon="0.09187">
        <ele>583.277</ele>
        <time>2025-04-06T11:51:48Z</time>
      </trkpt>
      <trkpt lat="43.12278" lon="0.0918">
        <ele>583.094</ele>
        <time>2025-04-06T11:51:56Z</time>
      </trkpt>
      <trkpt lat="43.12277" lon="0.09174">
        <ele>582.625</ele>
        <time>2025-04-06T11:52:23Z</time>
      </trkpt>
      <trkpt lat="43.12277" lon="0.09167">
        <ele>582.217</ele>
        <time>2025-04-06T11:52:31Z</time>
      </trkpt>
      <trkpt lat="43.12276" lon="0.0916">
        <ele>582.389</ele>
        <time>2025-04-06T11:52:39Z</time>
      </trkpt>
      <trkpt lat="43.12274" lon="0.09154">
        <ele>582.596</ele>
        <time>2025-04-06T11:52:48Z</time>
      </trkpt>
      <trkpt lat="43.12272" lon="0.09149">
        <ele>582.873</ele>
        <time>2025-04-06T11:52:56Z</time>
      </trkpt>
      <trkpt lat="43.12269" lon="0.09143">
        <ele>583.136</ele>
        <time>2025-04-06T11:53:05Z</time>
      </trkpt>
      <trkpt lat="43.12266" lon="0.09138">
        <ele>583.218</ele>
        <time>2025-04-06T11:53:26Z</time>
      </trkpt>
      <trkpt lat="43.12263" lon="0.09133">
        <ele>583.298</ele>
        <time>2025-04-06T11:53:34Z</time>
      </trkpt>
      <trkpt lat="43.1226" lon="0.09129">
        <ele>583.217</ele>
        <time>2025-04-06T11:53:43Z</time>
      </trkpt>
      <trkpt lat="43.12257" lon="0.09123">
        <ele>583.109</ele>
        <time>2025-04-06T11:53:51Z</time>
      </trkpt>
      <trkpt lat="43.12256" lon="0.09117">
        <ele>582.883</ele>
        <time>2025-04-06T11:54:00Z</time>
      </trkpt>
      <trkpt lat="43.12256" lon="0.0911">
        <ele>582.381</ele>
        <time>2025-04-06T11:54:09Z</time>
      </trkpt>
      <trkpt lat="43.12256" lon="0.09104">
        <ele>581.968</ele>
        <time>2025-04-06T11:54:18Z</time>
      </trkpt>
      <trkpt lat="43.12254" lon="0.09098">
        <ele>581.739</ele>
        <time>2025-04-06T11:54:42Z</time>
      </trkpt>
      <trkpt lat="43.12254" lon="0.09092">
        <ele>581.351</ele>
        <time>2025-04-06T11:54:50Z</time>
      </trkpt>
      <trkpt lat="43.12253" lon="0.09085">
        <ele>580.963</ele>
        <time>2025-04-06T11:54:58Z</time>
      </trkpt>
      <trkpt lat="43.12252" lon="0.09079">
        <ele>580.66</ele>
        <time>2025-04-06T11:55:07Z</time>
      </trkpt>
      <trkpt lat="43.1225" lon="0.09073">
        <ele>580.797</ele>
        <time>2025-04-06T11:55:13Z</time>
      </trkpt>
      <trkpt lat="43.12246" lon="0.09067">
        <ele>581.01</ele>
        <time>2025-04-06T11:55:18Z</time>
      </trkpt>
      <trkpt lat="43.12245" lon="0.09061">
        <ele>580.946</ele>
        <time>2025-04-06T11:55:32Z</time>
      </trkpt>
      <trkpt lat="43.12246" lon="0.09055">
        <ele>580.588</ele>
        <time>2025-04-06T11:55:44Z</time>
      </trkpt>
      <trkpt lat="43.12246" lon="0.09048">
        <ele>579.716</ele>
        <time>2025-04-06T11:55:53Z</time>
      </trkpt>
      <trkpt lat="43.12246" lon="0.09042">
        <ele>579.109</ele>
        <time>2025-04-06T11:56:02Z</time>
      </trkpt>
      <trkpt lat="43.12246" lon="0.09036">
        <ele>578.596</ele>
        <time>2025-04-06T11:56:12Z</time>
      </trkpt>
      <trkpt lat="43.12246" lon="0.09029">
        <ele>577.994</ele>
        <time>2025-04-06T11:56:20Z</time>
      </trkpt>
      <trkpt lat="43.12245" lon="0.09023">
        <ele>577.291</ele>
        <time>2025-04-06T11:56:28Z</time>
      </trkpt>
      <trkpt lat="43.12246" lon="0.09016">
        <ele>576.252</ele>
        <time>2025-04-06T11:56:37Z</time>
      </trkpt>
      <trkpt lat="43.12246" lon="0.0901">
        <ele>575.324</ele>
        <time>2025-04-06T11:56:44Z</time>
      </trkpt>
      <trkpt lat="43.12246" lon="0.09003">
        <ele>574.576</ele>
        <time>2025-04-06T11:56:52Z</time>
      </trkpt>
      <trkpt lat="43.12245" lon="0.08997">
        <ele>574.083</ele>
        <time>2025-04-06T11:57:00Z</time>
      </trkpt>
      <trkpt lat="43.12245" lon="0.0899">
        <ele>573.25</ele>
        <time>2025-04-06T11:57:11Z</time>
      </trkpt>
      <trkpt lat="43.12246" lon="0.08984">
        <ele>572.413</ele>
        <time>2025-04-06T11:57:45Z</time>
      </trkpt>
      <trkpt lat="43.12247" lon="0.08978">
        <ele>571.556</ele>
        <time>2025-04-06T11:58:23Z</time>
      </trkpt>
      <trkpt lat="43.12248" lon="0.08971">
        <ele>570.659</ele>
        <time>2025-04-06T11:58:34Z</time>
      </trkpt>
      <trkpt lat="43.12245" lon="0.08965">
        <ele>570.614</ele>
        <time>2025-04-06T11:58:47Z</time>
      </trkpt>
      <trkpt lat="43.12242" lon="0.08959">
        <ele>571.109</ele>
        <time>2025-04-06T11:58:54Z</time>
      </trkpt>
      <trkpt lat="43.12239" lon="0.08953">
        <ele>571.557</ele>
        <time>2025-04-06T11:59:04Z</time>
      </trkpt>
      <trkpt lat="43.12237" lon="0.08947">
        <ele>571.625</ele>
        <time>2025-04-06T11:59:17Z</time>
      </trkpt>
      <trkpt lat="43.12233" lon="0.08943">
        <ele>572.562</ele>
        <time>2025-04-06T11:59:24Z</time>
      </trkpt>
      <trkpt lat="43.12229" lon="0.08939">
        <ele>573.633</ele>
        <time>2025-04-06T11:59:32Z</time>
      </trkpt>
      <trkpt lat="43.12225" lon="0.08936">
        <ele>574.635</ele>
        <time>2025-04-06T11:59:39Z</time>
      </trkpt>
      <trkpt lat="43.12221" lon="0.08932">
        <ele>575.727</ele>
        <time>2025-04-06T11:59:46Z</time>
      </trkpt>
      <trkpt lat="43.12218" lon="0.08927">
        <ele>576.374</ele>
        <time>2025-04-06T11:59:54Z</time>
      </trkpt>
      <trkpt lat="43.12215" lon="0.08922">
        <ele>576.691</ele>
        <time>2025-04-06T12:00:03Z</time>
      </trkpt>
      <trkpt lat="43.12212" lon="0.08917">
        <ele>576.914</ele>
        <time>2025-04-06T12:00:11Z</time>
      </trkpt>
      <trkpt lat="43.12208" lon="0.08913">
        <ele>577.371</ele>
        <time>2025-04-06T12:00:20Z</time>
      </trkpt>
      <trkpt lat="43.12206" lon="0.08907">
        <ele>577.541</ele>
        <time>2025-04-06T12:00:28Z</time>
      </trkpt>
      <trkpt lat="43.12204" lon="0.08901">
        <ele>577.515</ele>
        <time>2025-04-06T12:00:53Z</time>
      </trkpt>
      <trkpt lat="43.12201" lon="0.08896">
        <ele>577.909</ele>
        <time>2025-04-06T12:01:01Z</time>
      </trkpt>
      <trkpt lat="43.12197" lon="0.08891">
        <ele>578.599</ele>
        <time>2025-04-06T12:01:09Z</time>
      </trkpt>
      <trkpt lat="43.12194" lon="0.08887">
        <ele>578.967</ele>
        <time>2025-04-06T12:01:16Z</time>
      </trkpt>
      <trkpt lat="43.1219" lon="0.08882">
        <ele>579.414</ele>
        <time>2025-04-06T12:01:24Z</time>
      </trkpt>
      <trkpt lat="43.12186" lon="0.08879">
        <ele>579.965</ele>
        <time>2025-04-06T12:01:30Z</time>
      </trkpt>
      <trkpt lat="43.12182" lon="0.08874">
        <ele>580.697</ele>
        <time>2025-04-06T12:01:37Z</time>
      </trkpt>
      <trkpt lat="43.12179" lon="0.0887">
        <ele>581.319</ele>
        <time>2025-04-06T12:01:45Z</time>
      </trkpt>
      <trkpt lat="43.12175" lon="0.08865">
        <ele>582.026</ele>
        <time>2025-04-06T12:01:52Z</time>
      </trkpt>
      <trkpt lat="43.12172" lon="0.08861">
        <ele>582.833</ele>
        <time>2025-04-06T12:01:59Z</time>
      </trkpt>
      <trkpt lat="43.12168" lon="0.08856">
        <ele>583.516</ele>
        <time>2025-04-06T12:02:06Z</time>
      </trkpt>
      <trkpt lat="43.12164" lon="0.08852">
        <ele>584.066</ele>
        <time>2025-04-06T12:02:13Z</time>
      </trkpt>
      <trkpt lat="43.12159" lon="0.08851">
        <ele>584.529</ele>
        <time>2025-04-06T12:02:20Z</time>
      </trkpt>
      <trkpt lat="43.12154" lon="0.0885">
        <ele>585.121</ele>
        <time>2025-04-06T12:02:28Z</time>
      </trkpt>
      <trkpt lat="43.1215" lon="0.08846">
        <ele>585.609</ele>
        <time>2025-04-06T12:02:35Z</time>
      </trkpt>
      <trkpt lat="43.12145" lon="0.08847">
        <ele>586.268</ele>
        <time>2025-04-06T12:03:40Z</time>
      </trkpt>
      <trkpt lat="43.12142" lon="0.08842">
        <ele>586.656</ele>
        <time>2025-04-06T12:03:47Z</time>
      </trkpt>
      <trkpt lat="43.12137" lon="0.0884">
        <ele>586.783</ele>
        <time>2025-04-06T12:03:55Z</time>
      </trkpt>
      <trkpt lat="43.12133" lon="0.08838">
        <ele>585.984</ele>
        <time>2025-04-06T12:04:02Z</time>
      </trkpt>
      <trkpt lat="43.12128" lon="0.08836">
        <ele>585.066</ele>
        <time>2025-04-06T12:04:10Z</time>
      </trkpt>
      <trkpt lat="43.12124" lon="0.08832">
        <ele>584.478</ele>
        <time>2025-04-06T12:04:18Z</time>
      </trkpt>
      <trkpt lat="43.12119" lon="0.08829">
        <ele>583.615</ele>
        <time>2025-04-06T12:04:28Z</time>
      </trkpt>
      <trkpt lat="43.12122" lon="0.08835">
        <ele>584.092</ele>
        <time>2025-04-06T12:13:28Z</time>
      </trkpt>
      <trkpt lat="43.12127" lon="0.08836">
        <ele>584.915</ele>
        <time>2025-04-06T12:13:38Z</time>
      </trkpt>
      <trkpt lat="43.12132" lon="0.08838">
        <ele>585.755</ele>
        <time>2025-04-06T12:13:46Z</time>
      </trkpt>
      <trkpt lat="43.12136" lon="0.0884">
        <ele>586.507</ele>
        <time>2025-04-06T12:13:54Z</time>
      </trkpt>
      <trkpt lat="43.1214" lon="0.08843">
        <ele>586.817</ele>
        <time>2025-04-06T12:14:01Z</time>
      </trkpt>
      <trkpt lat="43.12145" lon="0.08845">
        <ele>586.309</ele>
        <time>2025-04-06T12:14:09Z</time>
      </trkpt>
      <trkpt lat="43.12149" lon="0.08846">
        <ele>585.767</ele>
        <time>2025-04-06T12:14:17Z</time>
      </trkpt>
      <trkpt lat="43.12154" lon="0.08849">
        <ele>585.165</ele>
        <time>2025-04-06T12:14:25Z</time>
      </trkpt>
      <trkpt lat="43.12159" lon="0.08847">
        <ele>584.582</ele>
        <time>2025-04-06T12:14:33Z</time>
      </trkpt>
      <trkpt lat="43.12163" lon="0.08843">
        <ele>583.873</ele>
        <time>2025-04-06T12:14:54Z</time>
      </trkpt>
      <trkpt lat="43.12167" lon="0.08839">
        <ele>583.225</ele>
        <time>2025-04-06T12:15:05Z</time>
      </trkpt>
      <trkpt lat="43.1217" lon="0.08834">
        <ele>582.227</ele>
        <time>2025-04-06T12:15:14Z</time>
      </trkpt>
      <trkpt lat="43.12172" lon="0.08829">
        <ele>581.334</ele>
        <time>2025-04-06T12:15:22Z</time>
      </trkpt>
      <trkpt lat="43.12175" lon="0.08823">
        <ele>580.561</ele>
        <time>2025-04-06T12:15:30Z</time>
      </trkpt>
      <trkpt lat="43.12177" lon="0.08817">
        <ele>579.544</ele>
        <time>2025-04-06T12:15:37Z</time>
      </trkpt>
      <trkpt lat="43.1218" lon="0.08811">
        <ele>578.435</ele>
        <time>2025-04-06T12:15:45Z</time>
      </trkpt>
      <trkpt lat="43.12183" lon="0.08805">
        <ele>577.386</ele>
        <time>2025-04-06T12:15:52Z</time>
      </trkpt>
      <trkpt lat="43.12185" lon="0.088">
        <ele>576.514</ele>
        <time>2025-04-06T12:16:00Z</time>
      </trkpt>
      <trkpt lat="43.12188" lon="0.08794">
        <ele>575.609</ele>
        <time>2025-04-06T12:16:07Z</time>
      </trkpt>
      <trkpt lat="43.12191" lon="0.08789">
        <ele>574.925</ele>
        <time>2025-04-06T12:16:16Z</time>
      </trkpt>
      <trkpt lat="43.12194" lon="0.08782">
        <ele>574.223</ele>
        <time>2025-04-06T12:16:22Z</time>
      </trkpt>
      <trkpt lat="43.12195" lon="0.08776">
        <ele>574.18</ele>
        <time>2025-04-06T12:16:31Z</time>
      </trkpt>
      <trkpt lat="43.12197" lon="0.0877">
        <ele>574.321</ele>
        <time>2025-04-06T12:16:40Z</time>
      </trkpt>
      <trkpt lat="43.12199" lon="0.08765">
        <ele>574.453</ele>
        <time>2025-04-06T12:16:49Z</time>
      </trkpt>
      <trkpt lat="43.12203" lon="0.0876">
        <ele>574.375</ele>
        <time>2025-04-06T12:17:01Z</time>
      </trkpt>
      <trkpt lat="43.12207" lon="0.08757">
        <ele>573.942</ele>
        <time>2025-04-06T12:17:09Z</time>
      </trkpt>
      <trkpt lat="43.12212" lon="0.08757">
        <ele>573.059</ele>
        <time>2025-04-06T12:17:17Z</time>
      </trkpt>
      <trkpt lat="43.12216" lon="0.08756">
        <ele>572.382</ele>
        <time>2025-04-06T12:17:24Z</time>
      </trkpt>
      <trkpt lat="43.12221" lon="0.08756">
        <ele>571.321</ele>
        <time>2025-04-06T12:17:32Z</time>
      </trkpt>
      <trkpt lat="43.12226" lon="0.08757">
        <ele>570.441</ele>
        <time>2025-04-06T12:17:39Z</time>
      </trkpt>
      <trkpt lat="43.12231" lon="0.08759">
        <ele>569.405</ele>
        <time>2025-04-06T12:17:46Z</time>
      </trkpt>
      <trkpt lat="43.12236" lon="0.08761">
        <ele>568.409</ele>
        <time>2025-04-06T12:17:53Z</time>
      </trkpt>
      <trkpt lat="43.12241" lon="0.08762">
        <ele>567.574</ele>
        <time>2025-04-06T12:17:59Z</time>
      </trkpt>
      <trkpt lat="43.12246" lon="0.08763">
        <ele>566.432</ele>
        <time>2025-04-06T12:18:05Z</time>
      </trkpt>
      <trkpt lat="43.1225" lon="0.08767">
        <ele>564.969</ele>
        <time>2025-04-06T12:18:34Z</time>
      </trkpt>
      <trkpt lat="43.12255" lon="0.08763">
        <ele>564.82</ele>
        <time>2025-04-06T12:18:40Z</time>
      </trkpt>
      <trkpt lat="43.12259" lon="0.08759">
        <ele>564.812</ele>
        <time>2025-04-06T12:18:46Z</time>
      </trkpt>
      <trkpt lat="43.1226" lon="0.08753">
        <ele>566.324</ele>
        <time>2025-04-06T12:19:22Z</time>
      </trkpt>
      <trkpt lat="43.12263" lon="0.08748">
        <ele>566.731</ele>
        <time>2025-04-06T12:19:33Z</time>
      </trkpt>
      <trkpt lat="43.12266" lon="0.08743">
        <ele>567.088</ele>
        <time>2025-04-06T12:19:41Z</time>
      </trkpt>
      <trkpt lat="43.12269" lon="0.08738">
        <ele>567.271</ele>
        <time>2025-04-06T12:19:50Z</time>
      </trkpt>
      <trkpt lat="43.12272" lon="0.08733">
        <ele>567.535</ele>
        <time>2025-04-06T12:19:58Z</time>
      </trkpt>
      <trkpt lat="43.12275" lon="0.08727">
        <ele>567.986</ele>
        <time>2025-04-06T12:20:05Z</time>
      </trkpt>
      <trkpt lat="43.12277" lon="0.08721">
        <ele>568.514</ele>
        <time>2025-04-06T12:20:12Z</time>
      </trkpt>
      <trkpt lat="43.12279" lon="0.08715">
        <ele>568.909</ele>
        <time>2025-04-06T12:20:19Z</time>
      </trkpt>
      <trkpt lat="43.12282" lon="0.08709">
        <ele>569.295</ele>
        <time>2025-04-06T12:20:26Z</time>
      </trkpt>
      <trkpt lat="43.12285" lon="0.08703">
        <ele>569.233</ele>
        <time>2025-04-06T12:20:33Z</time>
      </trkpt>
      <trkpt lat="43.12288" lon="0.08698">
        <ele>569.13</ele>
        <time>2025-04-06T12:20:40Z</time>
      </trkpt>
      <trkpt lat="43.12292" lon="0.08694">
        <ele>568.761</ele>
        <time>2025-04-06T12:20:46Z</time>
      </trkpt>
      <trkpt lat="43.12296" lon="0.08691">
        <ele>567.753</ele>
        <time>2025-04-06T12:20:52Z</time>
      </trkpt>
      <trkpt lat="43.123" lon="0.08689">
        <ele>566.785</ele>
        <time>2025-04-06T12:20:58Z</time>
      </trkpt>
      <trkpt lat="43.12305" lon="0.08686">
        <ele>565.862</ele>
        <time>2025-04-06T12:21:05Z</time>
      </trkpt>
      <trkpt lat="43.12309" lon="0.08683">
        <ele>565.569</ele>
        <time>2025-04-06T12:21:11Z</time>
      </trkpt>
      <trkpt lat="43.12314" lon="0.08683">
        <ele>564.762</ele>
        <time>2025-04-06T12:21:18Z</time>
      </trkpt>
      <trkpt lat="43.12319" lon="0.0868">
        <ele>564.431</ele>
        <time>2025-04-06T12:21:26Z</time>
      </trkpt>
      <trkpt lat="43.12323" lon="0.0868">
        <ele>563.761</ele>
        <time>2025-04-06T12:21:32Z</time>
      </trkpt>
      <trkpt lat="43.12328" lon="0.08679">
        <ele>563.107</ele>
        <time>2025-04-06T12:21:39Z</time>
      </trkpt>
      <trkpt lat="43.12333" lon="0.08679">
        <ele>562.309</ele>
        <time>2025-04-06T12:21:46Z</time>
      </trkpt>
      <trkpt lat="43.12338" lon="0.08676">
        <ele>562.545</ele>
        <time>2025-04-06T12:22:05Z</time>
      </trkpt>
      <trkpt lat="43.12343" lon="0.08674">
        <ele>562.443</ele>
        <time>2025-04-06T12:22:12Z</time>
      </trkpt>
      <trkpt lat="43.12348" lon="0.08675">
        <ele>561.84</ele>
        <time>2025-04-06T12:22:19Z</time>
      </trkpt>
      <trkpt lat="43.12353" lon="0.08674">
        <ele>561.541</ele>
        <time>2025-04-06T12:22:27Z</time>
      </trkpt>
      <trkpt lat="43.12357" lon="0.08672">
        <ele>561.533</ele>
        <time>2025-04-06T12:22:41Z</time>
      </trkpt>
      <trkpt lat="43.12362" lon="0.08673">
        <ele>560.815</ele>
        <time>2025-04-06T12:22:49Z</time>
      </trkpt>
      <trkpt lat="43.12367" lon="0.08676">
        <ele>560.362</ele>
        <time>2025-04-06T12:22:56Z</time>
      </trkpt>
      <trkpt lat="43.1237" lon="0.0868">
        <ele>559.779</ele>
        <time>2025-04-06T12:23:02Z</time>
      </trkpt>
      <trkpt lat="43.12373" lon="0.08685">
        <ele>558.662</ele>
        <time>2025-04-06T12:23:08Z</time>
      </trkpt>
      <trkpt lat="43.12376" lon="0.0869">
        <ele>557.875</ele>
        <time>2025-04-06T12:23:16Z</time>
      </trkpt>
      <trkpt lat="43.12381" lon="0.08689">
        <ele>557.928</ele>
        <time>2025-04-06T12:23:25Z</time>
      </trkpt>
      <trkpt lat="43.12383" lon="0.08695">
        <ele>556.82</ele>
        <time>2025-04-06T12:23:33Z</time>
      </trkpt>
      <trkpt lat="43.12386" lon="0.087">
        <ele>555.409</ele>
        <time>2025-04-06T12:23:41Z</time>
      </trkpt>
      <trkpt lat="43.1239" lon="0.08704">
        <ele>554.329</ele>
        <time>2025-04-06T12:23:48Z</time>
      </trkpt>
      <trkpt lat="43.12393" lon="0.08709">
        <ele>553.277</ele>
        <time>2025-04-06T12:23:55Z</time>
      </trkpt>
      <trkpt lat="43.12398" lon="0.08712">
        <ele>552.844</ele>
        <time>2025-04-06T12:24:02Z</time>
      </trkpt>
      <trkpt lat="43.12402" lon="0.08715">
        <ele>552.425</ele>
        <time>2025-04-06T12:24:09Z</time>
      </trkpt>
      <trkpt lat="43.12407" lon="0.08716">
        <ele>552.437</ele>
        <time>2025-04-06T12:24:16Z</time>
      </trkpt>
      <trkpt lat="43.12413" lon="0.08717">
        <ele>552.829</ele>
        <time>2025-04-06T12:24:23Z</time>
      </trkpt>
      <trkpt lat="43.12417" lon="0.08717">
        <ele>553.226</ele>
        <time>2025-04-06T12:24:29Z</time>
      </trkpt>
      <trkpt lat="43.12422" lon="0.08716">
        <ele>552.953</ele>
        <time>2025-04-06T12:24:37Z</time>
      </trkpt>
      <trkpt lat="43.12427" lon="0.08715">
        <ele>552.836</ele>
        <time>2025-04-06T12:24:43Z</time>
      </trkpt>
      <trkpt lat="43.1243" lon="0.08711">
        <ele>553.288</ele>
        <time>2025-04-06T12:24:54Z</time>
      </trkpt>
      <trkpt lat="43.12434" lon="0.08707">
        <ele>553.624</ele>
        <time>2025-04-06T12:24:59Z</time>
      </trkpt>
      <trkpt lat="43.12438" lon="0.08705">
        <ele>553.826</ele>
        <time>2025-04-06T12:25:05Z</time>
      </trkpt>
      <trkpt lat="43.12443" lon="0.08701">
        <ele>553.909</ele>
        <time>2025-04-06T12:25:11Z</time>
      </trkpt>
      <trkpt lat="43.12447" lon="0.08699">
        <ele>553.77</ele>
        <time>2025-04-06T12:25:19Z</time>
      </trkpt>
      <trkpt lat="43.12451" lon="0.08694">
        <ele>553.758</ele>
        <time>2025-04-06T12:25:25Z</time>
      </trkpt>
      <trkpt lat="43.12454" lon="0.0869">
        <ele>553.675</ele>
        <time>2025-04-06T12:25:32Z</time>
      </trkpt>
      <trkpt lat="43.12458" lon="0.08685">
        <ele>553.576</ele>
        <time>2025-04-06T12:25:38Z</time>
      </trkpt>
      <trkpt lat="43.12462" lon="0.08681">
        <ele>553.388</ele>
        <time>2025-04-06T12:25:44Z</time>
      </trkpt>
      <trkpt lat="43.12466" lon="0.08677">
        <ele>552.92</ele>
        <time>2025-04-06T12:25:50Z</time>
      </trkpt>
      <trkpt lat="43.1247" lon="0.08673">
        <ele>552.697</ele>
        <time>2025-04-06T12:25:56Z</time>
      </trkpt>
      <trkpt lat="43.12474" lon="0.08669">
        <ele>552.484</ele>
        <time>2025-04-06T12:26:02Z</time>
      </trkpt>
      <trkpt lat="43.12477" lon="0.08664">
        <ele>551.757</ele>
        <time>2025-04-06T12:26:09Z</time>
      </trkpt>
      <trkpt lat="43.12481" lon="0.0866">
        <ele>550.881</ele>
        <time>2025-04-06T12:26:16Z</time>
      </trkpt>
      <trkpt lat="43.12486" lon="0.08657">
        <ele>549.861</ele>
        <time>2025-04-06T12:26:22Z</time>
      </trkpt>
      <trkpt lat="43.1249" lon="0.08654">
        <ele>548.717</ele>
        <time>2025-04-06T12:26:29Z</time>
      </trkpt>
      <trkpt lat="43.12494" lon="0.08651">
        <ele>547.809</ele>
        <time>2025-04-06T12:26:57Z</time>
      </trkpt>
      <trkpt lat="43.12499" lon="0.0865">
        <ele>546.55</ele>
        <time>2025-04-06T12:27:04Z</time>
      </trkpt>
      <trkpt lat="43.12505" lon="0.08651">
        <ele>545.168</ele>
        <time>2025-04-06T12:28:03Z</time>
      </trkpt>
      <trkpt lat="43.12509" lon="0.08652">
        <ele>544.135</ele>
        <time>2025-04-06T12:28:13Z</time>
      </trkpt>
      <trkpt lat="43.12514" lon="0.08651">
        <ele>543.186</ele>
        <time>2025-04-06T12:29:01Z</time>
      </trkpt>
      <trkpt lat="43.12518" lon="0.0865">
        <ele>542.198</ele>
        <time>2025-04-06T12:29:08Z</time>
      </trkpt>
      <trkpt lat="43.12523" lon="0.08649">
        <ele>541.16</ele>
        <time>2025-04-06T12:29:38Z</time>
      </trkpt>
      <trkpt lat="43.12528" lon="0.08648">
        <ele>540.097</ele>
        <time>2025-04-06T12:29:46Z</time>
      </trkpt>
      <trkpt lat="43.1253" lon="0.08643">
        <ele>540.084</ele>
        <time>2025-04-06T12:29:59Z</time>
      </trkpt>
      <trkpt lat="43.12535" lon="0.08642">
        <ele>540.097</ele>
        <time>2025-04-06T12:30:05Z</time>
      </trkpt>
      <trkpt lat="43.1254" lon="0.08638">
        <ele>540.097</ele>
        <time>2025-04-06T12:30:12Z</time>
      </trkpt>
      <trkpt lat="43.12544" lon="0.08633">
        <ele>540.023</ele>
        <time>2025-04-06T12:30:19Z</time>
      </trkpt>
      <trkpt lat="43.12547" lon="0.08628">
        <ele>540.025</ele>
        <time>2025-04-06T12:30:26Z</time>
      </trkpt>
      <trkpt lat="43.12551" lon="0.08624">
        <ele>540.009</ele>
        <time>2025-04-06T12:30:35Z</time>
      </trkpt>
      <trkpt lat="43.12555" lon="0.08621">
        <ele>540.061</ele>
        <time>2025-04-06T12:30:44Z</time>
      </trkpt>
      <trkpt lat="43.1256" lon="0.0862">
        <ele>540.319</ele>
        <time>2025-04-06T12:30:52Z</time>
      </trkpt>
      <trkpt lat="43.12565" lon="0.08619">
        <ele>540.686</ele>
        <time>2025-04-06T12:30:59Z</time>
      </trkpt>
      <trkpt lat="43.12569" lon="0.08617">
        <ele>540.947</ele>
        <time>2025-04-06T12:31:06Z</time>
      </trkpt>
      <trkpt lat="43.12574" lon="0.08618">
        <ele>541.259</ele>
        <time>2025-04-06T12:31:15Z</time>
      </trkpt>
      <trkpt lat="43.12579" lon="0.08618">
        <ele>541.581</ele>
        <time>2025-04-06T12:31:26Z</time>
      </trkpt>
      <trkpt lat="43.12584" lon="0.08617">
        <ele>541.968</ele>
        <time>2025-04-06T12:31:34Z</time>
      </trkpt>
      <trkpt lat="43.12588" lon="0.08618">
        <ele>542.675</ele>
        <time>2025-04-06T12:31:42Z</time>
      </trkpt>
      <trkpt lat="43.12593" lon="0.08619">
        <ele>543.448</ele>
        <time>2025-04-06T12:31:50Z</time>
      </trkpt>
      <trkpt lat="43.12598" lon="0.08621">
        <ele>544.077</ele>
        <time>2025-04-06T12:31:57Z</time>
      </trkpt>
      <trkpt lat="43.12602" lon="0.08625">
        <ele>544.661</ele>
        <time>2025-04-06T12:32:07Z</time>
      </trkpt>
      <trkpt lat="43.12607" lon="0.08626">
        <ele>545.227</ele>
        <time>2025-04-06T12:32:13Z</time>
      </trkpt>
      <trkpt lat="43.12612" lon="0.08626">
        <ele>546.009</ele>
        <time>2025-04-06T12:32:19Z</time>
      </trkpt>
      <trkpt lat="43.12616" lon="0.08627">
        <ele>546.989</ele>
        <time>2025-04-06T12:32:25Z</time>
      </trkpt>
      <trkpt lat="43.12621" lon="0.08629">
        <ele>547.737</ele>
        <time>2025-04-06T12:32:32Z</time>
      </trkpt>
      <trkpt lat="43.12625" lon="0.08633">
        <ele>548.394</ele>
        <time>2025-04-06T12:32:39Z</time>
      </trkpt>
      <trkpt lat="43.12629" lon="0.08637">
        <ele>548.935</ele>
        <time>2025-04-06T12:32:45Z</time>
      </trkpt>
      <trkpt lat="43.12632" lon="0.08642">
        <ele>549.467</ele>
        <time>2025-04-06T12:32:52Z</time>
      </trkpt>
      <trkpt lat="43.12635" lon="0.08647">
        <ele>550.129</ele>
        <time>2025-04-06T12:33:00Z</time>
      </trkpt>
      <trkpt lat="43.12637" lon="0.08653">
        <ele>550.566</ele>
        <time>2025-04-06T12:33:13Z</time>
      </trkpt>
      <trkpt lat="43.12639" lon="0.08659">
        <ele>551.033</ele>
        <time>2025-04-06T12:33:20Z</time>
      </trkpt>
      <trkpt lat="43.1264" lon="0.08665">
        <ele>551.176</ele>
        <time>2025-04-06T12:33:26Z</time>
      </trkpt>
      <trkpt lat="43.1264" lon="0.08672">
        <ele>550.714</ele>
        <time>2025-04-06T12:33:33Z</time>
      </trkpt>
      <trkpt lat="43.12641" lon="0.08679">
        <ele>550.454</ele>
        <time>2025-04-06T12:33:40Z</time>
      </trkpt>
      <trkpt lat="43.12642" lon="0.08685">
        <ele>550.109</ele>
        <time>2025-04-06T12:33:47Z</time>
      </trkpt>
      <trkpt lat="43.12644" lon="0.08692">
        <ele>549.909</ele>
        <time>2025-04-06T12:33:54Z</time>
      </trkpt>
      <trkpt lat="43.12645" lon="0.08698">
        <ele>549.763</ele>
        <time>2025-04-06T12:34:00Z</time>
      </trkpt>
      <trkpt lat="43.12647" lon="0.08705">
        <ele>549.631</ele>
        <time>2025-04-06T12:34:07Z</time>
      </trkpt>
      <trkpt lat="43.12649" lon="0.08711">
        <ele>549.538</ele>
        <time>2025-04-06T12:34:14Z</time>
      </trkpt>
      <trkpt lat="43.12651" lon="0.08717">
        <ele>549.479</ele>
        <time>2025-04-06T12:34:20Z</time>
      </trkpt>
      <trkpt lat="43.12652" lon="0.08724">
        <ele>549.211</ele>
        <time>2025-04-06T12:34:27Z</time>
      </trkpt>
      <trkpt lat="43.12654" lon="0.0873">
        <ele>549.123</ele>
        <time>2025-04-06T12:34:34Z</time>
      </trkpt>
      <trkpt lat="43.12656" lon="0.08736">
        <ele>548.91</ele>
        <time>2025-04-06T12:34:43Z</time>
      </trkpt>
      <trkpt lat="43.12659" lon="0.08741">
        <ele>549.247</ele>
        <time>2025-04-06T12:34:50Z</time>
      </trkpt>
      <trkpt lat="43.12663" lon="0.08746">
        <ele>549.54</ele>
        <time>2025-04-06T12:34:57Z</time>
      </trkpt>
      <trkpt lat="43.12667" lon="0.08751">
        <ele>549.955</ele>
        <time>2025-04-06T12:35:04Z</time>
      </trkpt>
      <trkpt lat="43.1267" lon="0.08755">
        <ele>549.607</ele>
        <time>2025-04-06T12:35:11Z</time>
      </trkpt>
      <trkpt lat="43.12674" lon="0.08759">
        <ele>549.517</ele>
        <time>2025-04-06T12:35:19Z</time>
      </trkpt>
      <trkpt lat="43.12675" lon="0.08766">
        <ele>548.709</ele>
        <time>2025-04-06T12:36:42Z</time>
      </trkpt>
      <trkpt lat="43.12678" lon="0.08771">
        <ele>548.677</ele>
        <time>2025-04-06T12:36:51Z</time>
      </trkpt>
      <trkpt lat="43.12682" lon="0.08775">
        <ele>548.655</ele>
        <time>2025-04-06T12:36:57Z</time>
      </trkpt>
      <trkpt lat="43.12685" lon="0.08779">
        <ele>548.662</ele>
        <time>2025-04-06T12:37:03Z</time>
      </trkpt>
      <trkpt lat="43.12689" lon="0.08783">
        <ele>548.263</ele>
        <time>2025-04-06T12:37:09Z</time>
      </trkpt>
      <trkpt lat="43.12693" lon="0.08784">
        <ele>548.985</ele>
        <time>2025-04-06T12:37:30Z</time>
      </trkpt>
      <trkpt lat="43.12696" lon="0.08789">
        <ele>547.817</ele>
        <time>2025-04-06T12:37:37Z</time>
      </trkpt>
      <trkpt lat="43.12701" lon="0.0879">
        <ele>548.164</ele>
        <time>2025-04-06T12:37:56Z</time>
      </trkpt>
      <trkpt lat="43.12703" lon="0.08795">
        <ele>547.121</ele>
        <time>2025-04-06T12:38:25Z</time>
      </trkpt>
      <trkpt lat="43.12707" lon="0.088">
        <ele>546.294</ele>
        <time>2025-04-06T12:38:35Z</time>
      </trkpt>
      <trkpt lat="43.12711" lon="0.08803">
        <ele>546.014</ele>
        <time>2025-04-06T12:38:42Z</time>
      </trkpt>
      <trkpt lat="43.12716" lon="0.08806">
        <ele>546.054</ele>
        <time>2025-04-06T12:38:49Z</time>
      </trkpt>
      <trkpt lat="43.1272" lon="0.08808">
        <ele>546.109</ele>
        <time>2025-04-06T12:38:56Z</time>
      </trkpt>
      <trkpt lat="43.12725" lon="0.0881">
        <ele>545.709</ele>
        <time>2025-04-06T12:39:02Z</time>
      </trkpt>
      <trkpt lat="43.12729" lon="0.08811">
        <ele>544.963</ele>
        <time>2025-04-06T12:39:09Z</time>
      </trkpt>
      <trkpt lat="43.12734" lon="0.08811">
        <ele>544.691</ele>
        <time>2025-04-06T12:39:15Z</time>
      </trkpt>
      <trkpt lat="43.12738" lon="0.08808">
        <ele>544.728</ele>
        <time>2025-04-06T12:39:21Z</time>
      </trkpt>
      <trkpt lat="43.12743" lon="0.08806">
        <ele>544.749</ele>
        <time>2025-04-06T12:39:27Z</time>
      </trkpt>
      <trkpt lat="43.12748" lon="0.08803">
        <ele>544.791</ele>
        <time>2025-04-06T12:39:33Z</time>
      </trkpt>
      <trkpt lat="43.12752" lon="0.088">
        <ele>545.233</ele>
        <time>2025-04-06T12:39:40Z</time>
      </trkpt>
      <trkpt lat="43.12757" lon="0.08799">
        <ele>545.35</ele>
        <time>2025-04-06T12:39:47Z</time>
      </trkpt>
      <trkpt lat="43.12761" lon="0.08796">
        <ele>545.777</ele>
        <time>2025-04-06T12:39:55Z</time>
      </trkpt>
      <trkpt lat="43.12766" lon="0.08795">
        <ele>545.63</ele>
        <time>2025-04-06T12:40:05Z</time>
      </trkpt>
      <trkpt lat="43.1277" lon="0.08798">
        <ele>544.917</ele>
        <time>2025-04-06T12:40:13Z</time>
      </trkpt>
      <trkpt lat="43.12772" lon="0.08804">
        <ele>543.687</ele>
        <time>2025-04-06T12:40:22Z</time>
      </trkpt>
      <trkpt lat="43.12773" lon="0.0881">
        <ele>542.415</ele>
        <time>2025-04-06T12:40:31Z</time>
      </trkpt>
      <trkpt lat="43.12774" lon="0.08816">
        <ele>541.209</ele>
        <time>2025-04-06T12:40:40Z</time>
      </trkpt>
      <trkpt lat="43.12774" lon="0.08823">
        <ele>539.953</ele>
        <time>2025-04-06T12:40:49Z</time>
      </trkpt>
      <trkpt lat="43.12775" lon="0.08829">
        <ele>538.721</ele>
        <time>2025-04-06T12:40:56Z</time>
      </trkpt>
      <trkpt lat="43.12775" lon="0.08836">
        <ele>537.788</ele>
        <time>2025-04-06T12:41:03Z</time>
      </trkpt>
      <trkpt lat="43.12778" lon="0.08841">
        <ele>537.299</ele>
        <time>2025-04-06T12:41:15Z</time>
      </trkpt>
      <trkpt lat="43.12778" lon="0.08848">
        <ele>536.641</ele>
        <time>2025-04-06T12:41:22Z</time>
      </trkpt>
      <trkpt lat="43.12778" lon="0.08855">
        <ele>535.933</ele>
        <time>2025-04-06T12:41:29Z</time>
      </trkpt>
      <trkpt lat="43.12779" lon="0.08861">
        <ele>535.37</ele>
        <time>2025-04-06T12:41:36Z</time>
      </trkpt>
      <trkpt lat="43.12779" lon="0.08868">
        <ele>534.827</ele>
        <time>2025-04-06T12:41:43Z</time>
      </trkpt>
      <trkpt lat="43.1278" lon="0.08874">
        <ele>534.54</ele>
        <time>2025-04-06T12:41:50Z</time>
      </trkpt>
      <trkpt lat="43.1278" lon="0.0888">
        <ele>533.665</ele>
        <time>2025-04-06T12:41:57Z</time>
      </trkpt>
      <trkpt lat="43.12779" lon="0.08887">
        <ele>532.768</ele>
        <time>2025-04-06T12:42:05Z</time>
      </trkpt>
      <trkpt lat="43.1278" lon="0.08894">
        <ele>532.414</ele>
        <time>2025-04-06T12:42:12Z</time>
      </trkpt>
      <trkpt lat="43.12781" lon="0.08901">
        <ele>532.209</ele>
        <time>2025-04-06T12:42:19Z</time>
      </trkpt>
      <trkpt lat="43.1278" lon="0.08908">
        <ele>531.398</ele>
        <time>2025-04-06T12:42:26Z</time>
      </trkpt>
      <trkpt lat="43.1278" lon="0.08914">
        <ele>531.066</ele>
        <time>2025-04-06T12:42:33Z</time>
      </trkpt>
      <trkpt lat="43.12781" lon="0.08921">
        <ele>530.773</ele>
        <time>2025-04-06T12:42:40Z</time>
      </trkpt>
      <trkpt lat="43.1278" lon="0.08927">
        <ele>530.344</ele>
        <time>2025-04-06T12:42:47Z</time>
      </trkpt>
      <trkpt lat="43.1278" lon="0.08934">
        <ele>530.126</ele>
        <time>2025-04-06T12:42:53Z</time>
      </trkpt>
      <trkpt lat="43.1278" lon="0.08941">
        <ele>529.798</ele>
        <time>2025-04-06T12:43:00Z</time>
      </trkpt>
      <trkpt lat="43.1278" lon="0.08947">
        <ele>529.485</ele>
        <time>2025-04-06T12:43:08Z</time>
      </trkpt>
      <trkpt lat="43.12781" lon="0.08954">
        <ele>529.172</ele>
        <time>2025-04-06T12:43:15Z</time>
      </trkpt>
      <trkpt lat="43.12782" lon="0.0896">
        <ele>528.825</ele>
        <time>2025-04-06T12:43:22Z</time>
      </trkpt>
      <trkpt lat="43.12783" lon="0.08966">
        <ele>528.618</ele>
        <time>2025-04-06T12:43:28Z</time>
      </trkpt>
      <trkpt lat="43.12784" lon="0.08973">
        <ele>528.298</ele>
        <time>2025-04-06T12:43:35Z</time>
      </trkpt>
      <trkpt lat="43.12785" lon="0.0898">
        <ele>528.017</ele>
        <time>2025-04-06T12:43:59Z</time>
      </trkpt>
      <trkpt lat="43.12786" lon="0.08986">
        <ele>527.809</ele>
        <time>2025-04-06T12:44:05Z</time>
      </trkpt>
      <trkpt lat="43.12787" lon="0.08993">
        <ele>527.673</ele>
        <time>2025-04-06T12:44:12Z</time>
      </trkpt>
      <trkpt lat="43.12787" lon="0.08999">
        <ele>527.231</ele>
        <time>2025-04-06T12:44:19Z</time>
      </trkpt>
      <trkpt lat="43.1279" lon="0.09005">
        <ele>527.248</ele>
        <time>2025-04-06T12:44:25Z</time>
      </trkpt>
      <trkpt lat="43.12792" lon="0.09011">
        <ele>527.029</ele>
        <time>2025-04-06T12:44:31Z</time>
      </trkpt>
      <trkpt lat="43.12792" lon="0.09017">
        <ele>526.641</ele>
        <time>2025-04-06T12:44:38Z</time>
      </trkpt>
      <trkpt lat="43.12791" lon="0.09024">
        <ele>525.883</ele>
        <time>2025-04-06T12:44:45Z</time>
      </trkpt>
      <trkpt lat="43.12792" lon="0.0903">
        <ele>525.34</ele>
        <time>2025-04-06T12:44:52Z</time>
      </trkpt>
      <trkpt lat="43.12792" lon="0.09037">
        <ele>524.877</ele>
        <time>2025-04-06T12:44:58Z</time>
      </trkpt>
      <trkpt lat="43.12792" lon="0.09044">
        <ele>524.23</ele>
        <time>2025-04-06T12:45:04Z</time>
      </trkpt>
      <trkpt lat="43.12794" lon="0.0905">
        <ele>523.899</ele>
        <time>2025-04-06T12:45:10Z</time>
      </trkpt>
      <trkpt lat="43.12794" lon="0.09057">
        <ele>523.207</ele>
        <time>2025-04-06T12:45:16Z</time>
      </trkpt>
      <trkpt lat="43.12794" lon="0.09063">
        <ele>522.927</ele>
        <time>2025-04-06T12:45:23Z</time>
      </trkpt>
      <trkpt lat="43.12794" lon="0.0907">
        <ele>522.609</ele>
        <time>2025-04-06T12:45:30Z</time>
      </trkpt>
      <trkpt lat="43.12794" lon="0.09076">
        <ele>522.451</ele>
        <time>2025-04-06T12:45:37Z</time>
      </trkpt>
      <trkpt lat="43.12796" lon="0.09082">
        <ele>522.339</ele>
        <time>2025-04-06T12:45:41Z</time>
      </trkpt>
      <trkpt lat="43.12795" lon="0.09089">
        <ele>521.886</ele>
        <time>2025-04-06T12:45:45Z</time>
      </trkpt>
      <trkpt lat="43.12795" lon="0.09095">
        <ele>521.417</ele>
        <time>2025-04-06T12:45:52Z</time>
      </trkpt>
      <trkpt lat="43.12793" lon="0.09102">
        <ele>520.989</ele>
        <time>2025-04-06T12:46:23Z</time>
      </trkpt>
      <trkpt lat="43.12794" lon="0.09109">
        <ele>520.641</ele>
        <time>2025-04-06T12:46:31Z</time>
      </trkpt>
      <trkpt lat="43.12794" lon="0.09116">
        <ele>520.348</ele>
        <time>2025-04-06T12:46:38Z</time>
      </trkpt>
      <trkpt lat="43.12795" lon="0.09123">
        <ele>520.155</ele>
        <time>2025-04-06T12:46:45Z</time>
      </trkpt>
      <trkpt lat="43.12796" lon="0.09129">
        <ele>519.918</ele>
        <time>2025-04-06T12:46:51Z</time>
      </trkpt>
      <trkpt lat="43.12796" lon="0.09135">
        <ele>519.564</ele>
        <time>2025-04-06T12:46:57Z</time>
      </trkpt>
      <trkpt lat="43.12796" lon="0.09143">
        <ele>519.206</ele>
        <time>2025-04-06T12:47:03Z</time>
      </trkpt>
      <trkpt lat="43.12797" lon="0.0915">
        <ele>518.916</ele>
        <time>2025-04-06T12:47:09Z</time>
      </trkpt>
      <trkpt lat="43.12797" lon="0.09157">
        <ele>518.509</ele>
        <time>2025-04-06T12:47:15Z</time>
      </trkpt>
      <trkpt lat="43.12796" lon="0.09163">
        <ele>518.238</ele>
        <time>2025-04-06T12:47:21Z</time>
      </trkpt>
      <trkpt lat="43.12796" lon="0.0917">
        <ele>517.886</ele>
        <time>2025-04-06T12:47:27Z</time>
      </trkpt>
      <trkpt lat="43.12796" lon="0.09177">
        <ele>517.383</ele>
        <time>2025-04-06T12:47:33Z</time>
      </trkpt>
      <trkpt lat="43.12796" lon="0.09184">
        <ele>517.144</ele>
        <time>2025-04-06T12:47:39Z</time>
      </trkpt>
      <trkpt lat="43.12796" lon="0.09191">
        <ele>516.816</ele>
        <time>2025-04-06T12:47:45Z</time>
      </trkpt>
      <trkpt lat="43.12795" lon="0.09198">
        <ele>516.258</ele>
        <time>2025-04-06T12:47:52Z</time>
      </trkpt>
      <trkpt lat="43.12795" lon="0.09204">
        <ele>515.775</ele>
        <time>2025-04-06T12:47:59Z</time>
      </trkpt>
      <trkpt lat="43.12795" lon="0.09211">
        <ele>515.392</ele>
        <time>2025-04-06T12:48:06Z</time>
      </trkpt>
      <trkpt lat="43.12796" lon="0.09218">
        <ele>515.145</ele>
        <time>2025-04-06T12:48:13Z</time>
      </trkpt>
      <trkpt lat="43.12795" lon="0.09224">
        <ele>514.683</ele>
        <time>2025-04-06T12:48:20Z</time>
      </trkpt>
      <trkpt lat="43.12795" lon="0.09231">
        <ele>514.025</ele>
        <time>2025-04-06T12:48:27Z</time>
      </trkpt>
      <trkpt lat="43.12795" lon="0.09237">
        <ele>513.517</ele>
        <time>2025-04-06T12:48:34Z</time>
      </trkpt>
      <trkpt lat="43.12794" lon="0.09244">
        <ele>513.009</ele>
        <time>2025-04-06T12:48:41Z</time>
      </trkpt>
      <trkpt lat="43.12794" lon="0.0925">
        <ele>512.52</ele>
        <time>2025-04-06T12:48:48Z</time>
      </trkpt>
      <trkpt lat="43.12794" lon="0.09257">
        <ele>511.948</ele>
        <time>2025-04-06T12:48:55Z</time>
      </trkpt>
      <trkpt lat="43.12793" lon="0.09264">
        <ele>511.325</ele>
        <time>2025-04-06T12:49:02Z</time>
      </trkpt>
      <trkpt lat="43.12793" lon="0.09271">
        <ele>510.716</ele>
        <time>2025-04-06T12:49:10Z</time>
      </trkpt>
      <trkpt lat="43.12792" lon="0.09277">
        <ele>510.228</ele>
        <time>2025-04-06T12:49:17Z</time>
      </trkpt>
      <trkpt lat="43.12792" lon="0.09283">
        <ele>509.56</ele>
        <time>2025-04-06T12:49:23Z</time>
      </trkpt>
      <trkpt lat="43.12792" lon="0.09289">
        <ele>508.937</ele>
        <time>2025-04-06T12:49:31Z</time>
      </trkpt>
      <trkpt lat="43.12792" lon="0.09296">
        <ele>508.534</ele>
        <time>2025-04-06T12:49:39Z</time>
      </trkpt>
      <trkpt lat="43.12792" lon="0.09302">
        <ele>507.867</ele>
        <time>2025-04-06T12:49:46Z</time>
      </trkpt>
      <trkpt lat="43.12791" lon="0.09309">
        <ele>507.185</ele>
        <time>2025-04-06T12:49:53Z</time>
      </trkpt>
      <trkpt lat="43.12792" lon="0.09315">
        <ele>506.789</ele>
        <time>2025-04-06T12:50:00Z</time>
      </trkpt>
      <trkpt lat="43.12792" lon="0.09321">
        <ele>506.117</ele>
        <time>2025-04-06T12:50:07Z</time>
      </trkpt>
      <trkpt lat="43.12793" lon="0.09328">
        <ele>505.909</ele>
        <time>2025-04-06T12:50:14Z</time>
      </trkpt>
      <trkpt lat="43.12794" lon="0.09334">
        <ele>505.42</ele>
        <time>2025-04-06T12:50:20Z</time>
      </trkpt>
      <trkpt lat="43.12796" lon="0.0934">
        <ele>505.118</ele>
        <time>2025-04-06T12:50:26Z</time>
      </trkpt>
      <trkpt lat="43.12796" lon="0.09346">
        <ele>504.625</ele>
        <time>2025-04-06T12:50:32Z</time>
      </trkpt>
      <trkpt lat="43.12797" lon="0.09353">
        <ele>504.186</ele>
        <time>2025-04-06T12:50:39Z</time>
      </trkpt>
      <trkpt lat="43.12798" lon="0.0936">
        <ele>503.518</ele>
        <time>2025-04-06T12:50:46Z</time>
      </trkpt>
      <trkpt lat="43.12799" lon="0.09366">
        <ele>502.99</ele>
        <time>2025-04-06T12:50:52Z</time>
      </trkpt>
      <trkpt lat="43.12801" lon="0.09372">
        <ele>502.327</ele>
        <time>2025-04-06T12:50:58Z</time>
      </trkpt>
      <trkpt lat="43.12802" lon="0.09379">
        <ele>501.684</ele>
        <time>2025-04-06T12:51:05Z</time>
      </trkpt>
      <trkpt lat="43.12803" lon="0.09386">
        <ele>500.917</ele>
        <time>2025-04-06T12:51:12Z</time>
      </trkpt>
      <trkpt lat="43.12805" lon="0.09392">
        <ele>500.447</ele>
        <time>2025-04-06T12:51:18Z</time>
      </trkpt>
      <trkpt lat="43.12807" lon="0.09397">
        <ele>500.429</ele>
        <time>2025-04-06T12:51:24Z</time>
      </trkpt>
      <trkpt lat="43.1281" lon="0.09403">
        <ele>500.221</ele>
        <time>2025-04-06T12:51:31Z</time>
      </trkpt>
      <trkpt lat="43.12812" lon="0.09409">
        <ele>499.909</ele>
        <time>2025-04-06T12:51:38Z</time>
      </trkpt>
      <trkpt lat="43.12814" lon="0.09415">
        <ele>499.666</ele>
        <time>2025-04-06T12:51:44Z</time>
      </trkpt>
      <trkpt lat="43.12817" lon="0.0942">
        <ele>499.584</ele>
        <time>2025-04-06T12:51:50Z</time>
      </trkpt>
      <trkpt lat="43.12819" lon="0.09425">
        <ele>499.031</ele>
        <time>2025-04-06T12:51:57Z</time>
      </trkpt>
      <trkpt lat="43.12822" lon="0.09431">
        <ele>498.532</ele>
        <time>2025-04-06T12:52:03Z</time>
      </trkpt>
      <trkpt lat="43.12824" lon="0.09436">
        <ele>498.224</ele>
        <time>2025-04-06T12:52:09Z</time>
      </trkpt>
      <trkpt lat="43.12829" lon="0.09441">
        <ele>498.386</ele>
        <time>2025-04-06T12:52:16Z</time>
      </trkpt>
      <trkpt lat="43.12831" lon="0.09447">
        <ele>497.813</ele>
        <time>2025-04-06T12:52:21Z</time>
      </trkpt>
      <trkpt lat="43.12836" lon="0.0945">
        <ele>498.11</ele>
        <time>2025-04-06T12:52:26Z</time>
      </trkpt>
      <trkpt lat="43.12839" lon="0.09454">
        <ele>498.123</ele>
        <time>2025-04-06T12:52:33Z</time>
      </trkpt>
      <trkpt lat="43.12844" lon="0.09456">
        <ele>498.543</ele>
        <time>2025-04-06T12:52:40Z</time>
      </trkpt>
      <trkpt lat="43.12847" lon="0.0946">
        <ele>498.564</ele>
        <time>2025-04-06T12:52:47Z</time>
      </trkpt>
      <trkpt lat="43.12852" lon="0.09464">
        <ele>498.71</ele>
        <time>2025-04-06T12:52:53Z</time>
      </trkpt>
      <trkpt lat="43.12856" lon="0.09467">
        <ele>499.009</ele>
        <time>2025-04-06T12:53:00Z</time>
      </trkpt>
      <trkpt lat="43.1286" lon="0.0947">
        <ele>499.336</ele>
        <time>2025-04-06T12:53:07Z</time>
      </trkpt>
      <trkpt lat="43.12864" lon="0.09474">
        <ele>498.834</ele>
        <time>2025-04-06T12:53:14Z</time>
      </trkpt>
      <trkpt lat="43.12869" lon="0.09477">
        <ele>498.721</ele>
        <time>2025-04-06T12:53:20Z</time>
      </trkpt>
      <trkpt lat="43.12873" lon="0.09479">
        <ele>499.062</ele>
        <time>2025-04-06T12:53:26Z</time>
      </trkpt>
      <trkpt lat="43.12878" lon="0.09482">
        <ele>498.794</ele>
        <time>2025-04-06T12:53:33Z</time>
      </trkpt>
      <trkpt lat="43.12883" lon="0.09485">
        <ele>498.376</ele>
        <time>2025-04-06T12:53:40Z</time>
      </trkpt>
      <trkpt lat="43.12887" lon="0.09488">
        <ele>498.253</ele>
        <time>2025-04-06T12:53:48Z</time>
      </trkpt>
      <trkpt lat="43.12892" lon="0.09489">
        <ele>498.13</ele>
        <time>2025-04-06T12:53:54Z</time>
      </trkpt>
      <trkpt lat="43.12896" lon="0.0949">
        <ele>497.963</ele>
        <time>2025-04-06T12:54:00Z</time>
      </trkpt>
      <trkpt lat="43.12901" lon="0.09491">
        <ele>497.825</ele>
        <time>2025-04-06T12:54:06Z</time>
      </trkpt>
      <trkpt lat="43.12906" lon="0.09493">
        <ele>497.726</ele>
        <time>2025-04-06T12:54:12Z</time>
      </trkpt>
      <trkpt lat="43.1291" lon="0.09495">
        <ele>497.308</ele>
        <time>2025-04-06T12:54:18Z</time>
      </trkpt>
      <trkpt lat="43.12915" lon="0.09496">
        <ele>497.209</ele>
        <time>2025-04-06T12:54:25Z</time>
      </trkpt>
      <trkpt lat="43.1292" lon="0.09497">
        <ele>496.884</ele>
        <time>2025-04-06T12:54:32Z</time>
      </trkpt>
      <trkpt lat="43.12924" lon="0.09498">
        <ele>496.032</ele>
        <time>2025-04-06T12:54:38Z</time>
      </trkpt>
      <trkpt lat="43.12929" lon="0.095">
        <ele>495.249</ele>
        <time>2025-04-06T12:54:45Z</time>
      </trkpt>
      <trkpt lat="43.12934" lon="0.09497">
        <ele>495.52</ele>
        <time>2025-04-06T12:54:52Z</time>
      </trkpt>
      <trkpt lat="43.12939" lon="0.09496">
        <ele>495.752</ele>
        <time>2025-04-06T12:54:59Z</time>
      </trkpt>
      <trkpt lat="43.12944" lon="0.09494">
        <ele>495.794</ele>
        <time>2025-04-06T12:55:06Z</time>
      </trkpt>
      <trkpt lat="43.12949" lon="0.09495">
        <ele>495.391</ele>
        <time>2025-04-06T12:55:13Z</time>
      </trkpt>
      <trkpt lat="43.12954" lon="0.09494">
        <ele>495.118</ele>
        <time>2025-04-06T12:55:19Z</time>
      </trkpt>
      <trkpt lat="43.12959" lon="0.09494">
        <ele>494.631</ele>
        <time>2025-04-06T12:55:25Z</time>
      </trkpt>
      <trkpt lat="43.12963" lon="0.09497">
        <ele>493.747</ele>
        <time>2025-04-06T12:55:33Z</time>
      </trkpt>
      <trkpt lat="43.12967" lon="0.09501">
        <ele>492.229</ele>
        <time>2025-04-06T12:55:41Z</time>
      </trkpt>
      <trkpt lat="43.12969" lon="0.09507">
        <ele>490.321</ele>
        <time>2025-04-06T12:55:49Z</time>
      </trkpt>
      <trkpt lat="43.1297" lon="0.09513">
        <ele>488.409</ele>
        <time>2025-04-06T12:55:56Z</time>
      </trkpt>
      <trkpt lat="43.12973" lon="0.09519">
        <ele>486.736</ele>
        <time>2025-04-06T12:56:04Z</time>
      </trkpt>
      <trkpt lat="43.12976" lon="0.09523">
        <ele>485.824</ele>
        <time>2025-04-06T12:56:10Z</time>
      </trkpt>
      <trkpt lat="43.1298" lon="0.09527">
        <ele>485.471</ele>
        <time>2025-04-06T12:56:16Z</time>
      </trkpt>
      <trkpt lat="43.12984" lon="0.0953">
        <ele>485.232</ele>
        <time>2025-04-06T12:56:22Z</time>
      </trkpt>
      <trkpt lat="43.12989" lon="0.09533">
        <ele>484.914</ele>
        <time>2025-04-06T12:56:28Z</time>
      </trkpt>
      <trkpt lat="43.12992" lon="0.09537">
        <ele>484.156</ele>
        <time>2025-04-06T12:56:34Z</time>
      </trkpt>
      <trkpt lat="43.12997" lon="0.0954">
        <ele>483.843</ele>
        <time>2025-04-06T12:56:42Z</time>
      </trkpt>
      <trkpt lat="43.13002" lon="0.09541">
        <ele>483.83</ele>
        <time>2025-04-06T12:56:50Z</time>
      </trkpt>
      <trkpt lat="43.13006" lon="0.09544">
        <ele>483.733</ele>
        <time>2025-04-06T12:56:56Z</time>
      </trkpt>
      <trkpt lat="43.1301" lon="0.09547">
        <ele>483.118</ele>
        <time>2025-04-06T12:57:02Z</time>
      </trkpt>
      <trkpt lat="43.13014" lon="0.09552">
        <ele>482.298</ele>
        <time>2025-04-06T12:57:08Z</time>
      </trkpt>
      <trkpt lat="43.13017" lon="0.09557">
        <ele>481.217</ele>
        <time>2025-04-06T12:57:14Z</time>
      </trkpt>
      <trkpt lat="43.13021" lon="0.09561">
        <ele>480.309</ele>
        <time>2025-04-06T12:57:21Z</time>
      </trkpt>
      <trkpt lat="43.13023" lon="0.09555">
        <ele>482.453</ele>
        <time>2025-04-06T12:57:32Z</time>
      </trkpt>
      <trkpt lat="43.1302" lon="0.09551">
        <ele>483.151</ele>
        <time>2025-04-06T12:57:40Z</time>
      </trkpt>
      <trkpt lat="43.13024" lon="0.09553">
        <ele>483.338</ele>
        <time>2025-04-06T13:00:57Z</time>
      </trkpt>
      <trkpt lat="43.13028" lon="0.09555">
        <ele>483.169</ele>
        <time>2025-04-06T13:01:04Z</time>
      </trkpt>
      <trkpt lat="43.13032" lon="0.09558">
        <ele>482.791</ele>
        <time>2025-04-06T13:01:10Z</time>
      </trkpt>
      <trkpt lat="43.13037" lon="0.0956">
        <ele>482.363</ele>
        <time>2025-04-06T13:01:17Z</time>
      </trkpt>
      <trkpt lat="43.13041" lon="0.09563">
        <ele>481.88</ele>
        <time>2025-04-06T13:01:24Z</time>
      </trkpt>
      <trkpt lat="43.13045" lon="0.09567">
        <ele>481.277</ele>
        <time>2025-04-06T13:01:32Z</time>
      </trkpt>
      <trkpt lat="43.1305" lon="0.09569">
        <ele>481.12</ele>
        <time>2025-04-06T13:01:38Z</time>
      </trkpt>
      <trkpt lat="43.13054" lon="0.09571">
        <ele>481.078</ele>
        <time>2025-04-06T13:01:46Z</time>
      </trkpt>
      <trkpt lat="43.1306" lon="0.09572">
        <ele>481.133</ele>
        <time>2025-04-06T13:01:53Z</time>
      </trkpt>
      <trkpt lat="43.13064" lon="0.09575">
        <ele>480.726</ele>
        <time>2025-04-06T13:02:00Z</time>
      </trkpt>
      <trkpt lat="43.13069" lon="0.09576">
        <ele>480.509</ele>
        <time>2025-04-06T13:02:07Z</time>
      </trkpt>
      <trkpt lat="43.13074" lon="0.09578">
        <ele>480.599</ele>
        <time>2025-04-06T13:02:14Z</time>
      </trkpt>
      <trkpt lat="43.1308" lon="0.09578">
        <ele>480.777</ele>
        <time>2025-04-06T13:02:21Z</time>
      </trkpt>
      <trkpt lat="43.13084" lon="0.09577">
        <ele>481.054</ele>
        <time>2025-04-06T13:02:27Z</time>
      </trkpt>
      <trkpt lat="43.13089" lon="0.09576">
        <ele>480.255</ele>
        <time>2025-04-06T13:02:33Z</time>
      </trkpt>
      <trkpt lat="43.13094" lon="0.09575">
        <ele>479.747</ele>
        <time>2025-04-06T13:02:40Z</time>
      </trkpt>
      <trkpt lat="43.13099" lon="0.09573">
        <ele>479.249</ele>
        <time>2025-04-06T13:02:48Z</time>
      </trkpt>
      <trkpt lat="43.13103" lon="0.0957">
        <ele>478.986</ele>
        <time>2025-04-06T13:02:55Z</time>
      </trkpt>
      <trkpt lat="43.13107" lon="0.09567">
        <ele>478.843</ele>
        <time>2025-04-06T13:03:02Z</time>
      </trkpt>
      <trkpt lat="43.13111" lon="0.09564">
        <ele>478.676</ele>
        <time>2025-04-06T13:03:09Z</time>
      </trkpt>
      <trkpt lat="43.13114" lon="0.0956">
        <ele>478.671</ele>
        <time>2025-04-06T13:03:15Z</time>
      </trkpt>
      <trkpt lat="43.13118" lon="0.09556">
        <ele>478.741</ele>
        <time>2025-04-06T13:03:22Z</time>
      </trkpt>
      <trkpt lat="43.13122" lon="0.09552">
        <ele>478.415</ele>
        <time>2025-04-06T13:03:28Z</time>
      </trkpt>
      <trkpt lat="43.13127" lon="0.0955">
        <ele>478.009</ele>
        <time>2025-04-06T13:03:34Z</time>
      </trkpt>
      <trkpt lat="43.13131" lon="0.09549">
        <ele>477.399</ele>
        <time>2025-04-06T13:03:40Z</time>
      </trkpt>
      <trkpt lat="43.13136" lon="0.09549">
        <ele>476.647</ele>
        <time>2025-04-06T13:03:47Z</time>
      </trkpt>
      <trkpt lat="43.13141" lon="0.09549">
        <ele>476.224</ele>
        <time>2025-04-06T13:03:55Z</time>
      </trkpt>
      <trkpt lat="43.13145" lon="0.09553">
        <ele>475.515</ele>
        <time>2025-04-06T13:04:03Z</time>
      </trkpt>
      <trkpt lat="43.13149" lon="0.09557">
        <ele>474.647</ele>
        <time>2025-04-06T13:04:13Z</time>
      </trkpt>
      <trkpt lat="43.13153" lon="0.09561">
        <ele>473.979</ele>
        <time>2025-04-06T13:04:19Z</time>
      </trkpt>
      <trkpt lat="43.13156" lon="0.09566">
        <ele>473.026</ele>
        <time>2025-04-06T13:04:27Z</time>
      </trkpt>
      <trkpt lat="43.1316" lon="0.0957">
        <ele>472.333</ele>
        <time>2025-04-06T13:04:33Z</time>
      </trkpt>
      <trkpt lat="43.13164" lon="0.09573">
        <ele>471.896</ele>
        <time>2025-04-06T13:04:39Z</time>
      </trkpt>
      <trkpt lat="43.13168" lon="0.09577">
        <ele>471.314</ele>
        <time>2025-04-06T13:04:45Z</time>
      </trkpt>
      <trkpt lat="43.13171" lon="0.09582">
        <ele>470.754</ele>
        <time>2025-04-06T13:04:51Z</time>
      </trkpt>
      <trkpt lat="43.13175" lon="0.09586">
        <ele>470.209</ele>
        <time>2025-04-06T13:04:58Z</time>
      </trkpt>
      <trkpt lat="43.13178" lon="0.09591">
        <ele>469.709</ele>
        <time>2025-04-06T13:05:06Z</time>
      </trkpt>
      <trkpt lat="43.13182" lon="0.09595">
        <ele>469.293</ele>
        <time>2025-04-06T13:05:15Z</time>
      </trkpt>
      <trkpt lat="43.13187" lon="0.09598">
        <ele>468.851</ele>
        <time>2025-04-06T13:05:22Z</time>
      </trkpt>
      <trkpt lat="43.13191" lon="0.09601">
        <ele>468.258</ele>
        <time>2025-04-06T13:05:29Z</time>
      </trkpt>
      <trkpt lat="43.13196" lon="0.09603">
        <ele>468.139</ele>
        <time>2025-04-06T13:05:35Z</time>
      </trkpt>
      <trkpt lat="43.132" lon="0.09605">
        <ele>468.241</ele>
        <time>2025-04-06T13:05:41Z</time>
      </trkpt>
      <trkpt lat="43.13204" lon="0.09609">
        <ele>468.053</ele>
        <time>2025-04-06T13:05:48Z</time>
      </trkpt>
      <trkpt lat="43.13208" lon="0.09612">
        <ele>467.93</ele>
        <time>2025-04-06T13:05:54Z</time>
      </trkpt>
      <trkpt lat="43.13213" lon="0.09615">
        <ele>467.747</ele>
        <time>2025-04-06T13:06:01Z</time>
      </trkpt>
      <trkpt lat="43.13217" lon="0.09618">
        <ele>467.63</ele>
        <time>2025-04-06T13:06:08Z</time>
      </trkpt>
      <trkpt lat="43.13221" lon="0.09621">
        <ele>467.493</ele>
        <time>2025-04-06T13:06:14Z</time>
      </trkpt>
      <trkpt lat="43.13225" lon="0.09625">
        <ele>467.065</ele>
        <time>2025-04-06T13:06:22Z</time>
      </trkpt>
      <trkpt lat="43.13229" lon="0.09629">
        <ele>466.521</ele>
        <time>2025-04-06T13:06:29Z</time>
      </trkpt>
      <trkpt lat="43.13233" lon="0.09632">
        <ele>466.209</ele>
        <time>2025-04-06T13:06:36Z</time>
      </trkpt>
      <trkpt lat="43.13237" lon="0.09636">
        <ele>465.931</ele>
        <time>2025-04-06T13:06:43Z</time>
      </trkpt>
      <trkpt lat="43.13241" lon="0.0964">
        <ele>465.659</ele>
        <time>2025-04-06T13:06:49Z</time>
      </trkpt>
      <trkpt lat="43.13245" lon="0.09644">
        <ele>465.126</ele>
        <time>2025-04-06T13:06:55Z</time>
      </trkpt>
      <trkpt lat="43.13249" lon="0.09647">
        <ele>464.927</ele>
        <time>2025-04-06T13:07:02Z</time>
      </trkpt>
      <trkpt lat="43.13254" lon="0.0965">
        <ele>464.559</ele>
        <time>2025-04-06T13:07:09Z</time>
      </trkpt>
      <trkpt lat="43.13258" lon="0.09654">
        <ele>463.911</ele>
        <time>2025-04-06T13:07:15Z</time>
      </trkpt>
      <trkpt lat="43.13262" lon="0.09658">
        <ele>463.488</ele>
        <time>2025-04-06T13:07:22Z</time>
      </trkpt>
      <trkpt lat="43.13266" lon="0.09662">
        <ele>462.895</ele>
        <time>2025-04-06T13:07:29Z</time>
      </trkpt>
      <trkpt lat="43.13268" lon="0.09667">
        <ele>461.958</ele>
        <time>2025-04-06T13:07:37Z</time>
      </trkpt>
      <trkpt lat="43.13272" lon="0.09671">
        <ele>461.852</ele>
        <time>2025-04-06T13:07:44Z</time>
      </trkpt>
      <trkpt lat="43.13276" lon="0.09675">
        <ele>461.753</ele>
        <time>2025-04-06T13:07:52Z</time>
      </trkpt>
      <trkpt lat="43.1328" lon="0.09679">
        <ele>461.408</ele>
        <time>2025-04-06T13:07:59Z</time>
      </trkpt>
      <trkpt lat="43.13284" lon="0.09683">
        <ele>461.109</ele>
        <time>2025-04-06T13:08:06Z</time>
      </trkpt>
      <trkpt lat="43.13288" lon="0.09687">
        <ele>460.857</ele>
        <time>2025-04-06T13:08:14Z</time>
      </trkpt>
      <trkpt lat="43.13292" lon="0.09691">
        <ele>460.565</ele>
        <time>2025-04-06T13:08:21Z</time>
      </trkpt>
      <trkpt lat="43.13296" lon="0.09695">
        <ele>460.332</ele>
        <time>2025-04-06T13:08:28Z</time>
      </trkpt>
      <trkpt lat="43.133" lon="0.09699">
        <ele>460.013</ele>
        <time>2025-04-06T13:08:35Z</time>
      </trkpt>
      <trkpt lat="43.13304" lon="0.09703">
        <ele>459.755</ele>
        <time>2025-04-06T13:08:43Z</time>
      </trkpt>
      <trkpt lat="43.13308" lon="0.09706">
        <ele>459.377</ele>
        <time>2025-04-06T13:08:50Z</time>
      </trkpt>
      <trkpt lat="43.13311" lon="0.09711">
        <ele>458.784</ele>
        <time>2025-04-06T13:09:32Z</time>
      </trkpt>
      <trkpt lat="43.13315" lon="0.09714">
        <ele>458.461</ele>
        <time>2025-04-06T13:09:40Z</time>
      </trkpt>
      <trkpt lat="43.13319" lon="0.09718">
        <ele>458.084</ele>
        <time>2025-04-06T13:11:51Z</time>
      </trkpt>
      <trkpt lat="43.13323" lon="0.09722">
        <ele>457.784</ele>
        <time>2025-04-06T13:11:58Z</time>
      </trkpt>
      <trkpt lat="43.13327" lon="0.09725">
        <ele>457.507</ele>
        <time>2025-04-06T13:12:05Z</time>
      </trkpt>
      <trkpt lat="43.13331" lon="0.09728">
        <ele>457.317</ele>
        <time>2025-04-06T13:12:13Z</time>
      </trkpt>
      <trkpt lat="43.13335" lon="0.09733">
        <ele>456.709</ele>
        <time>2025-04-06T13:12:28Z</time>
      </trkpt>
      <trkpt lat="43.1334" lon="0.09736">
        <ele>456.06</ele>
        <time>2025-04-06T13:12:36Z</time>
      </trkpt>
      <trkpt lat="43.13344" lon="0.09737">
        <ele>455.458</ele>
        <time>2025-04-06T13:12:43Z</time>
      </trkpt>
      <trkpt lat="43.13348" lon="0.09741">
        <ele>454.745</ele>
        <time>2025-04-06T13:12:50Z</time>
      </trkpt>
      <trkpt lat="43.13352" lon="0.09745">
        <ele>454.186</ele>
        <time>2025-04-06T13:12:57Z</time>
      </trkpt>
      <trkpt lat="43.13353" lon="0.09751">
        <ele>453.548</ele>
        <time>2025-04-06T13:13:08Z</time>
      </trkpt>
      <trkpt lat="43.13358" lon="0.09754">
        <ele>452.99</ele>
        <time>2025-04-06T13:13:15Z</time>
      </trkpt>
      <trkpt lat="43.13361" lon="0.09758">
        <ele>452.457</ele>
        <time>2025-04-06T13:13:22Z</time>
      </trkpt>
      <trkpt lat="43.13365" lon="0.09763">
        <ele>451.924</ele>
        <time>2025-04-06T13:13:30Z</time>
      </trkpt>
      <trkpt lat="43.13368" lon="0.09767">
        <ele>451.477</ele>
        <time>2025-04-06T13:13:36Z</time>
      </trkpt>
      <trkpt lat="43.13372" lon="0.09771">
        <ele>451.093</ele>
        <time>2025-04-06T13:13:44Z</time>
      </trkpt>
      <trkpt lat="43.13376" lon="0.09776">
        <ele>450.665</ele>
        <time>2025-04-06T13:13:51Z</time>
      </trkpt>
      <trkpt lat="43.1338" lon="0.0978">
        <ele>450.221</ele>
        <time>2025-04-06T13:13:58Z</time>
      </trkpt>
      <trkpt lat="43.13385" lon="0.09784">
        <ele>449.709</ele>
        <time>2025-04-06T13:14:05Z</time>
      </trkpt>
      <trkpt lat="43.13388" lon="0.09788">
        <ele>449.361</ele>
        <time>2025-04-06T13:14:11Z</time>
      </trkpt>
      <trkpt lat="43.13392" lon="0.09792">
        <ele>448.819</ele>
        <time>2025-04-06T13:14:17Z</time>
      </trkpt>
      <trkpt lat="43.13396" lon="0.09796">
        <ele>448.486</ele>
        <time>2025-04-06T13:14:23Z</time>
      </trkpt>
      <trkpt lat="43.134" lon="0.098">
        <ele>447.967</ele>
        <time>2025-04-06T13:14:30Z</time>
      </trkpt>
      <trkpt lat="43.134" lon="0.09801">
        <ele>447.939</ele>
        <time>2025-04-06T13:14:31Z</time>
      </trkpt>
      <trkpt lat="43.13404" lon="0.09805">
        <ele>447.531</ele>
        <time>2025-04-06T13:14:37Z</time>
      </trkpt>
      <trkpt lat="43.13408" lon="0.09809">
        <ele>447.188</ele>
        <time>2025-04-06T13:14:43Z</time>
      </trkpt>
      <trkpt lat="43.13413" lon="0.0981">
        <ele>446.815</ele>
        <time>2025-04-06T13:14:48Z</time>
      </trkpt>
      <trkpt lat="43.13417" lon="0.09814">
        <ele>446.428</ele>
        <time>2025-04-06T13:14:54Z</time>
      </trkpt>
      <trkpt lat="43.13421" lon="0.09818">
        <ele>445.958</ele>
        <time>2025-04-06T13:15:01Z</time>
      </trkpt>
      <trkpt lat="43.13426" lon="0.0982">
        <ele>445.452</ele>
        <time>2025-04-06T13:15:07Z</time>
      </trkpt>
      <trkpt lat="43.13431" lon="0.09823">
        <ele>445.117</ele>
        <time>2025-04-06T13:15:13Z</time>
      </trkpt>
      <trkpt lat="43.13435" lon="0.09825">
        <ele>444.709</ele>
        <time>2025-04-06T13:15:19Z</time>
      </trkpt>
      <trkpt lat="43.13439" lon="0.0983">
        <ele>444.437</ele>
        <time>2025-04-06T13:15:43Z</time>
      </trkpt>
      <trkpt lat="43.13443" lon="0.09833">
        <ele>444.155</ele>
        <time>2025-04-06T13:15:49Z</time>
      </trkpt>
      <trkpt lat="43.13444" lon="0.09833">
        <ele>444.052</ele>
        <time>2025-04-06T13:15:50Z</time>
      </trkpt>
      <trkpt lat="43.13448" lon="0.0983">
        <ele>444.063</ele>
        <time>2025-04-06T13:16:13Z</time>
      </trkpt>
      <trkpt lat="43.13453" lon="0.09832">
        <ele>443.735</ele>
        <time>2025-04-06T13:16:18Z</time>
      </trkpt>
      <trkpt lat="43.13457" lon="0.09834">
        <ele>443.587</ele>
        <time>2025-04-06T13:16:25Z</time>
      </trkpt>
      <trkpt lat="43.13461" lon="0.09837">
        <ele>443.314</ele>
        <time>2025-04-06T13:16:34Z</time>
      </trkpt>
      <trkpt lat="43.13467" lon="0.09838">
        <ele>443.011</ele>
        <time>2025-04-06T13:16:40Z</time>
      </trkpt>
      <trkpt lat="43.13472" lon="0.09839">
        <ele>442.834</ele>
        <time>2025-04-06T13:16:46Z</time>
      </trkpt>
      <trkpt lat="43.13476" lon="0.0984">
        <ele>442.557</ele>
        <time>2025-04-06T13:16:52Z</time>
      </trkpt>
      <trkpt lat="43.13481" lon="0.09841">
        <ele>442.2</ele>
        <time>2025-04-06T13:16:58Z</time>
      </trkpt>
      <trkpt lat="43.13486" lon="0.09842">
        <ele>441.92</ele>
        <time>2025-04-06T13:17:03Z</time>
      </trkpt>
      <trkpt lat="43.13491" lon="0.09841">
        <ele>441.609</ele>
        <time>2025-04-06T13:17:09Z</time>
      </trkpt>
      <trkpt lat="43.13496" lon="0.09841">
        <ele>441.327</ele>
        <time>2025-04-06T13:17:15Z</time>
      </trkpt>
      <trkpt lat="43.13501" lon="0.09842">
        <ele>441.035</ele>
        <time>2025-04-06T13:17:21Z</time>
      </trkpt>
      <trkpt lat="43.13506" lon="0.09842">
        <ele>440.822</ele>
        <time>2025-04-06T13:17:27Z</time>
      </trkpt>
      <trkpt lat="43.13511" lon="0.09843">
        <ele>440.683</ele>
        <time>2025-04-06T13:17:33Z</time>
      </trkpt>
      <trkpt lat="43.13516" lon="0.09843">
        <ele>440.485</ele>
        <time>2025-04-06T13:17:39Z</time>
      </trkpt>
      <trkpt lat="43.13522" lon="0.09843">
        <ele>440.247</ele>
        <time>2025-04-06T13:17:45Z</time>
      </trkpt>
      <trkpt lat="43.13527" lon="0.09843">
        <ele>440.014</ele>
        <time>2025-04-06T13:17:50Z</time>
      </trkpt>
      <trkpt lat="43.13532" lon="0.09843">
        <ele>439.951</ele>
        <time>2025-04-06T13:17:55Z</time>
      </trkpt>
      <trkpt lat="43.13536" lon="0.09843">
        <ele>439.884</ele>
        <time>2025-04-06T13:18:00Z</time>
      </trkpt>
      <trkpt lat="43.13542" lon="0.09843">
        <ele>439.718</ele>
        <time>2025-04-06T13:18:06Z</time>
      </trkpt>
      <trkpt lat="43.13546" lon="0.09844">
        <ele>439.698</ele>
        <time>2025-04-06T13:18:11Z</time>
      </trkpt>
      <trkpt lat="43.13552" lon="0.09844">
        <ele>439.517</ele>
        <time>2025-04-06T13:18:16Z</time>
      </trkpt>
      <trkpt lat="43.13557" lon="0.09845">
        <ele>439.309</ele>
        <time>2025-04-06T13:18:21Z</time>
      </trkpt>
      <trkpt lat="43.13562" lon="0.09846">
        <ele>439.033</ele>
        <time>2025-04-06T13:18:27Z</time>
      </trkpt>
      <trkpt lat="43.13566" lon="0.09843">
        <ele>438.611</ele>
        <time>2025-04-06T13:19:08Z</time>
      </trkpt>
      <trkpt lat="43.1357" lon="0.09847">
        <ele>438.448</ele>
        <time>2025-04-06T13:19:14Z</time>
      </trkpt>
      <trkpt lat="43.13574" lon="0.09851">
        <ele>438.349</ele>
        <time>2025-04-06T13:19:20Z</time>
      </trkpt>
      <trkpt lat="43.13577" lon="0.09856">
        <ele>438.341</ele>
        <time>2025-04-06T13:19:26Z</time>
      </trkpt>
      <trkpt lat="43.13582" lon="0.0986">
        <ele>438.163</ele>
        <time>2025-04-06T13:19:32Z</time>
      </trkpt>
      <trkpt lat="43.13586" lon="0.09863">
        <ele>437.71</ele>
        <time>2025-04-06T13:19:37Z</time>
      </trkpt>
      <trkpt lat="43.13591" lon="0.09865">
        <ele>437.177</ele>
        <time>2025-04-06T13:19:44Z</time>
      </trkpt>
      <trkpt lat="43.13595" lon="0.09863">
        <ele>436.79</ele>
        <time>2025-04-06T13:19:50Z</time>
      </trkpt>
      <trkpt lat="43.13597" lon="0.09869">
        <ele>436.482</ele>
        <time>2025-04-06T13:19:58Z</time>
      </trkpt>
      <trkpt lat="43.136" lon="0.09874">
        <ele>436.043</ele>
        <time>2025-04-06T13:20:05Z</time>
      </trkpt>
      <trkpt lat="43.13603" lon="0.0988">
        <ele>435.717</ele>
        <time>2025-04-06T13:20:12Z</time>
      </trkpt>
      <trkpt lat="43.13604" lon="0.09886">
        <ele>435.509</ele>
        <time>2025-04-06T13:20:19Z</time>
      </trkpt>
      <trkpt lat="43.13603" lon="0.09892">
        <ele>435.35</ele>
        <time>2025-04-06T13:20:27Z</time>
      </trkpt>
      <trkpt lat="43.13604" lon="0.09899">
        <ele>434.868</ele>
        <time>2025-04-06T13:20:34Z</time>
      </trkpt>
      <trkpt lat="43.13606" lon="0.09905">
        <ele>434.215</ele>
        <time>2025-04-06T13:20:41Z</time>
      </trkpt>
      <trkpt lat="43.13607" lon="0.09912">
        <ele>433.656</ele>
        <time>2025-04-06T13:20:48Z</time>
      </trkpt>
      <trkpt lat="43.13608" lon="0.09919">
        <ele>433.188</ele>
        <time>2025-04-06T13:20:55Z</time>
      </trkpt>
      <trkpt lat="43.13609" lon="0.09926">
        <ele>432.55</ele>
        <time>2025-04-06T13:21:04Z</time>
      </trkpt>
      <trkpt lat="43.1361" lon="0.09932">
        <ele>432.067</ele>
        <time>2025-04-06T13:21:10Z</time>
      </trkpt>
      <trkpt lat="43.13611" lon="0.09939">
        <ele>431.474</ele>
        <time>2025-04-06T13:21:17Z</time>
      </trkpt>
      <trkpt lat="43.13612" lon="0.09945">
        <ele>430.987</ele>
        <time>2025-04-06T13:21:23Z</time>
      </trkpt>
      <trkpt lat="43.13613" lon="0.09952">
        <ele>430.324</ele>
        <time>2025-04-06T13:21:31Z</time>
      </trkpt>
      <trkpt lat="43.13617" lon="0.09957">
        <ele>429.604</ele>
        <time>2025-04-06T13:21:38Z</time>
      </trkpt>
      <trkpt lat="43.13621" lon="0.09959">
        <ele>429.114</ele>
        <time>2025-04-06T13:21:44Z</time>
      </trkpt>
      <trkpt lat="43.13624" lon="0.09965">
        <ele>428.309</ele>
        <time>2025-04-06T13:22:00Z</time>
      </trkpt>
      <trkpt lat="43.13625" lon="0.09971">
        <ele>427.664</ele>
        <time>2025-04-06T13:22:07Z</time>
      </trkpt>
      <trkpt lat="43.13625" lon="0.09978">
        <ele>426.952</ele>
        <time>2025-04-06T13:22:13Z</time>
      </trkpt>
      <trkpt lat="43.13628" lon="0.09984">
        <ele>425.839</ele>
        <time>2025-04-06T13:22:19Z</time>
      </trkpt>
      <trkpt lat="43.13629" lon="0.0999">
        <ele>424.96</ele>
        <time>2025-04-06T13:22:25Z</time>
      </trkpt>
      <trkpt lat="43.1363" lon="0.09996">
        <ele>424.142</ele>
        <time>2025-04-06T13:22:31Z</time>
      </trkpt>
      <trkpt lat="43.1363" lon="0.10004">
        <ele>423.394</ele>
        <time>2025-04-06T13:22:37Z</time>
      </trkpt>
      <trkpt lat="43.13634" lon="0.10007">
        <ele>422.331</ele>
        <time>2025-04-06T13:23:07Z</time>
      </trkpt>
      <trkpt lat="43.13633" lon="0.10013">
        <ele>421.988</ele>
        <time>2025-04-06T13:23:29Z</time>
      </trkpt>
      <trkpt lat="43.13632" lon="0.1002">
        <ele>421.611</ele>
        <time>2025-04-06T13:23:35Z</time>
      </trkpt>
      <trkpt lat="43.1363" lon="0.10026">
        <ele>421.454</ele>
        <time>2025-04-06T13:23:41Z</time>
      </trkpt>
      <trkpt lat="43.13629" lon="0.10032">
        <ele>421.256</ele>
        <time>2025-04-06T13:23:47Z</time>
      </trkpt>
      <trkpt lat="43.13627" lon="0.10039">
        <ele>421.011</ele>
        <time>2025-04-06T13:23:53Z</time>
      </trkpt>
      <trkpt lat="43.13624" lon="0.10044">
        <ele>420.909</ele>
        <time>2025-04-06T13:23:58Z</time>
      </trkpt>
      <trkpt lat="43.13623" lon="0.10051">
        <ele>420.587</ele>
        <time>2025-04-06T13:24:04Z</time>
      </trkpt>
      <trkpt lat="43.13621" lon="0.10057">
        <ele>420.225</ele>
        <time>2025-04-06T13:24:10Z</time>
      </trkpt>
      <trkpt lat="43.1362" lon="0.10064">
        <ele>419.982</ele>
        <time>2025-04-06T13:24:15Z</time>
      </trkpt>
      <trkpt lat="43.13621" lon="0.1007">
        <ele>419.533</ele>
        <time>2025-04-06T13:24:34Z</time>
      </trkpt>
      <trkpt lat="43.13617" lon="0.10075">
        <ele>419.365</ele>
        <time>2025-04-06T13:24:41Z</time>
      </trkpt>
      <trkpt lat="43.13614" lon="0.1008">
        <ele>419.197</ele>
        <time>2025-04-06T13:24:47Z</time>
      </trkpt>
      <trkpt lat="43.13611" lon="0.10085">
        <ele>418.964</ele>
        <time>2025-04-06T13:24:53Z</time>
      </trkpt>
      <trkpt lat="43.13607" lon="0.1009">
        <ele>419.031</ele>
        <time>2025-04-06T13:24:59Z</time>
      </trkpt>
      <trkpt lat="43.13604" lon="0.10095">
        <ele>418.924</ele>
        <time>2025-04-06T13:25:04Z</time>
      </trkpt>
      <trkpt lat="43.136" lon="0.10099">
        <ele>418.863</ele>
        <time>2025-04-06T13:25:09Z</time>
      </trkpt>
      <trkpt lat="43.13597" lon="0.10104">
        <ele>418.744</ele>
        <time>2025-04-06T13:25:15Z</time>
      </trkpt>
      <trkpt lat="43.13594" lon="0.1011">
        <ele>418.318</ele>
        <time>2025-04-06T13:25:23Z</time>
      </trkpt>
      <trkpt lat="43.13593" lon="0.10116">
        <ele>417.909</ele>
        <time>2025-04-06T13:25:28Z</time>
      </trkpt>
      <trkpt lat="43.13594" lon="0.10122">
        <ele>417.318</ele>
        <time>2025-04-06T13:25:33Z</time>
      </trkpt>
      <trkpt lat="43.13594" lon="0.10129">
        <ele>416.836</ele>
        <time>2025-04-06T13:26:01Z</time>
      </trkpt>
      <trkpt lat="43.13597" lon="0.10134">
        <ele>416.333</ele>
        <time>2025-04-06T13:26:06Z</time>
      </trkpt>
      <trkpt lat="43.13599" lon="0.1014">
        <ele>416.094</ele>
        <time>2025-04-06T13:26:11Z</time>
      </trkpt>
      <trkpt lat="43.13602" lon="0.10146">
        <ele>415.886</ele>
        <time>2025-04-06T13:26:17Z</time>
      </trkpt>
      <trkpt lat="43.13604" lon="0.10151">
        <ele>415.618</ele>
        <time>2025-04-06T13:26:22Z</time>
      </trkpt>
      <trkpt lat="43.13604" lon="0.10153">
        <ele>415.575</ele>
        <time>2025-04-06T13:26:23Z</time>
      </trkpt>
      <trkpt lat="43.13605" lon="0.10154">
        <ele>415.572</ele>
        <time>2025-04-06T13:26:24Z</time>
      </trkpt>
      <trkpt lat="43.13607" lon="0.1016">
        <ele>415.275</ele>
        <time>2025-04-06T13:26:29Z</time>
      </trkpt>
      <trkpt lat="43.13608" lon="0.10167">
        <ele>415.083</ele>
        <time>2025-04-06T13:26:35Z</time>
      </trkpt>
      <trkpt lat="43.13609" lon="0.10173">
        <ele>415.025</ele>
        <time>2025-04-06T13:26:40Z</time>
      </trkpt>
      <trkpt lat="43.13611" lon="0.10179">
        <ele>415.017</ele>
        <time>2025-04-06T13:26:45Z</time>
      </trkpt>
      <trkpt lat="43.13613" lon="0.10186">
        <ele>415.009</ele>
        <time>2025-04-06T13:26:51Z</time>
      </trkpt>
      <trkpt lat="43.13615" lon="0.10192">
        <ele>415.03</ele>
        <time>2025-04-06T13:26:56Z</time>
      </trkpt>
      <trkpt lat="43.13616" lon="0.10198">
        <ele>415.078</ele>
        <time>2025-04-06T13:27:01Z</time>
      </trkpt>
      <trkpt lat="43.13617" lon="0.10206">
        <ele>415.015</ele>
        <time>2025-04-06T13:27:06Z</time>
      </trkpt>
      <trkpt lat="43.13619" lon="0.10212">
        <ele>415.056</ele>
        <time>2025-04-06T13:27:11Z</time>
      </trkpt>
      <trkpt lat="43.13621" lon="0.10218">
        <ele>415.018</ele>
        <time>2025-04-06T13:27:16Z</time>
      </trkpt>
      <trkpt lat="43.13621" lon="0.10225">
        <ele>415.04</ele>
        <time>2025-04-06T13:27:21Z</time>
      </trkpt>
      <trkpt lat="43.13619" lon="0.10231">
        <ele>415.097</ele>
        <time>2025-04-06T13:27:27Z</time>
      </trkpt>
      <trkpt lat="43.13616" lon="0.10237">
        <ele>415.084</ele>
        <time>2025-04-06T13:27:33Z</time>
      </trkpt>
      <trkpt lat="43.13614" lon="0.10243">
        <ele>415.027</ele>
        <time>2025-04-06T13:28:06Z</time>
      </trkpt>
      <trkpt lat="43.1362" lon="0.10245">
        <ele>415.033</ele>
        <time>2025-04-06T13:28:18Z</time>
      </trkpt>
      <trkpt lat="43.13621" lon="0.10239">
        <ele>415.023</ele>
        <time>2025-04-06T13:28:33Z</time>
      </trkpt>
      <trkpt lat="43.13617" lon="0.10242">
        <ele>415.015</ele>
        <time>2025-04-06T13:28:56Z</time>
      </trkpt>
      <trkpt lat="43.13618" lon="0.10235">
        <ele>415.009</ele>
        <time>2025-04-06T13:29:32Z</time>
      </trkpt>
      <trkpt lat="43.1362" lon="0.10229">
        <ele>415.025</ele>
        <time>2025-04-06T13:29:39Z</time>
      </trkpt>
    </trkseg>
  </trk>
</gpx>